<?xml version="1.0" encoding="UTF-8" standalone="no" ?><gpx xmlns="http://www.topografix.com/GPX/1/1" xmlns:gpxx="http://www.garmin.com/xmlschemas/GpxExtensions/v3" xmlns:wptx1="http://www.garmin.com/xmlschemas/WaypointExtension/v1" xmlns:gpxtpx="http://www.garmin.com/xmlschemas/TrackPointExtension/v1" creator="GuideVTT.com" version="1.1" xmlns:xsi="http://www.w3.org/2001/XMLSchema-instance" xsi:schemaLocation="http://www.topografix.com/GPX/1/1 http://www.topografix.com/GPX/1/1/gpx.xsd http://www.garmin.com/xmlschemas/GpxExtensions/v3 http://www8.garmin.com/xmlschemas/GpxExtensionsv3.xsd http://www.garmin.com/xmlschemas/WaypointExtension/v1 http://www8.garmin.com/xmlschemas/WaypointExtensionv1.xsd http://www.garmin.com/xmlschemas/TrackPointExtension/v1 http://www.garmin.com/xmlschemas/TrackPointExtensionv1.xsd">
<metadata><link href="http://www.garmin.com"><text>Garmin International</text></link><time>2013-06-22T15:13:50Z</time></metadata>
<trk><name>jeanracine.gpx</name><extensions><gpxx:TrackExtension><gpxx:DisplayColor>Cyan</gpxx:DisplayColor></gpxx:TrackExtension></extensions><trkseg>
<trkpt lat="48.70841599" lon="2.07046700"><ele></ele><time>2014-4-24T5:5:57Z</time></trkpt>
<trkpt lat="48.70863342" lon="2.07022190"><ele></ele><time>2014-4-24T5:6:0Z</time></trkpt>
<trkpt lat="48.70877457" lon="2.07004309"><ele></ele><time>2014-4-24T5:6:3Z</time></trkpt>
<trkpt lat="48.70916367" lon="2.06978393"><ele></ele><time>2014-4-24T5:6:6Z</time></trkpt>
<trkpt lat="48.70934677" lon="2.06971097"><ele></ele><time>2014-4-24T5:6:9Z</time></trkpt>
<trkpt lat="48.70928955" lon="2.06949210"><ele></ele><time>2014-4-24T5:6:12Z</time></trkpt>
<trkpt lat="48.70898056" lon="2.06912208"><ele></ele><time>2014-4-24T5:6:15Z</time></trkpt>
<trkpt lat="48.70888138" lon="2.06888008"><ele></ele><time>2014-4-24T5:6:18Z</time></trkpt>
<trkpt lat="48.70886230" lon="2.06882906"><ele></ele><time>2014-4-24T5:6:21Z</time></trkpt>
<trkpt lat="48.70885468" lon="2.06878304"><ele></ele><time>2014-4-24T5:6:24Z</time></trkpt>
<trkpt lat="48.70890427" lon="2.06865191"><ele></ele><time>2014-4-24T5:6:27Z</time></trkpt>
<trkpt lat="48.70909119" lon="2.06860399"><ele></ele><time>2014-4-24T5:6:30Z</time></trkpt>
<trkpt lat="48.70951843" lon="2.06848788"><ele></ele><time>2014-4-24T5:6:33Z</time></trkpt>
<trkpt lat="48.70988464" lon="2.06838703"><ele></ele><time>2014-4-24T5:6:36Z</time></trkpt>
<trkpt lat="48.71023941" lon="2.06831002"><ele></ele><time>2014-4-24T5:6:39Z</time></trkpt>
<trkpt lat="48.71036530" lon="2.06803012"><ele></ele><time>2014-4-24T5:6:42Z</time></trkpt>
<trkpt lat="48.71033859" lon="2.06767106"><ele></ele><time>2014-4-24T5:6:45Z</time></trkpt>
<trkpt lat="48.71030426" lon="2.06721306"><ele></ele><time>2014-4-24T5:6:48Z</time></trkpt>
<trkpt lat="48.71028519" lon="2.06685400"><ele></ele><time>2014-4-24T5:6:51Z</time></trkpt>
<trkpt lat="48.71026993" lon="2.06651402"><ele></ele><time>2014-4-24T5:6:54Z</time></trkpt>
<trkpt lat="48.71022415" lon="2.06596708"><ele></ele><time>2014-4-24T5:6:57Z</time></trkpt>
<trkpt lat="48.71018219" lon="2.06540704"><ele></ele><time>2014-4-24T5:7:0Z</time></trkpt>
<trkpt lat="48.71015930" lon="2.06484795"><ele></ele><time>2014-4-24T5:7:3Z</time></trkpt>
<trkpt lat="48.71013260" lon="2.06428003"><ele></ele><time>2014-4-24T5:7:6Z</time></trkpt>
<trkpt lat="48.71009827" lon="2.06371188"><ele></ele><time>2014-4-24T5:7:9Z</time></trkpt>
<trkpt lat="48.71006393" lon="2.06336498"><ele></ele><time>2014-4-24T5:7:12Z</time></trkpt>
<trkpt lat="48.70972443" lon="2.06312299"><ele></ele><time>2014-4-24T5:7:15Z</time></trkpt>
<trkpt lat="48.70936203" lon="2.06289911"><ele></ele><time>2014-4-24T5:7:18Z</time></trkpt>
<trkpt lat="48.70902634" lon="2.06265402"><ele></ele><time>2014-4-24T5:7:21Z</time></trkpt>
<trkpt lat="48.70873260" lon="2.06228995"><ele></ele><time>2014-4-24T5:7:24Z</time></trkpt>
<trkpt lat="48.70845795" lon="2.06190801"><ele></ele><time>2014-4-24T5:7:27Z</time></trkpt>
<trkpt lat="48.70824051" lon="2.06159210"><ele></ele><time>2014-4-24T5:7:30Z</time></trkpt>
<trkpt lat="48.70809937" lon="2.06123590"><ele></ele><time>2014-4-24T5:7:33Z</time></trkpt>
<trkpt lat="48.70807648" lon="2.06105804"><ele></ele><time>2014-4-24T5:7:36Z</time></trkpt>
<trkpt lat="48.70805740" lon="2.06084704"><ele></ele><time>2014-4-24T5:7:39Z</time></trkpt>
<trkpt lat="48.70806122" lon="2.06076288"><ele></ele><time>2014-4-24T5:7:42Z</time></trkpt>
<trkpt lat="48.70814133" lon="2.06072593"><ele></ele><time>2014-4-24T5:7:45Z</time></trkpt>
<trkpt lat="48.70833588" lon="2.06086707"><ele></ele><time>2014-4-24T5:7:48Z</time></trkpt>
<trkpt lat="48.70833588" lon="2.06146002"><ele></ele><time>2014-4-24T5:7:51Z</time></trkpt>
<trkpt lat="48.70852661" lon="2.06157708"><ele></ele><time>2014-4-24T5:7:54Z</time></trkpt>
<trkpt lat="48.70858765" lon="2.06147695"><ele></ele><time>2014-4-24T5:7:57Z</time></trkpt>
<trkpt lat="48.70864105" lon="2.06137300"><ele></ele><time>2014-4-24T5:8:0Z</time></trkpt>
<trkpt lat="48.70882034" lon="2.06105399"><ele></ele><time>2014-4-24T5:8:3Z</time></trkpt>
<trkpt lat="48.70883942" lon="2.06078792"><ele></ele><time>2014-4-24T5:8:6Z</time></trkpt>
<trkpt lat="48.70893097" lon="2.06044698"><ele></ele><time>2014-4-24T5:8:9Z</time></trkpt>
<trkpt lat="48.70899582" lon="2.06034803"><ele></ele><time>2014-4-24T5:8:12Z</time></trkpt>
<trkpt lat="48.70920563" lon="2.06028295"><ele></ele><time>2014-4-24T5:8:15Z</time></trkpt>
<trkpt lat="48.70926666" lon="2.06028008"><ele></ele><time>2014-4-24T5:8:18Z</time></trkpt>
<trkpt lat="48.70966721" lon="2.06029797"><ele></ele><time>2014-4-24T5:8:21Z</time></trkpt>
<trkpt lat="48.70974731" lon="2.06027508"><ele></ele><time>2014-4-24T5:8:24Z</time></trkpt>
<trkpt lat="48.70989227" lon="2.06019306"><ele></ele><time>2014-4-24T5:8:27Z</time></trkpt>
<trkpt lat="48.70998001" lon="2.06010699"><ele></ele><time>2014-4-24T5:8:30Z</time></trkpt>
<trkpt lat="48.71011353" lon="2.05999088"><ele></ele><time>2014-4-24T5:8:33Z</time></trkpt>
<trkpt lat="48.71040726" lon="2.05960488"><ele></ele><time>2014-4-24T5:8:36Z</time></trkpt>
<trkpt lat="48.71055222" lon="2.05947089"><ele></ele><time>2014-4-24T5:8:39Z</time></trkpt>
<trkpt lat="48.71061325" lon="2.05942798"><ele></ele><time>2014-4-24T5:8:42Z</time></trkpt>
<trkpt lat="48.71080399" lon="2.05929804"><ele></ele><time>2014-4-24T5:8:45Z</time></trkpt>
<trkpt lat="48.71089172" lon="2.05927300"><ele></ele><time>2014-4-24T5:8:48Z</time></trkpt>
<trkpt lat="48.71114349" lon="2.05911207"><ele></ele><time>2014-4-24T5:8:51Z</time></trkpt>
<trkpt lat="48.71147919" lon="2.05878305"><ele></ele><time>2014-4-24T5:8:54Z</time></trkpt>
<trkpt lat="48.71170807" lon="2.05870008"><ele></ele><time>2014-4-24T5:8:57Z</time></trkpt>
<trkpt lat="48.71181870" lon="2.05868793"><ele></ele><time>2014-4-24T5:9:0Z</time></trkpt>
<trkpt lat="48.71195984" lon="2.05865407"><ele></ele><time>2014-4-24T5:9:3Z</time></trkpt>
<trkpt lat="48.71207809" lon="2.05865312"><ele></ele><time>2014-4-24T5:9:6Z</time></trkpt>
<trkpt lat="48.71237183" lon="2.05863500"><ele></ele><time>2014-4-24T5:9:9Z</time></trkpt>
<trkpt lat="48.71260834" lon="2.05833507"><ele></ele><time>2014-4-24T5:9:12Z</time></trkpt>
<trkpt lat="48.71269608" lon="2.05819893"><ele></ele><time>2014-4-24T5:9:15Z</time></trkpt>
<trkpt lat="48.71282196" lon="2.05808401"><ele></ele><time>2014-4-24T5:9:18Z</time></trkpt>
<trkpt lat="48.71292877" lon="2.05787206"><ele></ele><time>2014-4-24T5:9:21Z</time></trkpt>
<trkpt lat="48.71311569" lon="2.05768800"><ele></ele><time>2014-4-24T5:9:24Z</time></trkpt>
<trkpt lat="48.71340561" lon="2.05755997"><ele></ele><time>2014-4-24T5:9:27Z</time></trkpt>
<trkpt lat="48.71371460" lon="2.05755591"><ele></ele><time>2014-4-24T5:9:30Z</time></trkpt>
<trkpt lat="48.71410751" lon="2.05764103"><ele></ele><time>2014-4-24T5:9:33Z</time></trkpt>
<trkpt lat="48.71424103" lon="2.05759096"><ele></ele><time>2014-4-24T5:9:36Z</time></trkpt>
<trkpt lat="48.71442795" lon="2.05738592"><ele></ele><time>2014-4-24T5:9:39Z</time></trkpt>
<trkpt lat="48.71453094" lon="2.05699301"><ele></ele><time>2014-4-24T5:9:42Z</time></trkpt>
<trkpt lat="48.71450424" lon="2.05637908"><ele></ele><time>2014-4-24T5:9:45Z</time></trkpt>
<trkpt lat="48.71441650" lon="2.05579805"><ele></ele><time>2014-4-24T5:9:48Z</time></trkpt>
<trkpt lat="48.71445084" lon="2.05544806"><ele></ele><time>2014-4-24T5:9:51Z</time></trkpt>
<trkpt lat="48.71461105" lon="2.05492496"><ele></ele><time>2014-4-24T5:9:54Z</time></trkpt>
<trkpt lat="48.71463776" lon="2.05486488"><ele></ele><time>2014-4-24T5:9:57Z</time></trkpt>
<trkpt lat="48.71482086" lon="2.05452108"><ele></ele><time>2014-4-24T5:10:0Z</time></trkpt>
<trkpt lat="48.71511459" lon="2.05395508"><ele></ele><time>2014-4-24T5:10:3Z</time></trkpt>
<trkpt lat="48.71530914" lon="2.05346894"><ele></ele><time>2014-4-24T5:10:6Z</time></trkpt>
<trkpt lat="48.71560669" lon="2.05308795"><ele></ele><time>2014-4-24T5:10:9Z</time></trkpt>
<trkpt lat="48.71577835" lon="2.05292702"><ele></ele><time>2014-4-24T5:10:12Z</time></trkpt>
<trkpt lat="48.71624374" lon="2.05267501"><ele></ele><time>2014-4-24T5:10:15Z</time></trkpt>
<trkpt lat="48.71649933" lon="2.05262709"><ele></ele><time>2014-4-24T5:10:18Z</time></trkpt>
<trkpt lat="48.71689987" lon="2.05265689"><ele></ele><time>2014-4-24T5:10:21Z</time></trkpt>
<trkpt lat="48.71731949" lon="2.05261993"><ele></ele><time>2014-4-24T5:10:24Z</time></trkpt>
<trkpt lat="48.71778870" lon="2.05249405"><ele></ele><time>2014-4-24T5:10:27Z</time></trkpt>
<trkpt lat="48.71786499" lon="2.05248499"><ele></ele><time>2014-4-24T5:10:30Z</time></trkpt>
<trkpt lat="48.71814728" lon="2.05240393"><ele></ele><time>2014-4-24T5:10:33Z</time></trkpt>
<trkpt lat="48.71847916" lon="2.05253506"><ele></ele><time>2014-4-24T5:10:36Z</time></trkpt>
<trkpt lat="48.71859360" lon="2.05256796"><ele></ele><time>2014-4-24T5:10:39Z</time></trkpt>
<trkpt lat="48.71884537" lon="2.05263591"><ele></ele><time>2014-4-24T5:10:42Z</time></trkpt>
<trkpt lat="48.71930313" lon="2.05259991"><ele></ele><time>2014-4-24T5:10:45Z</time></trkpt>
<trkpt lat="48.71961975" lon="2.05288792"><ele></ele><time>2014-4-24T5:10:48Z</time></trkpt>
<trkpt lat="48.71973038" lon="2.05304098"><ele></ele><time>2014-4-24T5:10:51Z</time></trkpt>
<trkpt lat="48.71992111" lon="2.05322003"><ele></ele><time>2014-4-24T5:10:54Z</time></trkpt>
<trkpt lat="48.72016907" lon="2.05322504"><ele></ele><time>2014-4-24T5:10:57Z</time></trkpt>
<trkpt lat="48.72038651" lon="2.05321598"><ele></ele><time>2014-4-24T5:11:0Z</time></trkpt>
<trkpt lat="48.72085571" lon="2.05325794"><ele></ele><time>2014-4-24T5:11:3Z</time></trkpt>
<trkpt lat="48.72121811" lon="2.05326605"><ele></ele><time>2014-4-24T5:11:6Z</time></trkpt>
<trkpt lat="48.72147369" lon="2.05282497"><ele></ele><time>2014-4-24T5:11:9Z</time></trkpt>
<trkpt lat="48.72150040" lon="2.05262089"><ele></ele><time>2014-4-24T5:11:12Z</time></trkpt>
<trkpt lat="48.72142410" lon="2.05197310"><ele></ele><time>2014-4-24T5:11:15Z</time></trkpt>
<trkpt lat="48.72138596" lon="2.05168509"><ele></ele><time>2014-4-24T5:11:18Z</time></trkpt>
<trkpt lat="48.72129059" lon="2.05104494"><ele></ele><time>2014-4-24T5:11:21Z</time></trkpt>
<trkpt lat="48.72122192" lon="2.05047488"><ele></ele><time>2014-4-24T5:11:24Z</time></trkpt>
<trkpt lat="48.72118759" lon="2.04997396"><ele></ele><time>2014-4-24T5:11:27Z</time></trkpt>
<trkpt lat="48.72117615" lon="2.04994702"><ele></ele><time>2014-4-24T5:11:30Z</time></trkpt>
<trkpt lat="48.72115326" lon="2.04985690"><ele></ele><time>2014-4-24T5:11:33Z</time></trkpt>
<trkpt lat="48.72112656" lon="2.04931211"><ele></ele><time>2014-4-24T5:11:36Z</time></trkpt>
<trkpt lat="48.72110748" lon="2.04929900"><ele></ele><time>2014-4-24T5:11:39Z</time></trkpt>
<trkpt lat="48.72101212" lon="2.04917097"><ele></ele><time>2014-4-24T5:11:42Z</time></trkpt>
<trkpt lat="48.72100449" lon="2.04920506"><ele></ele><time>2014-4-24T5:11:45Z</time></trkpt>
<trkpt lat="48.72100449" lon="2.04929900"><ele></ele><time>2014-4-24T5:11:48Z</time></trkpt>
<trkpt lat="48.72099686" lon="2.04933691"><ele></ele><time>2014-4-24T5:11:51Z</time></trkpt>
<trkpt lat="48.72100449" lon="2.04920292"><ele></ele><time>2014-4-24T5:11:54Z</time></trkpt>
<trkpt lat="48.72108841" lon="2.04862809"><ele></ele><time>2014-4-24T5:11:57Z</time></trkpt>
<trkpt lat="48.72109222" lon="2.04852700"><ele></ele><time>2014-4-24T5:12:0Z</time></trkpt>
<trkpt lat="48.72115707" lon="2.04796505"><ele></ele><time>2014-4-24T5:12:3Z</time></trkpt>
<trkpt lat="48.72118759" lon="2.04754090"><ele></ele><time>2014-4-24T5:12:6Z</time></trkpt>
<trkpt lat="48.72105789" lon="2.04710889"><ele></ele><time>2014-4-24T5:12:9Z</time></trkpt>
<trkpt lat="48.72097778" lon="2.04692602"><ele></ele><time>2014-4-24T5:12:12Z</time></trkpt>
<trkpt lat="48.72088623" lon="2.04660392"><ele></ele><time>2014-4-24T5:12:15Z</time></trkpt>
<trkpt lat="48.72092438" lon="2.04624009"><ele></ele><time>2014-4-24T5:12:18Z</time></trkpt>
<trkpt lat="48.72116470" lon="2.04585290"><ele></ele><time>2014-4-24T5:12:21Z</time></trkpt>
<trkpt lat="48.72121811" lon="2.04567289"><ele></ele><time>2014-4-24T5:12:24Z</time></trkpt>
<trkpt lat="48.72121811" lon="2.04529810"><ele></ele><time>2014-4-24T5:12:27Z</time></trkpt>
<trkpt lat="48.72128296" lon="2.04478192"><ele></ele><time>2014-4-24T5:12:30Z</time></trkpt>
<trkpt lat="48.72129440" lon="2.04451394"><ele></ele><time>2014-4-24T5:12:33Z</time></trkpt>
<trkpt lat="48.72123718" lon="2.04382801"><ele></ele><time>2014-4-24T5:12:36Z</time></trkpt>
<trkpt lat="48.72126007" lon="2.04363394"><ele></ele><time>2014-4-24T5:12:39Z</time></trkpt>
<trkpt lat="48.72140884" lon="2.04341698"><ele></ele><time>2014-4-24T5:12:42Z</time></trkpt>
<trkpt lat="48.72154617" lon="2.04330802"><ele></ele><time>2014-4-24T5:12:45Z</time></trkpt>
<trkpt lat="48.72167587" lon="2.04322600"><ele></ele><time>2014-4-24T5:12:48Z</time></trkpt>
<trkpt lat="48.72197342" lon="2.04298496"><ele></ele><time>2014-4-24T5:12:51Z</time></trkpt>
<trkpt lat="48.72208405" lon="2.04287791"><ele></ele><time>2014-4-24T5:12:54Z</time></trkpt>
<trkpt lat="48.72219086" lon="2.04275608"><ele></ele><time>2014-4-24T5:12:57Z</time></trkpt>
<trkpt lat="48.72227859" lon="2.04262900"><ele></ele><time>2014-4-24T5:13:0Z</time></trkpt>
<trkpt lat="48.72238922" lon="2.04235005"><ele></ele><time>2014-4-24T5:13:3Z</time></trkpt>
<trkpt lat="48.72251129" lon="2.04207492"><ele></ele><time>2014-4-24T5:13:6Z</time></trkpt>
<trkpt lat="48.72283936" lon="2.04153895"><ele></ele><time>2014-4-24T5:13:9Z</time></trkpt>
<trkpt lat="48.72291565" lon="2.04138494"><ele></ele><time>2014-4-24T5:13:12Z</time></trkpt>
<trkpt lat="48.72298050" lon="2.04120493"><ele></ele><time>2014-4-24T5:13:15Z</time></trkpt>
<trkpt lat="48.72322845" lon="2.04075408"><ele></ele><time>2014-4-24T5:13:18Z</time></trkpt>
<trkpt lat="48.72330093" lon="2.04056406"><ele></ele><time>2014-4-24T5:13:21Z</time></trkpt>
<trkpt lat="48.72349167" lon="2.04018998"><ele></ele><time>2014-4-24T5:13:24Z</time></trkpt>
<trkpt lat="48.72365952" lon="2.03961992"><ele></ele><time>2014-4-24T5:13:27Z</time></trkpt>
<trkpt lat="48.72383118" lon="2.03908205"><ele></ele><time>2014-4-24T5:13:30Z</time></trkpt>
<trkpt lat="48.72407150" lon="2.03854394"><ele></ele><time>2014-4-24T5:13:33Z</time></trkpt>
<trkpt lat="48.72414780" lon="2.03803706"><ele></ele><time>2014-4-24T5:13:36Z</time></trkpt>
<trkpt lat="48.72416306" lon="2.03763700"><ele></ele><time>2014-4-24T5:13:39Z</time></trkpt>
<trkpt lat="48.72414017" lon="2.03744793"><ele></ele><time>2014-4-24T5:13:42Z</time></trkpt>
<trkpt lat="48.72415543" lon="2.03713894"><ele></ele><time>2014-4-24T5:13:45Z</time></trkpt>
<trkpt lat="48.72409439" lon="2.03625798"><ele></ele><time>2014-4-24T5:13:48Z</time></trkpt>
<trkpt lat="48.72409439" lon="2.03565502"><ele></ele><time>2014-4-24T5:13:51Z</time></trkpt>
<trkpt lat="48.72417068" lon="2.03504491"><ele></ele><time>2014-4-24T5:13:54Z</time></trkpt>
<trkpt lat="48.72422409" lon="2.03487301"><ele></ele><time>2014-4-24T5:13:57Z</time></trkpt>
<trkpt lat="48.72417450" lon="2.03459406"><ele></ele><time>2014-4-24T5:14:0Z</time></trkpt>
<trkpt lat="48.72413635" lon="2.03448606"><ele></ele><time>2014-4-24T5:14:3Z</time></trkpt>
<trkpt lat="48.72413254" lon="2.03448105"><ele></ele><time>2014-4-24T5:14:6Z</time></trkpt>
<trkpt lat="48.72396469" lon="2.03441691"><ele></ele><time>2014-4-24T5:14:9Z</time></trkpt>
<trkpt lat="48.72396851" lon="2.03435111"><ele></ele><time>2014-4-24T5:14:12Z</time></trkpt>
<trkpt lat="48.72393799" lon="2.03429794"><ele></ele><time>2014-4-24T5:14:15Z</time></trkpt>
<trkpt lat="48.72389603" lon="2.03425407"><ele></ele><time>2014-4-24T5:14:18Z</time></trkpt>
<trkpt lat="48.72384262" lon="2.03423190"><ele></ele><time>2014-4-24T5:14:21Z</time></trkpt>
<trkpt lat="48.72366333" lon="2.03383994"><ele></ele><time>2014-4-24T5:14:24Z</time></trkpt>
<trkpt lat="48.72367859" lon="2.03353596"><ele></ele><time>2014-4-24T5:14:27Z</time></trkpt>
<trkpt lat="48.72361374" lon="2.03310490"><ele></ele><time>2014-4-24T5:14:30Z</time></trkpt>
<trkpt lat="48.72354126" lon="2.03269410"><ele></ele><time>2014-4-24T5:14:33Z</time></trkpt>
<trkpt lat="48.72345734" lon="2.03217101"><ele></ele><time>2014-4-24T5:14:36Z</time></trkpt>
<trkpt lat="48.72333908" lon="2.03188801"><ele></ele><time>2014-4-24T5:14:39Z</time></trkpt>
<trkpt lat="48.72318649" lon="2.03130507"><ele></ele><time>2014-4-24T5:14:42Z</time></trkpt>
<trkpt lat="48.72298050" lon="2.03083801"><ele></ele><time>2014-4-24T5:14:45Z</time></trkpt>
<trkpt lat="48.72273254" lon="2.03031898"><ele></ele><time>2014-4-24T5:14:48Z</time></trkpt>
<trkpt lat="48.72250748" lon="2.02983904"><ele></ele><time>2014-4-24T5:14:51Z</time></trkpt>
<trkpt lat="48.72248459" lon="2.02976608"><ele></ele><time>2014-4-24T5:14:54Z</time></trkpt>
<trkpt lat="48.72259521" lon="2.02934408"><ele></ele><time>2014-4-24T5:14:57Z</time></trkpt>
<trkpt lat="48.72281265" lon="2.02878690"><ele></ele><time>2014-4-24T5:15:0Z</time></trkpt>
<trkpt lat="48.72287750" lon="2.02864289"><ele></ele><time>2014-4-24T5:15:3Z</time></trkpt>
<trkpt lat="48.72301102" lon="2.02848101"><ele></ele><time>2014-4-24T5:15:6Z</time></trkpt>
<trkpt lat="48.72314453" lon="2.02836895"><ele></ele><time>2014-4-24T5:15:9Z</time></trkpt>
<trkpt lat="48.72337723" lon="2.02822399"><ele></ele><time>2014-4-24T5:15:12Z</time></trkpt>
<trkpt lat="48.72350311" lon="2.02817392"><ele></ele><time>2014-4-24T5:15:15Z</time></trkpt>
<trkpt lat="48.72367477" lon="2.02809811"><ele></ele><time>2014-4-24T5:15:18Z</time></trkpt>
<trkpt lat="48.72406387" lon="2.02779698"><ele></ele><time>2014-4-24T5:15:21Z</time></trkpt>
<trkpt lat="48.72414017" lon="2.02772999"><ele></ele><time>2014-4-24T5:15:24Z</time></trkpt>
<trkpt lat="48.72434616" lon="2.02746606"><ele></ele><time>2014-4-24T5:15:27Z</time></trkpt>
<trkpt lat="48.72454071" lon="2.02729511"><ele></ele><time>2014-4-24T5:15:30Z</time></trkpt>
<trkpt lat="48.72499847" lon="2.02711892"><ele></ele><time>2014-4-24T5:15:33Z</time></trkpt>
<trkpt lat="48.72539139" lon="2.02691102"><ele></ele><time>2014-4-24T5:15:36Z</time></trkpt>
<trkpt lat="48.72572708" lon="2.02668190"><ele></ele><time>2014-4-24T5:15:39Z</time></trkpt>
<trkpt lat="48.72606659" lon="2.02643394"><ele></ele><time>2014-4-24T5:15:42Z</time></trkpt>
<trkpt lat="48.72630310" lon="2.02627993"><ele></ele><time>2014-4-24T5:15:45Z</time></trkpt>
<trkpt lat="48.72668839" lon="2.02588797"><ele></ele><time>2014-4-24T5:15:48Z</time></trkpt>
<trkpt lat="48.72700119" lon="2.02544594"><ele></ele><time>2014-4-24T5:15:51Z</time></trkpt>
<trkpt lat="48.72728729" lon="2.02562499"><ele></ele><time>2014-4-24T5:15:54Z</time></trkpt>
<trkpt lat="48.72734070" lon="2.02570891"><ele></ele><time>2014-4-24T5:15:57Z</time></trkpt>
<trkpt lat="48.72742462" lon="2.02577710"><ele></ele><time>2014-4-24T5:16:0Z</time></trkpt>
<trkpt lat="48.72778702" lon="2.02614093"><ele></ele><time>2014-4-24T5:16:3Z</time></trkpt>
<trkpt lat="48.72810364" lon="2.02647710"><ele></ele><time>2014-4-24T5:16:6Z</time></trkpt>
<trkpt lat="48.72841263" lon="2.02679205"><ele></ele><time>2014-4-24T5:16:9Z</time></trkpt>
<trkpt lat="48.72873688" lon="2.02710199"><ele></ele><time>2014-4-24T5:16:12Z</time></trkpt>
<trkpt lat="48.72907257" lon="2.02741909"><ele></ele><time>2014-4-24T5:16:15Z</time></trkpt>
<trkpt lat="48.72919846" lon="2.02754498"><ele></ele><time>2014-4-24T5:16:18Z</time></trkpt>
<trkpt lat="48.72935867" lon="2.02768207"><ele></ele><time>2014-4-24T5:16:21Z</time></trkpt>
<trkpt lat="48.72944260" lon="2.02773404"><ele></ele><time>2014-4-24T5:16:24Z</time></trkpt>
<trkpt lat="48.72942734" lon="2.02770495"><ele></ele><time>2014-4-24T5:16:27Z</time></trkpt>
<trkpt lat="48.72942734" lon="2.02781010"><ele></ele><time>2014-4-24T5:16:30Z</time></trkpt>
<trkpt lat="48.72943878" lon="2.02788210"><ele></ele><time>2014-4-24T5:16:33Z</time></trkpt>
<trkpt lat="48.72951126" lon="2.02818203"><ele></ele><time>2014-4-24T5:16:36Z</time></trkpt>
<trkpt lat="48.72967911" lon="2.02814007"><ele></ele><time>2014-4-24T5:16:39Z</time></trkpt>
<trkpt lat="48.72978592" lon="2.02802205"><ele></ele><time>2014-4-24T5:16:42Z</time></trkpt>
<trkpt lat="48.72993469" lon="2.02790999"><ele></ele><time>2014-4-24T5:16:45Z</time></trkpt>
<trkpt lat="48.73007584" lon="2.02780700"><ele></ele><time>2014-4-24T5:16:48Z</time></trkpt>
<trkpt lat="48.73023987" lon="2.02773690"><ele></ele><time>2014-4-24T5:16:51Z</time></trkpt>
<trkpt lat="48.73037720" lon="2.02747703"><ele></ele><time>2014-4-24T5:16:54Z</time></trkpt>
<trkpt lat="48.73074341" lon="2.02694607"><ele></ele><time>2014-4-24T5:16:57Z</time></trkpt>
<trkpt lat="48.73081207" lon="2.02687407"><ele></ele><time>2014-4-24T5:17:0Z</time></trkpt>
<trkpt lat="48.73111725" lon="2.02649903"><ele></ele><time>2014-4-24T5:17:3Z</time></trkpt>
<trkpt lat="48.73124695" lon="2.02639699"><ele></ele><time>2014-4-24T5:17:6Z</time></trkpt>
<trkpt lat="48.73159409" lon="2.02603412"><ele></ele><time>2014-4-24T5:17:9Z</time></trkpt>
<trkpt lat="48.73169327" lon="2.02587700"><ele></ele><time>2014-4-24T5:17:12Z</time></trkpt>
<trkpt lat="48.73195267" lon="2.02556896"><ele></ele><time>2014-4-24T5:17:15Z</time></trkpt>
<trkpt lat="48.73207092" lon="2.02547503"><ele></ele><time>2014-4-24T5:17:18Z</time></trkpt>
<trkpt lat="48.73218918" lon="2.02529907"><ele></ele><time>2014-4-24T5:17:21Z</time></trkpt>
<trkpt lat="48.73234558" lon="2.02508307"><ele></ele><time>2014-4-24T5:17:24Z</time></trkpt>
<trkpt lat="48.73244095" lon="2.02500391"><ele></ele><time>2014-4-24T5:17:27Z</time></trkpt>
<trkpt lat="48.73260117" lon="2.02484298"><ele></ele><time>2014-4-24T5:17:30Z</time></trkpt>
<trkpt lat="48.73299026" lon="2.02461505"><ele></ele><time>2014-4-24T5:17:33Z</time></trkpt>
<trkpt lat="48.73329163" lon="2.02437091"><ele></ele><time>2014-4-24T5:17:36Z</time></trkpt>
<trkpt lat="48.73337555" lon="2.02428007"><ele></ele><time>2014-4-24T5:17:39Z</time></trkpt>
<trkpt lat="48.73370743" lon="2.02406812"><ele></ele><time>2014-4-24T5:17:42Z</time></trkpt>
<trkpt lat="48.73382187" lon="2.02398896"><ele></ele><time>2014-4-24T5:17:45Z</time></trkpt>
<trkpt lat="48.73406982" lon="2.02371812"><ele></ele><time>2014-4-24T5:17:48Z</time></trkpt>
<trkpt lat="48.73434448" lon="2.02318597"><ele></ele><time>2014-4-24T5:17:51Z</time></trkpt>
<trkpt lat="48.73438263" lon="2.02310491"><ele></ele><time>2014-4-24T5:17:54Z</time></trkpt>
<trkpt lat="48.73447800" lon="2.02297401"><ele></ele><time>2014-4-24T5:17:57Z</time></trkpt>
<trkpt lat="48.73460388" lon="2.02292609"><ele></ele><time>2014-4-24T5:18:0Z</time></trkpt>
<trkpt lat="48.73476791" lon="2.02293110"><ele></ele><time>2014-4-24T5:18:3Z</time></trkpt>
<trkpt lat="48.73502731" lon="2.02296495"><ele></ele><time>2014-4-24T5:18:6Z</time></trkpt>
<trkpt lat="48.73541641" lon="2.02294397"><ele></ele><time>2014-4-24T5:18:9Z</time></trkpt>
<trkpt lat="48.73572540" lon="2.02293491"><ele></ele><time>2014-4-24T5:18:12Z</time></trkpt>
<trkpt lat="48.73600769" lon="2.02293301"><ele></ele><time>2014-4-24T5:18:15Z</time></trkpt>
<trkpt lat="48.73617172" lon="2.02289200"><ele></ele><time>2014-4-24T5:18:18Z</time></trkpt>
<trkpt lat="48.73659515" lon="2.02284598"><ele></ele><time>2014-4-24T5:18:21Z</time></trkpt>
<trkpt lat="48.73695755" lon="2.02276492"><ele></ele><time>2014-4-24T5:18:24Z</time></trkpt>
<trkpt lat="48.73733902" lon="2.02263808"><ele></ele><time>2014-4-24T5:18:27Z</time></trkpt>
<trkpt lat="48.73761749" lon="2.02258301"><ele></ele><time>2014-4-24T5:18:30Z</time></trkpt>
<trkpt lat="48.73808289" lon="2.02252412"><ele></ele><time>2014-4-24T5:18:33Z</time></trkpt>
<trkpt lat="48.73849106" lon="2.02256799"><ele></ele><time>2014-4-24T5:18:36Z</time></trkpt>
<trkpt lat="48.73886108" lon="2.02260804"><ele></ele><time>2014-4-24T5:18:39Z</time></trkpt>
<trkpt lat="48.73924255" lon="2.02272296"><ele></ele><time>2014-4-24T5:18:42Z</time></trkpt>
<trkpt lat="48.73961258" lon="2.02288890"><ele></ele><time>2014-4-24T5:18:45Z</time></trkpt>
<trkpt lat="48.73983383" lon="2.02299690"><ele></ele><time>2014-4-24T5:18:48Z</time></trkpt>
<trkpt lat="48.74000549" lon="2.02298903"><ele></ele><time>2014-4-24T5:18:51Z</time></trkpt>
<trkpt lat="48.73998642" lon="2.02295303"><ele></ele><time>2014-4-24T5:18:54Z</time></trkpt>
<trkpt lat="48.73992157" lon="2.02304602"><ele></ele><time>2014-4-24T5:18:57Z</time></trkpt>
<trkpt lat="48.73989868" lon="2.02336788"><ele></ele><time>2014-4-24T5:19:0Z</time></trkpt>
<trkpt lat="48.73982239" lon="2.02386999"><ele></ele><time>2014-4-24T5:19:3Z</time></trkpt>
<trkpt lat="48.73978043" lon="2.02402997"><ele></ele><time>2014-4-24T5:19:6Z</time></trkpt>
<trkpt lat="48.73962021" lon="2.02452898"><ele></ele><time>2014-4-24T5:19:9Z</time></trkpt>
<trkpt lat="48.73945999" lon="2.02497196"><ele></ele><time>2014-4-24T5:19:12Z</time></trkpt>
<trkpt lat="48.73939896" lon="2.02516294"><ele></ele><time>2014-4-24T5:19:15Z</time></trkpt>
<trkpt lat="48.73941040" lon="2.02548099"><ele></ele><time>2014-4-24T5:19:18Z</time></trkpt>
<trkpt lat="48.73946762" lon="2.02564812"><ele></ele><time>2014-4-24T5:19:21Z</time></trkpt>
<trkpt lat="48.73953247" lon="2.02592111"><ele></ele><time>2014-4-24T5:19:24Z</time></trkpt>
<trkpt lat="48.73962021" lon="2.02606392"><ele></ele><time>2014-4-24T5:19:27Z</time></trkpt>
<trkpt lat="48.73981094" lon="2.02645111"><ele></ele><time>2014-4-24T5:19:30Z</time></trkpt>
<trkpt lat="48.73985672" lon="2.02651811"><ele></ele><time>2014-4-24T5:19:33Z</time></trkpt>
<trkpt lat="48.73988724" lon="2.02655101"><ele></ele><time>2014-4-24T5:19:36Z</time></trkpt>
<trkpt lat="48.73992920" lon="2.02658892"><ele></ele><time>2014-4-24T5:19:39Z</time></trkpt>
<trkpt lat="48.73996735" lon="2.02663207"><ele></ele><time>2014-4-24T5:19:42Z</time></trkpt>
<trkpt lat="48.73999786" lon="2.02666211"><ele></ele><time>2014-4-24T5:19:45Z</time></trkpt>
<trkpt lat="48.74019623" lon="2.02681088"><ele></ele><time>2014-4-24T5:19:48Z</time></trkpt>
<trkpt lat="48.74022675" lon="2.02681303"><ele></ele><time>2014-4-24T5:19:51Z</time></trkpt>
<trkpt lat="48.74032211" lon="2.02688003"><ele></ele><time>2014-4-24T5:19:54Z</time></trkpt>
<trkpt lat="48.74045563" lon="2.02693510"><ele></ele><time>2014-4-24T5:19:57Z</time></trkpt>
<trkpt lat="48.74053955" lon="2.02699709"><ele></ele><time>2014-4-24T5:20:0Z</time></trkpt>
<trkpt lat="48.74087143" lon="2.02729702"><ele></ele><time>2014-4-24T5:20:3Z</time></trkpt>
<trkpt lat="48.74109268" lon="2.02751493"><ele></ele><time>2014-4-24T5:20:6Z</time></trkpt>
<trkpt lat="48.74119568" lon="2.02763009"><ele></ele><time>2014-4-24T5:20:9Z</time></trkpt>
<trkpt lat="48.74123383" lon="2.02767110"><ele></ele><time>2014-4-24T5:20:12Z</time></trkpt>
<trkpt lat="48.74154282" lon="2.02805996"><ele></ele><time>2014-4-24T5:20:15Z</time></trkpt>
<trkpt lat="48.74170303" lon="2.02828693"><ele></ele><time>2014-4-24T5:20:18Z</time></trkpt>
<trkpt lat="48.74171829" lon="2.02830696"><ele></ele><time>2014-4-24T5:20:21Z</time></trkpt>
<trkpt lat="48.74200439" lon="2.02866292"><ele></ele><time>2014-4-24T5:20:24Z</time></trkpt>
<trkpt lat="48.74225235" lon="2.02907300"><ele></ele><time>2014-4-24T5:20:27Z</time></trkpt>
<trkpt lat="48.74227905" lon="2.02910709"><ele></ele><time>2014-4-24T5:20:30Z</time></trkpt>
<trkpt lat="48.74245453" lon="2.02886701"><ele></ele><time>2014-4-24T5:20:33Z</time></trkpt>
<trkpt lat="48.74263763" lon="2.02856588"><ele></ele><time>2014-4-24T5:20:36Z</time></trkpt>
<trkpt lat="48.74284363" lon="2.02830791"><ele></ele><time>2014-4-24T5:20:39Z</time></trkpt>
<trkpt lat="48.74315643" lon="2.02799392"><ele></ele><time>2014-4-24T5:20:42Z</time></trkpt>
<trkpt lat="48.74337769" lon="2.02776289"><ele></ele><time>2014-4-24T5:20:45Z</time></trkpt>
<trkpt lat="48.74378204" lon="2.02746701"><ele></ele><time>2014-4-24T5:20:48Z</time></trkpt>
<trkpt lat="48.74403763" lon="2.02692008"><ele></ele><time>2014-4-24T5:20:51Z</time></trkpt>
<trkpt lat="48.74409485" lon="2.02672791"><ele></ele><time>2014-4-24T5:20:54Z</time></trkpt>
<trkpt lat="48.74418640" lon="2.02651596"><ele></ele><time>2014-4-24T5:20:57Z</time></trkpt>
<trkpt lat="48.74422455" lon="2.02639508"><ele></ele><time>2014-4-24T5:21:0Z</time></trkpt>
<trkpt lat="48.74444962" lon="2.02591205"><ele></ele><time>2014-4-24T5:21:3Z</time></trkpt>
<trkpt lat="48.74452972" lon="2.02564311"><ele></ele><time>2014-4-24T5:21:6Z</time></trkpt>
<trkpt lat="48.74463272" lon="2.02503109"><ele></ele><time>2014-4-24T5:21:9Z</time></trkpt>
<trkpt lat="48.74467850" lon="2.02461910"><ele></ele><time>2014-4-24T5:21:12Z</time></trkpt>
<trkpt lat="48.74469757" lon="2.02436090"><ele></ele><time>2014-4-24T5:21:15Z</time></trkpt>
<trkpt lat="48.74476242" lon="2.02392507"><ele></ele><time>2014-4-24T5:21:18Z</time></trkpt>
<trkpt lat="48.74480820" lon="2.02368903"><ele></ele><time>2014-4-24T5:21:21Z</time></trkpt>
<trkpt lat="48.74511337" lon="2.02315497"><ele></ele><time>2014-4-24T5:21:24Z</time></trkpt>
<trkpt lat="48.74522018" lon="2.02299905"><ele></ele><time>2014-4-24T5:21:27Z</time></trkpt>
<trkpt lat="48.74544525" lon="2.02269006"><ele></ele><time>2014-4-24T5:21:30Z</time></trkpt>
<trkpt lat="48.74577332" lon="2.02225399"><ele></ele><time>2014-4-24T5:21:33Z</time></trkpt>
<trkpt lat="48.74602890" lon="2.02195096"><ele></ele><time>2014-4-24T5:21:36Z</time></trkpt>
<trkpt lat="48.74610519" lon="2.02185512"><ele></ele><time>2014-4-24T5:21:39Z</time></trkpt>
<trkpt lat="48.74613190" lon="2.02182198"><ele></ele><time>2014-4-24T5:21:42Z</time></trkpt>
<trkpt lat="48.74617004" lon="2.02158189"><ele></ele><time>2014-4-24T5:21:45Z</time></trkpt>
<trkpt lat="48.74615097" lon="2.02144194"><ele></ele><time>2014-4-24T5:21:48Z</time></trkpt>
<trkpt lat="48.74588394" lon="2.02078700"><ele></ele><time>2014-4-24T5:21:51Z</time></trkpt>
<trkpt lat="48.74583817" lon="2.02065301"><ele></ele><time>2014-4-24T5:21:54Z</time></trkpt>
<trkpt lat="48.74568558" lon="2.01987195"><ele></ele><time>2014-4-24T5:21:57Z</time></trkpt>
<trkpt lat="48.74565887" lon="2.01971102"><ele></ele><time>2014-4-24T5:22:0Z</time></trkpt>
<trkpt lat="48.74560928" lon="2.01942301"><ele></ele><time>2014-4-24T5:22:3Z</time></trkpt>
<trkpt lat="48.74554443" lon="2.01915908"><ele></ele><time>2014-4-24T5:22:6Z</time></trkpt>
<trkpt lat="48.74526596" lon="2.01871395"><ele></ele><time>2014-4-24T5:22:9Z</time></trkpt>
<trkpt lat="48.74483109" lon="2.01823997"><ele></ele><time>2014-4-24T5:22:12Z</time></trkpt>
<trkpt lat="48.74459457" lon="2.01800609"><ele></ele><time>2014-4-24T5:22:15Z</time></trkpt>
<trkpt lat="48.74498749" lon="2.01785898"><ele></ele><time>2014-4-24T5:22:18Z</time></trkpt>
<trkpt lat="48.74524689" lon="2.01763606"><ele></ele><time>2014-4-24T5:22:21Z</time></trkpt>
<trkpt lat="48.74548721" lon="2.01709008"><ele></ele><time>2014-4-24T5:22:24Z</time></trkpt>
<trkpt lat="48.74546432" lon="2.01674104"><ele></ele><time>2014-4-24T5:22:27Z</time></trkpt>
<trkpt lat="48.74547958" lon="2.01648092"><ele></ele><time>2014-4-24T5:22:30Z</time></trkpt>
<trkpt lat="48.74552155" lon="2.01603508"><ele></ele><time>2014-4-24T5:22:33Z</time></trkpt>
<trkpt lat="48.74544525" lon="2.01578212"><ele></ele><time>2014-4-24T5:22:36Z</time></trkpt>
<trkpt lat="48.74526596" lon="2.01518202"><ele></ele><time>2014-4-24T5:22:39Z</time></trkpt>
<trkpt lat="48.74525070" lon="2.01500201"><ele></ele><time>2014-4-24T5:22:42Z</time></trkpt>
<trkpt lat="48.74542618" lon="2.01443410"><ele></ele><time>2014-4-24T5:22:45Z</time></trkpt>
<trkpt lat="48.74571228" lon="2.01388907"><ele></ele><time>2014-4-24T5:22:48Z</time></trkpt>
<trkpt lat="48.74580765" lon="2.01364899"><ele></ele><time>2014-4-24T5:22:51Z</time></trkpt>
<trkpt lat="48.74587631" lon="2.01304603"><ele></ele><time>2014-4-24T5:22:54Z</time></trkpt>
<trkpt lat="48.74587250" lon="2.01289010"><ele></ele><time>2014-4-24T5:22:57Z</time></trkpt>
<trkpt lat="48.74588776" lon="2.01240396"><ele></ele><time>2014-4-24T5:23:0Z</time></trkpt>
<trkpt lat="48.74608231" lon="2.01182199"><ele></ele><time>2014-4-24T5:23:3Z</time></trkpt>
<trkpt lat="48.74635696" lon="2.01137495"><ele></ele><time>2014-4-24T5:23:6Z</time></trkpt>
<trkpt lat="48.74638748" lon="2.01131201"><ele></ele><time>2014-4-24T5:23:9Z</time></trkpt>
<trkpt lat="48.74666214" lon="2.01075506"><ele></ele><time>2014-4-24T5:23:12Z</time></trkpt>
<trkpt lat="48.74666595" lon="2.01023698"><ele></ele><time>2014-4-24T5:23:15Z</time></trkpt>
<trkpt lat="48.74654007" lon="2.00983095"><ele></ele><time>2014-4-24T5:23:18Z</time></trkpt>
<trkpt lat="48.74648285" lon="2.00940204"><ele></ele><time>2014-4-24T5:23:21Z</time></trkpt>
<trkpt lat="48.74643707" lon="2.00908899"><ele></ele><time>2014-4-24T5:23:24Z</time></trkpt>
<trkpt lat="48.74635315" lon="2.00872207"><ele></ele><time>2014-4-24T5:23:27Z</time></trkpt>
<trkpt lat="48.74634552" lon="2.00847793"><ele></ele><time>2014-4-24T5:23:30Z</time></trkpt>
<trkpt lat="48.74642181" lon="2.00805998"><ele></ele><time>2014-4-24T5:23:33Z</time></trkpt>
<trkpt lat="48.74647141" lon="2.00785089"><ele></ele><time>2014-4-24T5:23:36Z</time></trkpt>
<trkpt lat="48.74659348" lon="2.00765705"><ele></ele><time>2014-4-24T5:23:39Z</time></trkpt>
<trkpt lat="48.74695587" lon="2.00710392"><ele></ele><time>2014-4-24T5:23:42Z</time></trkpt>
<trkpt lat="48.74723053" lon="2.00672603"><ele></ele><time>2014-4-24T5:23:45Z</time></trkpt>
<trkpt lat="48.74733353" lon="2.00649691"><ele></ele><time>2014-4-24T5:23:48Z</time></trkpt>
<trkpt lat="48.74724579" lon="2.00627995"><ele></ele><time>2014-4-24T5:23:51Z</time></trkpt>
<trkpt lat="48.74700928" lon="2.00578809"><ele></ele><time>2014-4-24T5:23:54Z</time></trkpt>
<trkpt lat="48.74673080" lon="2.00564790"><ele></ele><time>2014-4-24T5:23:57Z</time></trkpt>
<trkpt lat="48.74667358" lon="2.00540090"><ele></ele><time>2014-4-24T5:24:0Z</time></trkpt>
<trkpt lat="48.74661255" lon="2.00521994"><ele></ele><time>2014-4-24T5:24:3Z</time></trkpt>
<trkpt lat="48.74640656" lon="2.00476193"><ele></ele><time>2014-4-24T5:24:6Z</time></trkpt>
<trkpt lat="48.74631500" lon="2.00439501"><ele></ele><time>2014-4-24T5:24:9Z</time></trkpt>
<trkpt lat="48.74604797" lon="2.00423288"><ele></ele><time>2014-4-24T5:24:12Z</time></trkpt>
<trkpt lat="48.74577332" lon="2.00469708"><ele></ele><time>2014-4-24T5:24:15Z</time></trkpt>
<trkpt lat="48.74551010" lon="2.00511193"><ele></ele><time>2014-4-24T5:24:18Z</time></trkpt>
<trkpt lat="48.74541473" lon="2.00519300"><ele></ele><time>2014-4-24T5:24:21Z</time></trkpt>
<trkpt lat="48.74512863" lon="2.00551200"><ele></ele><time>2014-4-24T5:24:24Z</time></trkpt>
<trkpt lat="48.74508286" lon="2.00556493"><ele></ele><time>2014-4-24T5:24:27Z</time></trkpt>
<trkpt lat="48.74504852" lon="2.00566506"><ele></ele><time>2014-4-24T5:24:30Z</time></trkpt>
<trkpt lat="48.74495316" lon="2.00589800"><ele></ele><time>2014-4-24T5:24:33Z</time></trkpt>
<trkpt lat="48.74484253" lon="2.00605202"><ele></ele><time>2014-4-24T5:24:36Z</time></trkpt>
<trkpt lat="48.74470139" lon="2.00627303"><ele></ele><time>2014-4-24T5:24:39Z</time></trkpt>
<trkpt lat="48.74446487" lon="2.00677299"><ele></ele><time>2014-4-24T5:24:42Z</time></trkpt>
<trkpt lat="48.74444199" lon="2.00680304"><ele></ele><time>2014-4-24T5:24:45Z</time></trkpt>
<trkpt lat="48.74428177" lon="2.00708199"><ele></ele><time>2014-4-24T5:24:48Z</time></trkpt>
<trkpt lat="48.74420166" lon="2.00706196"><ele></ele><time>2014-4-24T5:24:51Z</time></trkpt>
<trkpt lat="48.74411011" lon="2.00702810"><ele></ele><time>2014-4-24T5:24:54Z</time></trkpt>
<trkpt lat="48.74393082" lon="2.00707293"><ele></ele><time>2014-4-24T5:24:57Z</time></trkpt>
<trkpt lat="48.74357986" lon="2.00679493"><ele></ele><time>2014-4-24T5:25:0Z</time></trkpt>
<trkpt lat="48.74329758" lon="2.00638890"><ele></ele><time>2014-4-24T5:25:3Z</time></trkpt>
<trkpt lat="48.74316406" lon="2.00621605"><ele></ele><time>2014-4-24T5:25:6Z</time></trkpt>
<trkpt lat="48.74305344" lon="2.00607896"><ele></ele><time>2014-4-24T5:25:9Z</time></trkpt>
<trkpt lat="48.74272919" lon="2.00565195"><ele></ele><time>2014-4-24T5:25:12Z</time></trkpt>
<trkpt lat="48.74243927" lon="2.00522804"><ele></ele><time>2014-4-24T5:25:15Z</time></trkpt>
<trkpt lat="48.74216843" lon="2.00481510"><ele></ele><time>2014-4-24T5:25:18Z</time></trkpt>
<trkpt lat="48.74187469" lon="2.00442910"><ele></ele><time>2014-4-24T5:25:21Z</time></trkpt>
<trkpt lat="48.74178314" lon="2.00427699"><ele></ele><time>2014-4-24T5:25:24Z</time></trkpt>
<trkpt lat="48.74170685" lon="2.00411391"><ele></ele><time>2014-4-24T5:25:27Z</time></trkpt>
<trkpt lat="48.74151230" lon="2.00384307"><ele></ele><time>2014-4-24T5:25:30Z</time></trkpt>
<trkpt lat="48.74118423" lon="2.00337195"><ele></ele><time>2014-4-24T5:25:33Z</time></trkpt>
<trkpt lat="48.74114227" lon="2.00331211"><ele></ele><time>2014-4-24T5:25:36Z</time></trkpt>
<trkpt lat="48.74085999" lon="2.00284100"><ele></ele><time>2014-4-24T5:25:39Z</time></trkpt>
<trkpt lat="48.74060440" lon="2.00249290"><ele></ele><time>2014-4-24T5:25:42Z</time></trkpt>
<trkpt lat="48.74023819" lon="2.00201392"><ele></ele><time>2014-4-24T5:25:45Z</time></trkpt>
<trkpt lat="48.74013901" lon="2.00187111"><ele></ele><time>2014-4-24T5:25:48Z</time></trkpt>
<trkpt lat="48.74005508" lon="2.00171089"><ele></ele><time>2014-4-24T5:25:51Z</time></trkpt>
<trkpt lat="48.73974991" lon="2.00140905"><ele></ele><time>2014-4-24T5:25:54Z</time></trkpt>
<trkpt lat="48.73948288" lon="2.00141692"><ele></ele><time>2014-4-24T5:25:57Z</time></trkpt>
<trkpt lat="48.73909760" lon="2.00146699"><ele></ele><time>2014-4-24T5:26:0Z</time></trkpt>
<trkpt lat="48.73883057" lon="2.00154805"><ele></ele><time>2014-4-24T5:26:3Z</time></trkpt>
<trkpt lat="48.73841476" lon="2.00160909"><ele></ele><time>2014-4-24T5:26:6Z</time></trkpt>
<trkpt lat="48.73803711" lon="2.00159502"><ele></ele><time>2014-4-24T5:26:9Z</time></trkpt>
<trkpt lat="48.73777771" lon="2.00166106"><ele></ele><time>2014-4-24T5:26:12Z</time></trkpt>
<trkpt lat="48.73760986" lon="2.00173712"><ele></ele><time>2014-4-24T5:26:15Z</time></trkpt>
<trkpt lat="48.73747253" lon="2.00173807"><ele></ele><time>2014-4-24T5:26:18Z</time></trkpt>
<trkpt lat="48.73724747" lon="2.00173211"><ele></ele><time>2014-4-24T5:26:21Z</time></trkpt>
<trkpt lat="48.73704529" lon="2.00175309"><ele></ele><time>2014-4-24T5:26:24Z</time></trkpt>
<trkpt lat="48.73682785" lon="2.00181699"><ele></ele><time>2014-4-24T5:26:27Z</time></trkpt>
<trkpt lat="48.73671341" lon="2.00183606"><ele></ele><time>2014-4-24T5:26:30Z</time></trkpt>
<trkpt lat="48.73624420" lon="2.00185394"><ele></ele><time>2014-4-24T5:26:33Z</time></trkpt>
<trkpt lat="48.73600769" lon="2.00193310"><ele></ele><time>2014-4-24T5:26:36Z</time></trkpt>
<trkpt lat="48.73553848" lon="2.00204301"><ele></ele><time>2014-4-24T5:26:39Z</time></trkpt>
<trkpt lat="48.73534012" lon="2.00205803"><ele></ele><time>2014-4-24T5:26:42Z</time></trkpt>
<trkpt lat="48.73529434" lon="2.00206399"><ele></ele><time>2014-4-24T5:26:45Z</time></trkpt>
<trkpt lat="48.73521805" lon="2.00149012"><ele></ele><time>2014-4-24T5:26:48Z</time></trkpt>
<trkpt lat="48.73526382" lon="2.00140190"><ele></ele><time>2014-4-24T5:26:51Z</time></trkpt>
<trkpt lat="48.73526001" lon="2.00137496"><ele></ele><time>2014-4-24T5:26:54Z</time></trkpt>
<trkpt lat="48.73526382" lon="2.00131989"><ele></ele><time>2014-4-24T5:26:57Z</time></trkpt>
<trkpt lat="48.73526764" lon="2.00124788"><ele></ele><time>2014-4-24T5:27:0Z</time></trkpt>
<trkpt lat="48.73526001" lon="2.00119209"><ele></ele><time>2014-4-24T5:27:3Z</time></trkpt>
<trkpt lat="48.73517990" lon="2.00104189"><ele></ele><time>2014-4-24T5:27:6Z</time></trkpt>
<trkpt lat="48.73511124" lon="2.00082397"><ele></ele><time>2014-4-24T5:27:9Z</time></trkpt>
<trkpt lat="48.73503876" lon="2.00057912"><ele></ele><time>2014-4-24T5:27:12Z</time></trkpt>
<trkpt lat="48.73497009" lon="2.00003695"><ele></ele><time>2014-4-24T5:27:15Z</time></trkpt>
<trkpt lat="48.73508453" lon="1.99985194"><ele></ele><time>2014-4-24T5:27:18Z</time></trkpt>
<trkpt lat="48.73515701" lon="1.99978006"><ele></ele><time>2014-4-24T5:27:21Z</time></trkpt>
<trkpt lat="48.73518372" lon="1.99960196"><ele></ele><time>2014-4-24T5:27:24Z</time></trkpt>
<trkpt lat="48.73520279" lon="1.99933004"><ele></ele><time>2014-4-24T5:27:27Z</time></trkpt>
<trkpt lat="48.73509979" lon="1.99920404"><ele></ele><time>2014-4-24T5:27:30Z</time></trkpt>
<trkpt lat="48.73508453" lon="1.99902403"><ele></ele><time>2014-4-24T5:27:33Z</time></trkpt>
<trkpt lat="48.73501968" lon="1.99837005"><ele></ele><time>2014-4-24T5:27:36Z</time></trkpt>
<trkpt lat="48.73502731" lon="1.99829805"><ele></ele><time>2014-4-24T5:27:39Z</time></trkpt>
<trkpt lat="48.73499680" lon="1.99760902"><ele></ele><time>2014-4-24T5:27:42Z</time></trkpt>
<trkpt lat="48.73497391" lon="1.99745297"><ele></ele><time>2014-4-24T5:27:45Z</time></trkpt>
<trkpt lat="48.73493195" lon="1.99711502"><ele></ele><time>2014-4-24T5:27:48Z</time></trkpt>
<trkpt lat="48.73496628" lon="1.99681902"><ele></ele><time>2014-4-24T5:27:51Z</time></trkpt>
<trkpt lat="48.73507309" lon="1.99620605"><ele></ele><time>2014-4-24T5:27:54Z</time></trkpt>
<trkpt lat="48.73510742" lon="1.99601996"><ele></ele><time>2014-4-24T5:27:57Z</time></trkpt>
<trkpt lat="48.73533249" lon="1.99549794"><ele></ele><time>2014-4-24T5:28:0Z</time></trkpt>
<trkpt lat="48.73562622" lon="1.99499702"><ele></ele><time>2014-4-24T5:28:3Z</time></trkpt>
<trkpt lat="48.73567581" lon="1.99495995"><ele></ele><time>2014-4-24T5:28:6Z</time></trkpt>
<trkpt lat="48.73613358" lon="1.99491596"><ele></ele><time>2014-4-24T5:28:9Z</time></trkpt>
<trkpt lat="48.73648071" lon="1.99496400"><ele></ele><time>2014-4-24T5:28:12Z</time></trkpt>
<trkpt lat="48.73665237" lon="1.99479902"><ele></ele><time>2014-4-24T5:28:15Z</time></trkpt>
<trkpt lat="48.73708725" lon="1.99466205"><ele></ele><time>2014-4-24T5:28:18Z</time></trkpt>
<trkpt lat="48.73748016" lon="1.99454200"><ele></ele><time>2014-4-24T5:28:21Z</time></trkpt>
<trkpt lat="48.73773956" lon="1.99413896"><ele></ele><time>2014-4-24T5:28:24Z</time></trkpt>
<trkpt lat="48.73798752" lon="1.99365902"><ele></ele><time>2014-4-24T5:28:27Z</time></trkpt>
<trkpt lat="48.73828888" lon="1.99333596"><ele></ele><time>2014-4-24T5:28:30Z</time></trkpt>
<trkpt lat="48.73837662" lon="1.99327099"><ele></ele><time>2014-4-24T5:28:33Z</time></trkpt>
<trkpt lat="48.73836136" lon="1.99315095"><ele></ele><time>2014-4-24T5:28:36Z</time></trkpt>
<trkpt lat="48.73831177" lon="1.99297798"><ele></ele><time>2014-4-24T5:28:39Z</time></trkpt>
<trkpt lat="48.73818207" lon="1.99263799"><ele></ele><time>2014-4-24T5:28:42Z</time></trkpt>
<trkpt lat="48.73794937" lon="1.99212694"><ele></ele><time>2014-4-24T5:28:45Z</time></trkpt>
<trkpt lat="48.73787689" lon="1.99192703"><ele></ele><time>2014-4-24T5:28:48Z</time></trkpt>
<trkpt lat="48.73783875" lon="1.99124396"><ele></ele><time>2014-4-24T5:28:51Z</time></trkpt>
<trkpt lat="48.73788452" lon="1.99092698"><ele></ele><time>2014-4-24T5:28:54Z</time></trkpt>
<trkpt lat="48.73796082" lon="1.99081504"><ele></ele><time>2014-4-24T5:28:57Z</time></trkpt>
<trkpt lat="48.73814011" lon="1.99052894"><ele></ele><time>2014-4-24T5:29:0Z</time></trkpt>
<trkpt lat="48.73826218" lon="1.99029303"><ele></ele><time>2014-4-24T5:29:3Z</time></trkpt>
<trkpt lat="48.73833466" lon="1.99010897"><ele></ele><time>2014-4-24T5:29:6Z</time></trkpt>
<trkpt lat="48.73846817" lon="1.98972297"><ele></ele><time>2014-4-24T5:29:9Z</time></trkpt>
<trkpt lat="48.73851395" lon="1.98957300"><ele></ele><time>2014-4-24T5:29:12Z</time></trkpt>
<trkpt lat="48.73867035" lon="1.98899400"><ele></ele><time>2014-4-24T5:29:15Z</time></trkpt>
<trkpt lat="48.73884964" lon="1.98850095"><ele></ele><time>2014-4-24T5:29:18Z</time></trkpt>
<trkpt lat="48.73899841" lon="1.98799503"><ele></ele><time>2014-4-24T5:29:21Z</time></trkpt>
<trkpt lat="48.73908615" lon="1.98772097"><ele></ele><time>2014-4-24T5:29:24Z</time></trkpt>
<trkpt lat="48.73921585" lon="1.98709798"><ele></ele><time>2014-4-24T5:29:27Z</time></trkpt>
<trkpt lat="48.73929596" lon="1.98655295"><ele></ele><time>2014-4-24T5:29:30Z</time></trkpt>
<trkpt lat="48.73937607" lon="1.98595095"><ele></ele><time>2014-4-24T5:29:33Z</time></trkpt>
<trkpt lat="48.73939514" lon="1.98540795"><ele></ele><time>2014-4-24T5:29:36Z</time></trkpt>
<trkpt lat="48.73939896" lon="1.98479903"><ele></ele><time>2014-4-24T5:29:39Z</time></trkpt>
<trkpt lat="48.73939133" lon="1.98422301"><ele></ele><time>2014-4-24T5:29:42Z</time></trkpt>
<trkpt lat="48.73941040" lon="1.98367298"><ele></ele><time>2014-4-24T5:29:45Z</time></trkpt>
<trkpt lat="48.73950958" lon="1.98308301"><ele></ele><time>2014-4-24T5:29:48Z</time></trkpt>
<trkpt lat="48.73963165" lon="1.98255801"><ele></ele><time>2014-4-24T5:29:51Z</time></trkpt>
<trkpt lat="48.73975372" lon="1.98203897"><ele></ele><time>2014-4-24T5:29:54Z</time></trkpt>
<trkpt lat="48.73984909" lon="1.98169899"><ele></ele><time>2014-4-24T5:29:57Z</time></trkpt>
<trkpt lat="48.74002075" lon="1.98110104"><ele></ele><time>2014-4-24T5:30:0Z</time></trkpt>
<trkpt lat="48.74020004" lon="1.98058605"><ele></ele><time>2014-4-24T5:30:3Z</time></trkpt>
<trkpt lat="48.74037552" lon="1.98005795"><ele></ele><time>2014-4-24T5:30:6Z</time></trkpt>
<trkpt lat="48.74055481" lon="1.97950995"><ele></ele><time>2014-4-24T5:30:9Z</time></trkpt>
<trkpt lat="48.74072647" lon="1.97902596"><ele></ele><time>2014-4-24T5:30:12Z</time></trkpt>
<trkpt lat="48.74092865" lon="1.97847700"><ele></ele><time>2014-4-24T5:30:15Z</time></trkpt>
<trkpt lat="48.74110794" lon="1.97796702"><ele></ele><time>2014-4-24T5:30:18Z</time></trkpt>
<trkpt lat="48.74130630" lon="1.97744000"><ele></ele><time>2014-4-24T5:30:21Z</time></trkpt>
<trkpt lat="48.74138260" lon="1.97722995"><ele></ele><time>2014-4-24T5:30:24Z</time></trkpt>
<trkpt lat="48.74133301" lon="1.97685099"><ele></ele><time>2014-4-24T5:30:27Z</time></trkpt>
<trkpt lat="48.74099350" lon="1.97642195"><ele></ele><time>2014-4-24T5:30:30Z</time></trkpt>
<trkpt lat="48.74070358" lon="1.97601795"><ele></ele><time>2014-4-24T5:30:33Z</time></trkpt>
<trkpt lat="48.74046707" lon="1.97560096"><ele></ele><time>2014-4-24T5:30:36Z</time></trkpt>
<trkpt lat="48.74023438" lon="1.97517800"><ele></ele><time>2014-4-24T5:30:39Z</time></trkpt>
<trkpt lat="48.74002075" lon="1.97472095"><ele></ele><time>2014-4-24T5:30:42Z</time></trkpt>
<trkpt lat="48.73995590" lon="1.97459900"><ele></ele><time>2014-4-24T5:30:45Z</time></trkpt>
<trkpt lat="48.73989105" lon="1.97416902"><ele></ele><time>2014-4-24T5:30:48Z</time></trkpt>
<trkpt lat="48.73993301" lon="1.97405899"><ele></ele><time>2014-4-24T5:30:51Z</time></trkpt>
<trkpt lat="48.74000549" lon="1.97387302"><ele></ele><time>2014-4-24T5:30:54Z</time></trkpt>
<trkpt lat="48.74007034" lon="1.97368300"><ele></ele><time>2014-4-24T5:30:57Z</time></trkpt>
<trkpt lat="48.74014664" lon="1.97350597"><ele></ele><time>2014-4-24T5:31:0Z</time></trkpt>
<trkpt lat="48.74025726" lon="1.97322702"><ele></ele><time>2014-4-24T5:31:3Z</time></trkpt>
<trkpt lat="48.74044800" lon="1.97263098"><ele></ele><time>2014-4-24T5:31:6Z</time></trkpt>
<trkpt lat="48.74057007" lon="1.97210598"><ele></ele><time>2014-4-24T5:31:9Z</time></trkpt>
<trkpt lat="48.74064636" lon="1.97153103"><ele></ele><time>2014-4-24T5:31:12Z</time></trkpt>
<trkpt lat="48.74060059" lon="1.97095394"><ele></ele><time>2014-4-24T5:31:15Z</time></trkpt>
<trkpt lat="48.74051666" lon="1.97038996"><ele></ele><time>2014-4-24T5:31:18Z</time></trkpt>
<trkpt lat="48.74042130" lon="1.96982801"><ele></ele><time>2014-4-24T5:31:21Z</time></trkpt>
<trkpt lat="48.74033356" lon="1.96926296"><ele></ele><time>2014-4-24T5:31:24Z</time></trkpt>
<trkpt lat="48.74031448" lon="1.96893501"><ele></ele><time>2014-4-24T5:31:27Z</time></trkpt>
<trkpt lat="48.74025726" lon="1.96868396"><ele></ele><time>2014-4-24T5:31:30Z</time></trkpt>
<trkpt lat="48.73998260" lon="1.96820998"><ele></ele><time>2014-4-24T5:31:33Z</time></trkpt>
<trkpt lat="48.73972321" lon="1.96778905"><ele></ele><time>2014-4-24T5:31:36Z</time></trkpt>
<trkpt lat="48.73945999" lon="1.96737301"><ele></ele><time>2014-4-24T5:31:39Z</time></trkpt>
<trkpt lat="48.73919296" lon="1.96694803"><ele></ele><time>2014-4-24T5:31:42Z</time></trkpt>
<trkpt lat="48.73894119" lon="1.96655500"><ele></ele><time>2014-4-24T5:31:45Z</time></trkpt>
<trkpt lat="48.73868942" lon="1.96616495"><ele></ele><time>2014-4-24T5:31:48Z</time></trkpt>
<trkpt lat="48.73839951" lon="1.96575105"><ele></ele><time>2014-4-24T5:31:51Z</time></trkpt>
<trkpt lat="48.73813248" lon="1.96540904"><ele></ele><time>2014-4-24T5:31:54Z</time></trkpt>
<trkpt lat="48.73778915" lon="1.96501100"><ele></ele><time>2014-4-24T5:31:57Z</time></trkpt>
<trkpt lat="48.73774719" lon="1.96497297"><ele></ele><time>2014-4-24T5:32:0Z</time></trkpt>
<trkpt lat="48.73736191" lon="1.96470702"><ele></ele><time>2014-4-24T5:32:3Z</time></trkpt>
<trkpt lat="48.73727036" lon="1.96464002"><ele></ele><time>2014-4-24T5:32:6Z</time></trkpt>
<trkpt lat="48.73717499" lon="1.96459603"><ele></ele><time>2014-4-24T5:32:9Z</time></trkpt>
<trkpt lat="48.73677063" lon="1.96451402"><ele></ele><time>2014-4-24T5:32:12Z</time></trkpt>
<trkpt lat="48.73651505" lon="1.96446204"><ele></ele><time>2014-4-24T5:32:15Z</time></trkpt>
<trkpt lat="48.73608017" lon="1.96448398"><ele></ele><time>2014-4-24T5:32:18Z</time></trkpt>
<trkpt lat="48.73570633" lon="1.96450901"><ele></ele><time>2014-4-24T5:32:21Z</time></trkpt>
<trkpt lat="48.73534012" lon="1.96454895"><ele></ele><time>2014-4-24T5:32:24Z</time></trkpt>
<trkpt lat="48.73493195" lon="1.96457303"><ele></ele><time>2014-4-24T5:32:27Z</time></trkpt>
<trkpt lat="48.73452759" lon="1.96459997"><ele></ele><time>2014-4-24T5:32:30Z</time></trkpt>
<trkpt lat="48.73413086" lon="1.96461701"><ele></ele><time>2014-4-24T5:32:33Z</time></trkpt>
<trkpt lat="48.73373413" lon="1.96468306"><ele></ele><time>2014-4-24T5:32:36Z</time></trkpt>
<trkpt lat="48.73332596" lon="1.96478605"><ele></ele><time>2014-4-24T5:32:39Z</time></trkpt>
<trkpt lat="48.73294449" lon="1.96487403"><ele></ele><time>2014-4-24T5:32:42Z</time></trkpt>
<trkpt lat="48.73255920" lon="1.96495497"><ele></ele><time>2014-4-24T5:32:45Z</time></trkpt>
<trkpt lat="48.73218918" lon="1.96497798"><ele></ele><time>2014-4-24T5:32:48Z</time></trkpt>
<trkpt lat="48.73178864" lon="1.96500194"><ele></ele><time>2014-4-24T5:32:51Z</time></trkpt>
<trkpt lat="48.73138046" lon="1.96498501"><ele></ele><time>2014-4-24T5:32:54Z</time></trkpt>
<trkpt lat="48.73097610" lon="1.96494699"><ele></ele><time>2014-4-24T5:32:57Z</time></trkpt>
<trkpt lat="48.73057556" lon="1.96488500"><ele></ele><time>2014-4-24T5:33:0Z</time></trkpt>
<trkpt lat="48.73037720" lon="1.96486104"><ele></ele><time>2014-4-24T5:33:3Z</time></trkpt>
<trkpt lat="48.72991943" lon="1.96477497"><ele></ele><time>2014-4-24T5:33:6Z</time></trkpt>
<trkpt lat="48.72954941" lon="1.96471202"><ele></ele><time>2014-4-24T5:33:9Z</time></trkpt>
<trkpt lat="48.72914886" lon="1.96466303"><ele></ele><time>2014-4-24T5:33:12Z</time></trkpt>
<trkpt lat="48.72874069" lon="1.96466398"><ele></ele><time>2014-4-24T5:33:15Z</time></trkpt>
<trkpt lat="48.72834015" lon="1.96468198"><ele></ele><time>2014-4-24T5:33:18Z</time></trkpt>
<trkpt lat="48.72822952" lon="1.96468604"><ele></ele><time>2014-4-24T5:33:21Z</time></trkpt>
<trkpt lat="48.72812271" lon="1.96471000"><ele></ele><time>2014-4-24T5:33:24Z</time></trkpt>
<trkpt lat="48.72770309" lon="1.96472800"><ele></ele><time>2014-4-24T5:33:27Z</time></trkpt>
<trkpt lat="48.72732925" lon="1.96471000"><ele></ele><time>2014-4-24T5:33:30Z</time></trkpt>
<trkpt lat="48.72695541" lon="1.96458399"><ele></ele><time>2014-4-24T5:33:33Z</time></trkpt>
<trkpt lat="48.72658157" lon="1.96434999"><ele></ele><time>2014-4-24T5:33:36Z</time></trkpt>
<trkpt lat="48.72623825" lon="1.96412098"><ele></ele><time>2014-4-24T5:33:39Z</time></trkpt>
<trkpt lat="48.72587967" lon="1.96387398"><ele></ele><time>2014-4-24T5:33:42Z</time></trkpt>
<trkpt lat="48.72566223" lon="1.96372104"><ele></ele><time>2014-4-24T5:33:45Z</time></trkpt>
<trkpt lat="48.72527313" lon="1.96348798"><ele></ele><time>2014-4-24T5:33:48Z</time></trkpt>
<trkpt lat="48.72504807" lon="1.96309400"><ele></ele><time>2014-4-24T5:33:51Z</time></trkpt>
<trkpt lat="48.72474670" lon="1.96286404"><ele></ele><time>2014-4-24T5:33:54Z</time></trkpt>
<trkpt lat="48.72425842" lon="1.96276999"><ele></ele><time>2014-4-24T5:33:57Z</time></trkpt>
<trkpt lat="48.72384262" lon="1.96258104"><ele></ele><time>2014-4-24T5:34:0Z</time></trkpt>
<trkpt lat="48.72351074" lon="1.96236396"><ele></ele><time>2014-4-24T5:34:3Z</time></trkpt>
<trkpt lat="48.72330475" lon="1.96219301"><ele></ele><time>2014-4-24T5:34:6Z</time></trkpt>
<trkpt lat="48.72289658" lon="1.96187603"><ele></ele><time>2014-4-24T5:34:9Z</time></trkpt>
<trkpt lat="48.72277832" lon="1.96180201"><ele></ele><time>2014-4-24T5:34:12Z</time></trkpt>
<trkpt lat="48.72245026" lon="1.96177995"><ele></ele><time>2014-4-24T5:34:15Z</time></trkpt>
<trkpt lat="48.72217941" lon="1.96185505"><ele></ele><time>2014-4-24T5:34:18Z</time></trkpt>
<trkpt lat="48.72201538" lon="1.96189594"><ele></ele><time>2014-4-24T5:34:21Z</time></trkpt>
<trkpt lat="48.72193146" lon="1.96185601"><ele></ele><time>2014-4-24T5:34:24Z</time></trkpt>
<trkpt lat="48.72160721" lon="1.96203804"><ele></ele><time>2014-4-24T5:34:27Z</time></trkpt>
<trkpt lat="48.72136688" lon="1.96224105"><ele></ele><time>2014-4-24T5:34:30Z</time></trkpt>
<trkpt lat="48.72096252" lon="1.96283901"><ele></ele><time>2014-4-24T5:34:33Z</time></trkpt>
<trkpt lat="48.72074890" lon="1.96335900"><ele></ele><time>2014-4-24T5:34:36Z</time></trkpt>
<trkpt lat="48.72046280" lon="1.96376395"><ele></ele><time>2014-4-24T5:34:39Z</time></trkpt>
<trkpt lat="48.72035217" lon="1.96394503"><ele></ele><time>2014-4-24T5:34:42Z</time></trkpt>
<trkpt lat="48.72026443" lon="1.96416295"><ele></ele><time>2014-4-24T5:34:45Z</time></trkpt>
<trkpt lat="48.72008133" lon="1.96477199"><ele></ele><time>2014-4-24T5:34:48Z</time></trkpt>
<trkpt lat="48.71988678" lon="1.96526098"><ele></ele><time>2014-4-24T5:34:51Z</time></trkpt>
<trkpt lat="48.71969986" lon="1.96571505"><ele></ele><time>2014-4-24T5:34:54Z</time></trkpt>
<trkpt lat="48.71948624" lon="1.96616697"><ele></ele><time>2014-4-24T5:34:57Z</time></trkpt>
<trkpt lat="48.71923447" lon="1.96676505"><ele></ele><time>2014-4-24T5:35:0Z</time></trkpt>
<trkpt lat="48.71915436" lon="1.96747196"><ele></ele><time>2014-4-24T5:35:3Z</time></trkpt>
<trkpt lat="48.71923065" lon="1.96774495"><ele></ele><time>2014-4-24T5:35:6Z</time></trkpt>
<trkpt lat="48.71923447" lon="1.96776903"><ele></ele><time>2014-4-24T5:35:9Z</time></trkpt>
<trkpt lat="48.71913910" lon="1.96809900"><ele></ele><time>2014-4-24T5:35:12Z</time></trkpt>
<trkpt lat="48.71937180" lon="1.96849406"><ele></ele><time>2014-4-24T5:35:15Z</time></trkpt>
<trkpt lat="48.71938324" lon="1.96849704"><ele></ele><time>2014-4-24T5:35:18Z</time></trkpt>
<trkpt lat="48.71947479" lon="1.96855104"><ele></ele><time>2014-4-24T5:35:21Z</time></trkpt>
<trkpt lat="48.71957779" lon="1.96861303"><ele></ele><time>2014-4-24T5:35:24Z</time></trkpt>
<trkpt lat="48.71960831" lon="1.96858394"><ele></ele><time>2014-4-24T5:35:27Z</time></trkpt>
<trkpt lat="48.71986389" lon="1.96853697"><ele></ele><time>2014-4-24T5:35:30Z</time></trkpt>
<trkpt lat="48.72000885" lon="1.96856701"><ele></ele><time>2014-4-24T5:35:33Z</time></trkpt>
<trkpt lat="48.72022629" lon="1.96851504"><ele></ele><time>2014-4-24T5:35:36Z</time></trkpt>
<trkpt lat="48.72056961" lon="1.96842206"><ele></ele><time>2014-4-24T5:35:39Z</time></trkpt>
<trkpt lat="48.72095490" lon="1.96819401"><ele></ele><time>2014-4-24T5:35:42Z</time></trkpt>
<trkpt lat="48.72124100" lon="1.96804702"><ele></ele><time>2014-4-24T5:35:45Z</time></trkpt>
<trkpt lat="48.72158051" lon="1.96779299"><ele></ele><time>2014-4-24T5:35:48Z</time></trkpt>
<trkpt lat="48.72187805" lon="1.96763098"><ele></ele><time>2014-4-24T5:35:51Z</time></trkpt>
<trkpt lat="48.72208786" lon="1.96755803"><ele></ele><time>2014-4-24T5:35:54Z</time></trkpt>
<trkpt lat="48.72239304" lon="1.96735299"><ele></ele><time>2014-4-24T5:35:57Z</time></trkpt>
<trkpt lat="48.72274017" lon="1.96719801"><ele></ele><time>2014-4-24T5:36:0Z</time></trkpt>
<trkpt lat="48.72296906" lon="1.96716404"><ele></ele><time>2014-4-24T5:36:3Z</time></trkpt>
<trkpt lat="48.72337723" lon="1.96715999"><ele></ele><time>2014-4-24T5:36:6Z</time></trkpt>
<trkpt lat="48.72359085" lon="1.96719205"><ele></ele><time>2014-4-24T5:36:9Z</time></trkpt>
<trkpt lat="48.72378540" lon="1.96724200"><ele></ele><time>2014-4-24T5:36:12Z</time></trkpt>
<trkpt lat="48.72422028" lon="1.96729195"><ele></ele><time>2014-4-24T5:36:15Z</time></trkpt>
<trkpt lat="48.72431183" lon="1.96729696"><ele></ele><time>2014-4-24T5:36:18Z</time></trkpt>
<trkpt lat="48.72453308" lon="1.96750402"><ele></ele><time>2014-4-24T5:36:21Z</time></trkpt>
<trkpt lat="48.72473907" lon="1.96799099"><ele></ele><time>2014-4-24T5:36:24Z</time></trkpt>
<trkpt lat="48.72491455" lon="1.96840501"><ele></ele><time>2014-4-24T5:36:27Z</time></trkpt>
<trkpt lat="48.72518158" lon="1.96893799"><ele></ele><time>2014-4-24T5:36:30Z</time></trkpt>
<trkpt lat="48.72525787" lon="1.96932995"><ele></ele><time>2014-4-24T5:36:33Z</time></trkpt>
<trkpt lat="48.72521973" lon="1.97000396"><ele></ele><time>2014-4-24T5:36:36Z</time></trkpt>
<trkpt lat="48.72520828" lon="1.97042298"><ele></ele><time>2014-4-24T5:36:39Z</time></trkpt>
<trkpt lat="48.72517014" lon="1.97113299"><ele></ele><time>2014-4-24T5:36:42Z</time></trkpt>
<trkpt lat="48.72516632" lon="1.97139204"><ele></ele><time>2014-4-24T5:36:45Z</time></trkpt>
<trkpt lat="48.72502518" lon="1.97158694"><ele></ele><time>2014-4-24T5:36:48Z</time></trkpt>
<trkpt lat="48.72470856" lon="1.97164595"><ele></ele><time>2014-4-24T5:36:51Z</time></trkpt>
<trkpt lat="48.72448349" lon="1.97171903"><ele></ele><time>2014-4-24T5:36:54Z</time></trkpt>
<trkpt lat="48.72408676" lon="1.97184801"><ele></ele><time>2014-4-24T5:36:57Z</time></trkpt>
<trkpt lat="48.72367477" lon="1.97208798"><ele></ele><time>2014-4-24T5:37:0Z</time></trkpt>
<trkpt lat="48.72332001" lon="1.97231901"><ele></ele><time>2014-4-24T5:37:3Z</time></trkpt>
<trkpt lat="48.72293472" lon="1.97256601"><ele></ele><time>2014-4-24T5:37:6Z</time></trkpt>
<trkpt lat="48.72260666" lon="1.97290397"><ele></ele><time>2014-4-24T5:37:9Z</time></trkpt>
<trkpt lat="48.72248459" lon="1.97294998"><ele></ele><time>2014-4-24T5:37:12Z</time></trkpt>
<trkpt lat="48.72245026" lon="1.97295702"><ele></ele><time>2014-4-24T5:37:15Z</time></trkpt>
<trkpt lat="48.72240829" lon="1.97291994"><ele></ele><time>2014-4-24T5:37:18Z</time></trkpt>
<trkpt lat="48.72222900" lon="1.97334194"><ele></ele><time>2014-4-24T5:37:21Z</time></trkpt>
<trkpt lat="48.72222519" lon="1.97330296"><ele></ele><time>2014-4-24T5:37:24Z</time></trkpt>
<trkpt lat="48.72217560" lon="1.97333395"><ele></ele><time>2014-4-24T5:37:27Z</time></trkpt>
<trkpt lat="48.72214127" lon="1.97335899"><ele></ele><time>2014-4-24T5:37:30Z</time></trkpt>
<trkpt lat="48.72212982" lon="1.97335196"><ele></ele><time>2014-4-24T5:37:33Z</time></trkpt>
<trkpt lat="48.72209167" lon="1.97333598"><ele></ele><time>2014-4-24T5:37:36Z</time></trkpt>
<trkpt lat="48.72206879" lon="1.97336495"><ele></ele><time>2014-4-24T5:37:39Z</time></trkpt>
<trkpt lat="48.72208023" lon="1.97338796"><ele></ele><time>2014-4-24T5:37:42Z</time></trkpt>
<trkpt lat="48.72206497" lon="1.97342706"><ele></ele><time>2014-4-24T5:37:45Z</time></trkpt>
<trkpt lat="48.72204590" lon="1.97345495"><ele></ele><time>2014-4-24T5:37:48Z</time></trkpt>
<trkpt lat="48.72196960" lon="1.97343898"><ele></ele><time>2014-4-24T5:37:51Z</time></trkpt>
<trkpt lat="48.72170258" lon="1.97307396"><ele></ele><time>2014-4-24T5:37:54Z</time></trkpt>
<trkpt lat="48.72163391" lon="1.97297001"><ele></ele><time>2014-4-24T5:37:57Z</time></trkpt>
<trkpt lat="48.72157288" lon="1.97284400"><ele></ele><time>2014-4-24T5:38:0Z</time></trkpt>
<trkpt lat="48.72153091" lon="1.97277796"><ele></ele><time>2014-4-24T5:38:3Z</time></trkpt>
<trkpt lat="48.72143936" lon="1.97260106"><ele></ele><time>2014-4-24T5:38:6Z</time></trkpt>
<trkpt lat="48.72112656" lon="1.97206903"><ele></ele><time>2014-4-24T5:38:9Z</time></trkpt>
<trkpt lat="48.72097015" lon="1.97173297"><ele></ele><time>2014-4-24T5:38:12Z</time></trkpt>
<trkpt lat="48.72090912" lon="1.97179902"><ele></ele><time>2014-4-24T5:38:15Z</time></trkpt>
<trkpt lat="48.72092438" lon="1.97187304"><ele></ele><time>2014-4-24T5:38:18Z</time></trkpt>
<trkpt lat="48.72095871" lon="1.97246397"><ele></ele><time>2014-4-24T5:38:21Z</time></trkpt>
<trkpt lat="48.72096252" lon="1.97252595"><ele></ele><time>2014-4-24T5:38:24Z</time></trkpt>
<trkpt lat="48.72095871" lon="1.97277606"><ele></ele><time>2014-4-24T5:38:27Z</time></trkpt>
<trkpt lat="48.72093201" lon="1.97282803"><ele></ele><time>2014-4-24T5:38:30Z</time></trkpt>
<trkpt lat="48.72093582" lon="1.97303402"><ele></ele><time>2014-4-24T5:38:33Z</time></trkpt>
<trkpt lat="48.72097015" lon="1.97312200"><ele></ele><time>2014-4-24T5:38:36Z</time></trkpt>
<trkpt lat="48.72102737" lon="1.97323000"><ele></ele><time>2014-4-24T5:38:39Z</time></trkpt>
<trkpt lat="48.72112274" lon="1.97340405"><ele></ele><time>2014-4-24T5:38:42Z</time></trkpt>
<trkpt lat="48.72122192" lon="1.97361195"><ele></ele><time>2014-4-24T5:38:45Z</time></trkpt>
<trkpt lat="48.72126007" lon="1.97375298"><ele></ele><time>2014-4-24T5:38:48Z</time></trkpt>
<trkpt lat="48.72129440" lon="1.97393203"><ele></ele><time>2014-4-24T5:38:51Z</time></trkpt>
<trkpt lat="48.72129440" lon="1.97400403"><ele></ele><time>2014-4-24T5:38:54Z</time></trkpt>
<trkpt lat="48.72129059" lon="1.97417700"><ele></ele><time>2014-4-24T5:38:57Z</time></trkpt>
<trkpt lat="48.72127151" lon="1.97422600"><ele></ele><time>2014-4-24T5:39:0Z</time></trkpt>
<trkpt lat="48.72132111" lon="1.97469294"><ele></ele><time>2014-4-24T5:39:3Z</time></trkpt>
<trkpt lat="48.72138596" lon="1.97517097"><ele></ele><time>2014-4-24T5:39:6Z</time></trkpt>
<trkpt lat="48.72142029" lon="1.97530198"><ele></ele><time>2014-4-24T5:39:9Z</time></trkpt>
<trkpt lat="48.72143555" lon="1.97540998"><ele></ele><time>2014-4-24T5:39:12Z</time></trkpt>
<trkpt lat="48.72149277" lon="1.97550595"><ele></ele><time>2014-4-24T5:39:15Z</time></trkpt>
<trkpt lat="48.72153854" lon="1.97561896"><ele></ele><time>2014-4-24T5:39:18Z</time></trkpt>
<trkpt lat="48.72178268" lon="1.97613096"><ele></ele><time>2014-4-24T5:39:21Z</time></trkpt>
<trkpt lat="48.72190857" lon="1.97628295"><ele></ele><time>2014-4-24T5:39:24Z</time></trkpt>
<trkpt lat="48.72198105" lon="1.97651303"><ele></ele><time>2014-4-24T5:39:27Z</time></trkpt>
<trkpt lat="48.72200012" lon="1.97677004"><ele></ele><time>2014-4-24T5:39:30Z</time></trkpt>
<trkpt lat="48.72163773" lon="1.97693205"><ele></ele><time>2014-4-24T5:39:33Z</time></trkpt>
<trkpt lat="48.72126770" lon="1.97694600"><ele></ele><time>2014-4-24T5:39:36Z</time></trkpt>
<trkpt lat="48.72089386" lon="1.97699201"><ele></ele><time>2014-4-24T5:39:39Z</time></trkpt>
<trkpt lat="48.72053146" lon="1.97690403"><ele></ele><time>2014-4-24T5:39:42Z</time></trkpt>
<trkpt lat="48.72036743" lon="1.97636795"><ele></ele><time>2014-4-24T5:39:45Z</time></trkpt>
<trkpt lat="48.72027969" lon="1.97583103"><ele></ele><time>2014-4-24T5:39:48Z</time></trkpt>
<trkpt lat="48.72024155" lon="1.97557700"><ele></ele><time>2014-4-24T5:39:51Z</time></trkpt>
<trkpt lat="48.72011185" lon="1.97491598"><ele></ele><time>2014-4-24T5:39:54Z</time></trkpt>
<trkpt lat="48.72009277" lon="1.97481704"><ele></ele><time>2014-4-24T5:39:57Z</time></trkpt>
<trkpt lat="48.71999359" lon="1.97449195"><ele></ele><time>2014-4-24T5:40:0Z</time></trkpt>
<trkpt lat="48.71987534" lon="1.97426295"><ele></ele><time>2014-4-24T5:40:3Z</time></trkpt>
<trkpt lat="48.71979141" lon="1.97410202"><ele></ele><time>2014-4-24T5:40:6Z</time></trkpt>
<trkpt lat="48.71954346" lon="1.97363400"><ele></ele><time>2014-4-24T5:40:9Z</time></trkpt>
<trkpt lat="48.71917725" lon="1.97319102"><ele></ele><time>2014-4-24T5:40:12Z</time></trkpt>
<trkpt lat="48.71880341" lon="1.97289801"><ele></ele><time>2014-4-24T5:40:15Z</time></trkpt>
<trkpt lat="48.71850967" lon="1.97273099"><ele></ele><time>2014-4-24T5:40:18Z</time></trkpt>
<trkpt lat="48.71819687" lon="1.97297597"><ele></ele><time>2014-4-24T5:40:21Z</time></trkpt>
<trkpt lat="48.71807480" lon="1.97323799"><ele></ele><time>2014-4-24T5:40:24Z</time></trkpt>
<trkpt lat="48.71789169" lon="1.97381198"><ele></ele><time>2014-4-24T5:40:27Z</time></trkpt>
<trkpt lat="48.71773911" lon="1.97428405"><ele></ele><time>2014-4-24T5:40:30Z</time></trkpt>
<trkpt lat="48.71765518" lon="1.97455394"><ele></ele><time>2014-4-24T5:40:33Z</time></trkpt>
<trkpt lat="48.71760178" lon="1.97469199"><ele></ele><time>2014-4-24T5:40:36Z</time></trkpt>
<trkpt lat="48.71738434" lon="1.97531700"><ele></ele><time>2014-4-24T5:40:39Z</time></trkpt>
<trkpt lat="48.71736526" lon="1.97538102"><ele></ele><time>2014-4-24T5:40:42Z</time></trkpt>
<trkpt lat="48.71716309" lon="1.97599006"><ele></ele><time>2014-4-24T5:40:45Z</time></trkpt>
<trkpt lat="48.71709824" lon="1.97611499"><ele></ele><time>2014-4-24T5:40:48Z</time></trkpt>
<trkpt lat="48.71701813" lon="1.97628200"><ele></ele><time>2014-4-24T5:40:51Z</time></trkpt>
<trkpt lat="48.71689987" lon="1.97650301"><ele></ele><time>2014-4-24T5:40:54Z</time></trkpt>
<trkpt lat="48.71670151" lon="1.97693598"><ele></ele><time>2014-4-24T5:40:57Z</time></trkpt>
<trkpt lat="48.71655273" lon="1.97717500"><ele></ele><time>2014-4-24T5:41:0Z</time></trkpt>
<trkpt lat="48.71630096" lon="1.97772598"><ele></ele><time>2014-4-24T5:41:3Z</time></trkpt>
<trkpt lat="48.71613312" lon="1.97802997"><ele></ele><time>2014-4-24T5:41:6Z</time></trkpt>
<trkpt lat="48.71596527" lon="1.97856605"><ele></ele><time>2014-4-24T5:41:9Z</time></trkpt>
<trkpt lat="48.71596527" lon="1.97874498"><ele></ele><time>2014-4-24T5:41:12Z</time></trkpt>
<trkpt lat="48.71577454" lon="1.97930801"><ele></ele><time>2014-4-24T5:41:15Z</time></trkpt>
<trkpt lat="48.71566391" lon="1.97989798"><ele></ele><time>2014-4-24T5:41:18Z</time></trkpt>
<trkpt lat="48.71573639" lon="1.98046100"><ele></ele><time>2014-4-24T5:41:21Z</time></trkpt>
<trkpt lat="48.71575165" lon="1.98093104"><ele></ele><time>2014-4-24T5:41:24Z</time></trkpt>
<trkpt lat="48.71578598" lon="1.98105597"><ele></ele><time>2014-4-24T5:41:27Z</time></trkpt>
<trkpt lat="48.71593475" lon="1.98130202"><ele></ele><time>2014-4-24T5:41:30Z</time></trkpt>
<trkpt lat="48.71605682" lon="1.98147905"><ele></ele><time>2014-4-24T5:41:33Z</time></trkpt>
<trkpt lat="48.71619797" lon="1.98157299"><ele></ele><time>2014-4-24T5:41:36Z</time></trkpt>
<trkpt lat="48.71623230" lon="1.98163700"><ele></ele><time>2014-4-24T5:41:39Z</time></trkpt>
<trkpt lat="48.71627045" lon="1.98166001"><ele></ele><time>2014-4-24T5:41:42Z</time></trkpt>
<trkpt lat="48.71641159" lon="1.98170900"><ele></ele><time>2014-4-24T5:41:45Z</time></trkpt>
<trkpt lat="48.71660233" lon="1.98171103"><ele></ele><time>2014-4-24T5:41:48Z</time></trkpt>
<trkpt lat="48.71663666" lon="1.98170304"><ele></ele><time>2014-4-24T5:41:51Z</time></trkpt>
<trkpt lat="48.71665955" lon="1.98170197"><ele></ele><time>2014-4-24T5:41:54Z</time></trkpt>
<trkpt lat="48.71687317" lon="1.98175704"><ele></ele><time>2014-4-24T5:41:57Z</time></trkpt>
<trkpt lat="48.71704865" lon="1.98186100"><ele></ele><time>2014-4-24T5:42:0Z</time></trkpt>
<trkpt lat="48.71720123" lon="1.98176301"><ele></ele><time>2014-4-24T5:42:3Z</time></trkpt>
<trkpt lat="48.71757507" lon="1.98156202"><ele></ele><time>2014-4-24T5:42:6Z</time></trkpt>
<trkpt lat="48.71766281" lon="1.98148406"><ele></ele><time>2014-4-24T5:42:9Z</time></trkpt>
<trkpt lat="48.71787262" lon="1.98145998"><ele></ele><time>2014-4-24T5:42:12Z</time></trkpt>
<trkpt lat="48.71807098" lon="1.98180103"><ele></ele><time>2014-4-24T5:42:15Z</time></trkpt>
<trkpt lat="48.71815109" lon="1.98224902"><ele></ele><time>2014-4-24T5:42:18Z</time></trkpt>
<trkpt lat="48.71824646" lon="1.98281801"><ele></ele><time>2014-4-24T5:42:21Z</time></trkpt>
<trkpt lat="48.71841431" lon="1.98332298"><ele></ele><time>2014-4-24T5:42:24Z</time></trkpt>
<trkpt lat="48.71842957" lon="1.98354495"><ele></ele><time>2014-4-24T5:42:27Z</time></trkpt>
<trkpt lat="48.71836853" lon="1.98361897"><ele></ele><time>2014-4-24T5:42:30Z</time></trkpt>
<trkpt lat="48.71831512" lon="1.98368204"><ele></ele><time>2014-4-24T5:42:33Z</time></trkpt>
<trkpt lat="48.71832275" lon="1.98366499"><ele></ele><time>2014-4-24T5:42:36Z</time></trkpt>
<trkpt lat="48.71831512" lon="1.98367798"><ele></ele><time>2014-4-24T5:42:39Z</time></trkpt>
<trkpt lat="48.71831131" lon="1.98368704"><ele></ele><time>2014-4-24T5:42:42Z</time></trkpt>
<trkpt lat="48.71810913" lon="1.98381698"><ele></ele><time>2014-4-24T5:42:45Z</time></trkpt>
<trkpt lat="48.71797180" lon="1.98389602"><ele></ele><time>2014-4-24T5:42:48Z</time></trkpt>
<trkpt lat="48.71756744" lon="1.98419499"><ele></ele><time>2014-4-24T5:42:51Z</time></trkpt>
<trkpt lat="48.71749496" lon="1.98432600"><ele></ele><time>2014-4-24T5:42:54Z</time></trkpt>
<trkpt lat="48.71728134" lon="1.98454797"><ele></ele><time>2014-4-24T5:42:57Z</time></trkpt>
<trkpt lat="48.71713257" lon="1.98459899"><ele></ele><time>2014-4-24T5:43:0Z</time></trkpt>
<trkpt lat="48.71705627" lon="1.98462796"><ele></ele><time>2014-4-24T5:43:3Z</time></trkpt>
<trkpt lat="48.71665192" lon="1.98465800"><ele></ele><time>2014-4-24T5:43:6Z</time></trkpt>
<trkpt lat="48.71641541" lon="1.98469603"><ele></ele><time>2014-4-24T5:43:9Z</time></trkpt>
<trkpt lat="48.71607971" lon="1.98500896"><ele></ele><time>2014-4-24T5:43:12Z</time></trkpt>
<trkpt lat="48.71596527" lon="1.98513603"><ele></ele><time>2014-4-24T5:43:15Z</time></trkpt>
<trkpt lat="48.71570587" lon="1.98537004"><ele></ele><time>2014-4-24T5:43:18Z</time></trkpt>
<trkpt lat="48.71560287" lon="1.98548806"><ele></ele><time>2014-4-24T5:43:21Z</time></trkpt>
<trkpt lat="48.71551514" lon="1.98556995"><ele></ele><time>2014-4-24T5:43:24Z</time></trkpt>
<trkpt lat="48.71546555" lon="1.98561704"><ele></ele><time>2014-4-24T5:43:27Z</time></trkpt>
<trkpt lat="48.71530914" lon="1.98579502"><ele></ele><time>2014-4-24T5:43:30Z</time></trkpt>
<trkpt lat="48.71505356" lon="1.98605597"><ele></ele><time>2014-4-24T5:43:33Z</time></trkpt>
<trkpt lat="48.71476746" lon="1.98626494"><ele></ele><time>2014-4-24T5:43:36Z</time></trkpt>
<trkpt lat="48.71437454" lon="1.98628199"><ele></ele><time>2014-4-24T5:43:39Z</time></trkpt>
<trkpt lat="48.71428299" lon="1.98625195"><ele></ele><time>2014-4-24T5:43:42Z</time></trkpt>
<trkpt lat="48.71416473" lon="1.98616505"><ele></ele><time>2014-4-24T5:43:45Z</time></trkpt>
<trkpt lat="48.71405792" lon="1.98590505"><ele></ele><time>2014-4-24T5:43:48Z</time></trkpt>
<trkpt lat="48.71398163" lon="1.98575604"><ele></ele><time>2014-4-24T5:43:51Z</time></trkpt>
<trkpt lat="48.71377182" lon="1.98567796"><ele></ele><time>2014-4-24T5:43:54Z</time></trkpt>
<trkpt lat="48.71360397" lon="1.98559201"><ele></ele><time>2014-4-24T5:43:57Z</time></trkpt>
<trkpt lat="48.71322250" lon="1.98527205"><ele></ele><time>2014-4-24T5:44:0Z</time></trkpt>
<trkpt lat="48.71316147" lon="1.98522305"><ele></ele><time>2014-4-24T5:44:3Z</time></trkpt>
<trkpt lat="48.71293259" lon="1.98510504"><ele></ele><time>2014-4-24T5:44:6Z</time></trkpt>
<trkpt lat="48.71257019" lon="1.98525000"><ele></ele><time>2014-4-24T5:44:9Z</time></trkpt>
<trkpt lat="48.71250916" lon="1.98529196"><ele></ele><time>2014-4-24T5:44:12Z</time></trkpt>
<trkpt lat="48.71215439" lon="1.98571205"><ele></ele><time>2014-4-24T5:44:15Z</time></trkpt>
<trkpt lat="48.71173477" lon="1.98596799"><ele></ele><time>2014-4-24T5:44:18Z</time></trkpt>
<trkpt lat="48.71168900" lon="1.98594797"><ele></ele><time>2014-4-24T5:44:21Z</time></trkpt>
<trkpt lat="48.71124649" lon="1.98583603"><ele></ele><time>2014-4-24T5:44:24Z</time></trkpt>
<trkpt lat="48.71088409" lon="1.98580503"><ele></ele><time>2014-4-24T5:44:27Z</time></trkpt>
<trkpt lat="48.71060181" lon="1.98578894"><ele></ele><time>2014-4-24T5:44:30Z</time></trkpt>
<trkpt lat="48.71016693" lon="1.98586905"><ele></ele><time>2014-4-24T5:44:33Z</time></trkpt>
<trkpt lat="48.70977020" lon="1.98593104"><ele></ele><time>2014-4-24T5:44:36Z</time></trkpt>
<trkpt lat="48.70943451" lon="1.98575306"><ele></ele><time>2014-4-24T5:44:39Z</time></trkpt>
<trkpt lat="48.70907974" lon="1.98553205"><ele></ele><time>2014-4-24T5:44:42Z</time></trkpt>
<trkpt lat="48.70870972" lon="1.98545802"><ele></ele><time>2014-4-24T5:44:45Z</time></trkpt>
<trkpt lat="48.70834351" lon="1.98550999"><ele></ele><time>2014-4-24T5:44:48Z</time></trkpt>
<trkpt lat="48.70813370" lon="1.98599994"><ele></ele><time>2014-4-24T5:44:51Z</time></trkpt>
<trkpt lat="48.70792389" lon="1.98642194"><ele></ele><time>2014-4-24T5:44:54Z</time></trkpt>
<trkpt lat="48.70785141" lon="1.98641205"><ele></ele><time>2014-4-24T5:44:57Z</time></trkpt>
<trkpt lat="48.70768738" lon="1.98612106"><ele></ele><time>2014-4-24T5:45:0Z</time></trkpt>
<trkpt lat="48.70745850" lon="1.98574197"><ele></ele><time>2014-4-24T5:45:3Z</time></trkpt>
<trkpt lat="48.70729065" lon="1.98548806"><ele></ele><time>2014-4-24T5:45:6Z</time></trkpt>
<trkpt lat="48.70723343" lon="1.98540699"><ele></ele><time>2014-4-24T5:45:9Z</time></trkpt>
<trkpt lat="48.70717239" lon="1.98529196"><ele></ele><time>2014-4-24T5:45:12Z</time></trkpt>
<trkpt lat="48.70709991" lon="1.98521101"><ele></ele><time>2014-4-24T5:45:15Z</time></trkpt>
<trkpt lat="48.70695114" lon="1.98491704"><ele></ele><time>2014-4-24T5:45:18Z</time></trkpt>
<trkpt lat="48.70672226" lon="1.98443305"><ele></ele><time>2014-4-24T5:45:21Z</time></trkpt>
<trkpt lat="48.70668030" lon="1.98435104"><ele></ele><time>2014-4-24T5:45:24Z</time></trkpt>
<trkpt lat="48.70668411" lon="1.98375297"><ele></ele><time>2014-4-24T5:45:27Z</time></trkpt>
<trkpt lat="48.70669937" lon="1.98356795"><ele></ele><time>2014-4-24T5:45:30Z</time></trkpt>
<trkpt lat="48.70669556" lon="1.98352695"><ele></ele><time>2014-4-24T5:45:33Z</time></trkpt>
<trkpt lat="48.70659637" lon="1.98295605"><ele></ele><time>2014-4-24T5:45:36Z</time></trkpt>
<trkpt lat="48.70646286" lon="1.98245394"><ele></ele><time>2014-4-24T5:45:39Z</time></trkpt>
<trkpt lat="48.70639420" lon="1.98221004"><ele></ele><time>2014-4-24T5:45:42Z</time></trkpt>
<trkpt lat="48.70638275" lon="1.98215997"><ele></ele><time>2014-4-24T5:45:45Z</time></trkpt>
<trkpt lat="48.70639038" lon="1.98211205"><ele></ele><time>2014-4-24T5:45:48Z</time></trkpt>
<trkpt lat="48.70632553" lon="1.98178303"><ele></ele><time>2014-4-24T5:45:51Z</time></trkpt>
<trkpt lat="48.70618820" lon="1.98124194"><ele></ele><time>2014-4-24T5:45:54Z</time></trkpt>
<trkpt lat="48.70615387" lon="1.98066700"><ele></ele><time>2014-4-24T5:45:57Z</time></trkpt>
<trkpt lat="48.70615768" lon="1.98036003"><ele></ele><time>2014-4-24T5:46:0Z</time></trkpt>
<trkpt lat="48.70616531" lon="1.98030198"><ele></ele><time>2014-4-24T5:46:3Z</time></trkpt>
<trkpt lat="48.70614624" lon="1.98017704"><ele></ele><time>2014-4-24T5:46:6Z</time></trkpt>
<trkpt lat="48.70613861" lon="1.98015296"><ele></ele><time>2014-4-24T5:46:9Z</time></trkpt>
<trkpt lat="48.70613861" lon="1.97999203"><ele></ele><time>2014-4-24T5:46:12Z</time></trkpt>
<trkpt lat="48.70611954" lon="1.97997701"><ele></ele><time>2014-4-24T5:46:15Z</time></trkpt>
<trkpt lat="48.70611572" lon="1.97995698"><ele></ele><time>2014-4-24T5:46:18Z</time></trkpt>
<trkpt lat="48.70611572" lon="1.97994900"><ele></ele><time>2014-4-24T5:46:21Z</time></trkpt>
<trkpt lat="48.70607758" lon="1.97994602"><ele></ele><time>2014-4-24T5:46:24Z</time></trkpt>
<trkpt lat="48.70607376" lon="1.97993100"><ele></ele><time>2014-4-24T5:46:27Z</time></trkpt>
<trkpt lat="48.70605850" lon="1.97997499"><ele></ele><time>2014-4-24T5:46:30Z</time></trkpt>
<trkpt lat="48.70605850" lon="1.97994900"><ele></ele><time>2014-4-24T5:46:33Z</time></trkpt>
<trkpt lat="48.70612335" lon="1.97997499"><ele></ele><time>2014-4-24T5:46:36Z</time></trkpt>
<trkpt lat="48.70612717" lon="1.98007596"><ele></ele><time>2014-4-24T5:46:39Z</time></trkpt>
<trkpt lat="48.70610428" lon="1.97996604"><ele></ele><time>2014-4-24T5:46:42Z</time></trkpt>
<trkpt lat="48.70612335" lon="1.98003399"><ele></ele><time>2014-4-24T5:46:45Z</time></trkpt>
<trkpt lat="48.70613861" lon="1.98001003"><ele></ele><time>2014-4-24T5:46:48Z</time></trkpt>
<trkpt lat="48.70611954" lon="1.97998703"><ele></ele><time>2014-4-24T5:46:51Z</time></trkpt>
<trkpt lat="48.70612717" lon="1.97997403"><ele></ele><time>2014-4-24T5:46:54Z</time></trkpt>
<trkpt lat="48.70611191" lon="1.97990501"><ele></ele><time>2014-4-24T5:46:57Z</time></trkpt>
<trkpt lat="48.70616150" lon="1.97997499"><ele></ele><time>2014-4-24T5:47:0Z</time></trkpt>
<trkpt lat="48.70609665" lon="1.97994804"><ele></ele><time>2014-4-24T5:47:3Z</time></trkpt>
<trkpt lat="48.70610428" lon="1.97988105"><ele></ele><time>2014-4-24T5:47:6Z</time></trkpt>
<trkpt lat="48.70608521" lon="1.97987199"><ele></ele><time>2014-4-24T5:47:9Z</time></trkpt>
<trkpt lat="48.70609283" lon="1.97984505"><ele></ele><time>2014-4-24T5:47:12Z</time></trkpt>
<trkpt lat="48.70610809" lon="1.97984302"><ele></ele><time>2014-4-24T5:47:15Z</time></trkpt>
<trkpt lat="48.70611572" lon="1.97984695"><ele></ele><time>2014-4-24T5:47:18Z</time></trkpt>
<trkpt lat="48.70611191" lon="1.97986805"><ele></ele><time>2014-4-24T5:47:21Z</time></trkpt>
<trkpt lat="48.70611954" lon="1.97988796"><ele></ele><time>2014-4-24T5:47:24Z</time></trkpt>
<trkpt lat="48.70612717" lon="1.97995102"><ele></ele><time>2014-4-24T5:47:27Z</time></trkpt>
<trkpt lat="48.70616913" lon="1.98001599"><ele></ele><time>2014-4-24T5:47:30Z</time></trkpt>
<trkpt lat="48.70609665" lon="1.97997200"><ele></ele><time>2014-4-24T5:47:33Z</time></trkpt>
<trkpt lat="48.70605469" lon="1.97997499"><ele></ele><time>2014-4-24T5:47:36Z</time></trkpt>
<trkpt lat="48.70616913" lon="1.97988296"><ele></ele><time>2014-4-24T5:47:39Z</time></trkpt>
<trkpt lat="48.70617676" lon="1.97987700"><ele></ele><time>2014-4-24T5:47:42Z</time></trkpt>
<trkpt lat="48.70618057" lon="1.97987902"><ele></ele><time>2014-4-24T5:47:45Z</time></trkpt>
<trkpt lat="48.70618057" lon="1.97987294"><ele></ele><time>2014-4-24T5:47:48Z</time></trkpt>
<trkpt lat="48.70618820" lon="1.97986901"><ele></ele><time>2014-4-24T5:47:51Z</time></trkpt>
<trkpt lat="48.70615768" lon="1.97985005"><ele></ele><time>2014-4-24T5:47:54Z</time></trkpt>
<trkpt lat="48.70617294" lon="1.97985005"><ele></ele><time>2014-4-24T5:47:57Z</time></trkpt>
<trkpt lat="48.70615768" lon="1.97980404"><ele></ele><time>2014-4-24T5:48:0Z</time></trkpt>
<trkpt lat="48.70607376" lon="1.97972298"><ele></ele><time>2014-4-24T5:48:3Z</time></trkpt>
<trkpt lat="48.70600891" lon="1.97970402"><ele></ele><time>2014-4-24T5:48:6Z</time></trkpt>
<trkpt lat="48.70589828" lon="1.97960603"><ele></ele><time>2014-4-24T5:48:9Z</time></trkpt>
<trkpt lat="48.70557404" lon="1.97918499"><ele></ele><time>2014-4-24T5:48:12Z</time></trkpt>
<trkpt lat="48.70536804" lon="1.97906697"><ele></ele><time>2014-4-24T5:48:15Z</time></trkpt>
<trkpt lat="48.70523071" lon="1.97895503"><ele></ele><time>2014-4-24T5:48:18Z</time></trkpt>
<trkpt lat="48.70507813" lon="1.97883105"><ele></ele><time>2014-4-24T5:48:21Z</time></trkpt>
<trkpt lat="48.70479584" lon="1.97849202"><ele></ele><time>2014-4-24T5:48:24Z</time></trkpt>
<trkpt lat="48.70452499" lon="1.97809303"><ele></ele><time>2014-4-24T5:48:27Z</time></trkpt>
<trkpt lat="48.70420074" lon="1.97779703"><ele></ele><time>2014-4-24T5:48:30Z</time></trkpt>
<trkpt lat="48.70406342" lon="1.97775805"><ele></ele><time>2014-4-24T5:48:33Z</time></trkpt>
<trkpt lat="48.70380020" lon="1.97755098"><ele></ele><time>2014-4-24T5:48:36Z</time></trkpt>
<trkpt lat="48.70353699" lon="1.97737300"><ele></ele><time>2014-4-24T5:48:39Z</time></trkpt>
<trkpt lat="48.70341873" lon="1.97690499"><ele></ele><time>2014-4-24T5:48:42Z</time></trkpt>
<trkpt lat="48.70348740" lon="1.97631598"><ele></ele><time>2014-4-24T5:48:45Z</time></trkpt>
<trkpt lat="48.70351791" lon="1.97624600"><ele></ele><time>2014-4-24T5:48:48Z</time></trkpt>
<trkpt lat="48.70368958" lon="1.97573996"><ele></ele><time>2014-4-24T5:48:51Z</time></trkpt>
<trkpt lat="48.70370865" lon="1.97523403"><ele></ele><time>2014-4-24T5:48:54Z</time></trkpt>
<trkpt lat="48.70370483" lon="1.97487497"><ele></ele><time>2014-4-24T5:48:57Z</time></trkpt>
<trkpt lat="48.70380783" lon="1.97433197"><ele></ele><time>2014-4-24T5:49:0Z</time></trkpt>
<trkpt lat="48.70388412" lon="1.97386599"><ele></ele><time>2014-4-24T5:49:3Z</time></trkpt>
<trkpt lat="48.70391083" lon="1.97369695"><ele></ele><time>2014-4-24T5:49:6Z</time></trkpt>
<trkpt lat="48.70392609" lon="1.97357202"><ele></ele><time>2014-4-24T5:49:9Z</time></trkpt>
<trkpt lat="48.70392990" lon="1.97351098"><ele></ele><time>2014-4-24T5:49:12Z</time></trkpt>
<trkpt lat="48.70397949" lon="1.97293496"><ele></ele><time>2014-4-24T5:49:15Z</time></trkpt>
<trkpt lat="48.70407867" lon="1.97246897"><ele></ele><time>2014-4-24T5:49:18Z</time></trkpt>
<trkpt lat="48.70407867" lon="1.97238004"><ele></ele><time>2014-4-24T5:49:21Z</time></trkpt>
<trkpt lat="48.70407867" lon="1.97222304"><ele></ele><time>2014-4-24T5:49:24Z</time></trkpt>
<trkpt lat="48.70403671" lon="1.97204804"><ele></ele><time>2014-4-24T5:49:27Z</time></trkpt>
<trkpt lat="48.70404053" lon="1.97184896"><ele></ele><time>2014-4-24T5:49:30Z</time></trkpt>
<trkpt lat="48.70407486" lon="1.97156799"><ele></ele><time>2014-4-24T5:49:33Z</time></trkpt>
<trkpt lat="48.70409775" lon="1.97147095"><ele></ele><time>2014-4-24T5:49:36Z</time></trkpt>
<trkpt lat="48.70412064" lon="1.97130597"><ele></ele><time>2014-4-24T5:49:39Z</time></trkpt>
<trkpt lat="48.70417404" lon="1.97085798"><ele></ele><time>2014-4-24T5:49:42Z</time></trkpt>
<trkpt lat="48.70417023" lon="1.97079206"><ele></ele><time>2014-4-24T5:49:45Z</time></trkpt>
<trkpt lat="48.70421219" lon="1.97063601"><ele></ele><time>2014-4-24T5:49:48Z</time></trkpt>
<trkpt lat="48.70424271" lon="1.97002697"><ele></ele><time>2014-4-24T5:49:51Z</time></trkpt>
<trkpt lat="48.70425415" lon="1.96999598"><ele></ele><time>2014-4-24T5:49:54Z</time></trkpt>
<trkpt lat="48.70426178" lon="1.96983504"><ele></ele><time>2014-4-24T5:49:57Z</time></trkpt>
<trkpt lat="48.70428467" lon="1.96977496"><ele></ele><time>2014-4-24T5:50:0Z</time></trkpt>
<trkpt lat="48.70430374" lon="1.96972096"><ele></ele><time>2014-4-24T5:50:3Z</time></trkpt>
<trkpt lat="48.70441437" lon="1.96953499"><ele></ele><time>2014-4-24T5:50:6Z</time></trkpt>
<trkpt lat="48.70444489" lon="1.96946299"><ele></ele><time>2014-4-24T5:50:9Z</time></trkpt>
<trkpt lat="48.70441055" lon="1.96938205"><ele></ele><time>2014-4-24T5:50:12Z</time></trkpt>
<trkpt lat="48.70452118" lon="1.96907902"><ele></ele><time>2014-4-24T5:50:15Z</time></trkpt>
<trkpt lat="48.70452881" lon="1.96896696"><ele></ele><time>2014-4-24T5:50:18Z</time></trkpt>
<trkpt lat="48.70451355" lon="1.96874297"><ele></ele><time>2014-4-24T5:50:21Z</time></trkpt>
<trkpt lat="48.70453262" lon="1.96821201"><ele></ele><time>2014-4-24T5:50:24Z</time></trkpt>
<trkpt lat="48.70454025" lon="1.96808398"><ele></ele><time>2014-4-24T5:50:27Z</time></trkpt>
<trkpt lat="48.70455170" lon="1.96789396"><ele></ele><time>2014-4-24T5:50:30Z</time></trkpt>
<trkpt lat="48.70451736" lon="1.96739197"><ele></ele><time>2014-4-24T5:50:33Z</time></trkpt>
<trkpt lat="48.70450974" lon="1.96715701"><ele></ele><time>2014-4-24T5:50:36Z</time></trkpt>
<trkpt lat="48.70450211" lon="1.96707106"><ele></ele><time>2014-4-24T5:50:39Z</time></trkpt>
<trkpt lat="48.70449448" lon="1.96681702"><ele></ele><time>2014-4-24T5:50:42Z</time></trkpt>
<trkpt lat="48.70449066" lon="1.96677303"><ele></ele><time>2014-4-24T5:50:45Z</time></trkpt>
<trkpt lat="48.70446777" lon="1.96641803"><ele></ele><time>2014-4-24T5:50:48Z</time></trkpt>
<trkpt lat="48.70446396" lon="1.96627903"><ele></ele><time>2014-4-24T5:50:51Z</time></trkpt>
<trkpt lat="48.70433044" lon="1.96624398"><ele></ele><time>2014-4-24T5:50:54Z</time></trkpt>
<trkpt lat="48.70428848" lon="1.96636403"><ele></ele><time>2014-4-24T5:50:57Z</time></trkpt>
<trkpt lat="48.70421982" lon="1.96652806"><ele></ele><time>2014-4-24T5:51:0Z</time></trkpt>
<trkpt lat="48.70396805" lon="1.96680999"><ele></ele><time>2014-4-24T5:51:3Z</time></trkpt>
<trkpt lat="48.70385742" lon="1.96704996"><ele></ele><time>2014-4-24T5:51:6Z</time></trkpt>
<trkpt lat="48.70367813" lon="1.96768701"><ele></ele><time>2014-4-24T5:51:9Z</time></trkpt>
<trkpt lat="48.70362091" lon="1.96779001"><ele></ele><time>2014-4-24T5:51:12Z</time></trkpt>
<trkpt lat="48.70346069" lon="1.96804297"><ele></ele><time>2014-4-24T5:51:15Z</time></trkpt>
<trkpt lat="48.70335770" lon="1.96825302"><ele></ele><time>2014-4-24T5:51:18Z</time></trkpt>
<trkpt lat="48.70327377" lon="1.96868002"><ele></ele><time>2014-4-24T5:51:21Z</time></trkpt>
<trkpt lat="48.70315170" lon="1.96877396"><ele></ele><time>2014-4-24T5:51:24Z</time></trkpt>
<trkpt lat="48.70313263" lon="1.96816194"><ele></ele><time>2014-4-24T5:51:27Z</time></trkpt>
<trkpt lat="48.70302582" lon="1.96759701"><ele></ele><time>2014-4-24T5:51:30Z</time></trkpt>
<trkpt lat="48.70298767" lon="1.96732795"><ele></ele><time>2014-4-24T5:51:33Z</time></trkpt>
<trkpt lat="48.70298386" lon="1.96728003"><ele></ele><time>2014-4-24T5:51:36Z</time></trkpt>
<trkpt lat="48.70298386" lon="1.96726894"><ele></ele><time>2014-4-24T5:51:39Z</time></trkpt>
<trkpt lat="48.70292282" lon="1.96700203"><ele></ele><time>2014-4-24T5:51:42Z</time></trkpt>
<trkpt lat="48.70292282" lon="1.96695101"><ele></ele><time>2014-4-24T5:51:45Z</time></trkpt>
<trkpt lat="48.70293045" lon="1.96682298"><ele></ele><time>2014-4-24T5:51:48Z</time></trkpt>
<trkpt lat="48.70283127" lon="1.96666396"><ele></ele><time>2014-4-24T5:51:51Z</time></trkpt>
<trkpt lat="48.70276260" lon="1.96652997"><ele></ele><time>2014-4-24T5:51:54Z</time></trkpt>
<trkpt lat="48.70267487" lon="1.96646905"><ele></ele><time>2014-4-24T5:51:57Z</time></trkpt>
<trkpt lat="48.70264435" lon="1.96646905"><ele></ele><time>2014-4-24T5:52:0Z</time></trkpt>
<trkpt lat="48.70251083" lon="1.96642399"><ele></ele><time>2014-4-24T5:52:3Z</time></trkpt>
<trkpt lat="48.70249939" lon="1.96642303"><ele></ele><time>2014-4-24T5:52:6Z</time></trkpt>
<trkpt lat="48.70236969" lon="1.96638000"><ele></ele><time>2014-4-24T5:52:9Z</time></trkpt>
<trkpt lat="48.70231628" lon="1.96637797"><ele></ele><time>2014-4-24T5:52:12Z</time></trkpt>
<trkpt lat="48.70219421" lon="1.96638298"><ele></ele><time>2014-4-24T5:52:15Z</time></trkpt>
<trkpt lat="48.70213699" lon="1.96641505"><ele></ele><time>2014-4-24T5:52:18Z</time></trkpt>
<trkpt lat="48.70197678" lon="1.96642900"><ele></ele><time>2014-4-24T5:52:21Z</time></trkpt>
<trkpt lat="48.70177078" lon="1.96646702"><ele></ele><time>2014-4-24T5:52:24Z</time></trkpt>
<trkpt lat="48.70156479" lon="1.96660805"><ele></ele><time>2014-4-24T5:52:27Z</time></trkpt>
<trkpt lat="48.70151901" lon="1.96664298"><ele></ele><time>2014-4-24T5:52:30Z</time></trkpt>
<trkpt lat="48.70133972" lon="1.96674705"><ele></ele><time>2014-4-24T5:52:33Z</time></trkpt>
<trkpt lat="48.70102692" lon="1.96691298"><ele></ele><time>2014-4-24T5:52:36Z</time></trkpt>
<trkpt lat="48.70087051" lon="1.96694005"><ele></ele><time>2014-4-24T5:52:39Z</time></trkpt>
<trkpt lat="48.70052719" lon="1.96713805"><ele></ele><time>2014-4-24T5:52:42Z</time></trkpt>
<trkpt lat="48.70041656" lon="1.96721196"><ele></ele><time>2014-4-24T5:52:45Z</time></trkpt>
<trkpt lat="48.70010757" lon="1.96721995"><ele></ele><time>2014-4-24T5:52:48Z</time></trkpt>
<trkpt lat="48.70005798" lon="1.96718895"><ele></ele><time>2014-4-24T5:52:51Z</time></trkpt>
<trkpt lat="48.70005035" lon="1.96717095"><ele></ele><time>2014-4-24T5:52:54Z</time></trkpt>
<trkpt lat="48.70006180" lon="1.96701396"><ele></ele><time>2014-4-24T5:52:57Z</time></trkpt>
<trkpt lat="48.70006943" lon="1.96699905"><ele></ele><time>2014-4-24T5:53:0Z</time></trkpt>
<trkpt lat="48.70011139" lon="1.96685803"><ele></ele><time>2014-4-24T5:53:3Z</time></trkpt>
<trkpt lat="48.70022202" lon="1.96639299"><ele></ele><time>2014-4-24T5:53:6Z</time></trkpt>
<trkpt lat="48.70043182" lon="1.96588302"><ele></ele><time>2014-4-24T5:53:9Z</time></trkpt>
<trkpt lat="48.70048141" lon="1.96576500"><ele></ele><time>2014-4-24T5:53:12Z</time></trkpt>
<trkpt lat="48.70052338" lon="1.96570206"><ele></ele><time>2014-4-24T5:53:15Z</time></trkpt>
<trkpt lat="48.70079422" lon="1.96530402"><ele></ele><time>2014-4-24T5:53:18Z</time></trkpt>
<trkpt lat="48.70081711" lon="1.96519804"><ele></ele><time>2014-4-24T5:53:21Z</time></trkpt>
<trkpt lat="48.70069122" lon="1.96492600"><ele></ele><time>2014-4-24T5:53:24Z</time></trkpt>
<trkpt lat="48.70039368" lon="1.96486998"><ele></ele><time>2014-4-24T5:53:27Z</time></trkpt>
<trkpt lat="48.70036697" lon="1.96486604"><ele></ele><time>2014-4-24T5:53:30Z</time></trkpt>
<trkpt lat="48.70021820" lon="1.96484303"><ele></ele><time>2014-4-24T5:53:33Z</time></trkpt>
<trkpt lat="48.69997787" lon="1.96469200"><ele></ele><time>2014-4-24T5:53:36Z</time></trkpt>
<trkpt lat="48.69985580" lon="1.96466804"><ele></ele><time>2014-4-24T5:53:39Z</time></trkpt>
<trkpt lat="48.69948578" lon="1.96445405"><ele></ele><time>2014-4-24T5:53:42Z</time></trkpt>
<trkpt lat="48.69932938" lon="1.96430004"><ele></ele><time>2014-4-24T5:53:45Z</time></trkpt>
<trkpt lat="48.69916916" lon="1.96422899"><ele></ele><time>2014-4-24T5:53:48Z</time></trkpt>
<trkpt lat="48.69908524" lon="1.96423197"><ele></ele><time>2014-4-24T5:53:51Z</time></trkpt>
<trkpt lat="48.69901657" lon="1.96423805"><ele></ele><time>2014-4-24T5:53:54Z</time></trkpt>
<trkpt lat="48.69863129" lon="1.96422303"><ele></ele><time>2014-4-24T5:53:57Z</time></trkpt>
<trkpt lat="48.69841003" lon="1.96430302"><ele></ele><time>2014-4-24T5:54:0Z</time></trkpt>
<trkpt lat="48.69822311" lon="1.96434200"><ele></ele><time>2014-4-24T5:54:3Z</time></trkpt>
<trkpt lat="48.69794464" lon="1.96480405"><ele></ele><time>2014-4-24T5:54:6Z</time></trkpt>
<trkpt lat="48.69782257" lon="1.96500504"><ele></ele><time>2014-4-24T5:54:9Z</time></trkpt>
<trkpt lat="48.69757080" lon="1.96556306"><ele></ele><time>2014-4-24T5:54:12Z</time></trkpt>
<trkpt lat="48.69741440" lon="1.96596503"><ele></ele><time>2014-4-24T5:54:15Z</time></trkpt>
<trkpt lat="48.69720459" lon="1.96646905"><ele></ele><time>2014-4-24T5:54:18Z</time></trkpt>
<trkpt lat="48.69694519" lon="1.96701705"><ele></ele><time>2014-4-24T5:54:21Z</time></trkpt>
<trkpt lat="48.69691086" lon="1.96710896"><ele></ele><time>2014-4-24T5:54:24Z</time></trkpt>
<trkpt lat="48.69653320" lon="1.96720695"><ele></ele><time>2014-4-24T5:54:27Z</time></trkpt>
<trkpt lat="48.69646835" lon="1.96716499"><ele></ele><time>2014-4-24T5:54:30Z</time></trkpt>
<trkpt lat="48.69618988" lon="1.96755695"><ele></ele><time>2014-4-24T5:54:33Z</time></trkpt>
<trkpt lat="48.69610596" lon="1.96794605"><ele></ele><time>2014-4-24T5:54:36Z</time></trkpt>
<trkpt lat="48.69601822" lon="1.96817899"><ele></ele><time>2014-4-24T5:54:39Z</time></trkpt>
<trkpt lat="48.69590759" lon="1.96858704"><ele></ele><time>2014-4-24T5:54:42Z</time></trkpt>
<trkpt lat="48.69584656" lon="1.96890998"><ele></ele><time>2014-4-24T5:54:45Z</time></trkpt>
<trkpt lat="48.69577026" lon="1.96914399"><ele></ele><time>2014-4-24T5:54:48Z</time></trkpt>
<trkpt lat="48.69559479" lon="1.96947801"><ele></ele><time>2014-4-24T5:54:51Z</time></trkpt>
<trkpt lat="48.69529724" lon="1.96973801"><ele></ele><time>2014-4-24T5:54:54Z</time></trkpt>
<trkpt lat="48.69489288" lon="1.96954703"><ele></ele><time>2014-4-24T5:54:57Z</time></trkpt>
<trkpt lat="48.69467926" lon="1.96938002"><ele></ele><time>2014-4-24T5:55:0Z</time></trkpt>
<trkpt lat="48.69459152" lon="1.96905506"><ele></ele><time>2014-4-24T5:55:3Z</time></trkpt>
<trkpt lat="48.69448471" lon="1.96877694"><ele></ele><time>2014-4-24T5:55:6Z</time></trkpt>
<trkpt lat="48.69438934" lon="1.96843803"><ele></ele><time>2014-4-24T5:55:9Z</time></trkpt>
<trkpt lat="48.69435501" lon="1.96833706"><ele></ele><time>2014-4-24T5:55:12Z</time></trkpt>
<trkpt lat="48.69406128" lon="1.96784902"><ele></ele><time>2014-4-24T5:55:15Z</time></trkpt>
<trkpt lat="48.69383240" lon="1.96737897"><ele></ele><time>2014-4-24T5:55:18Z</time></trkpt>
<trkpt lat="48.69379807" lon="1.96704495"><ele></ele><time>2014-4-24T5:55:21Z</time></trkpt>
<trkpt lat="48.69368362" lon="1.96680295"><ele></ele><time>2014-4-24T5:55:24Z</time></trkpt>
<trkpt lat="48.69387054" lon="1.96678495"><ele></ele><time>2014-4-24T5:55:27Z</time></trkpt>
<trkpt lat="48.69421387" lon="1.96649003"><ele></ele><time>2014-4-24T5:55:30Z</time></trkpt>
<trkpt lat="48.69432449" lon="1.96644402"><ele></ele><time>2014-4-24T5:55:33Z</time></trkpt>
<trkpt lat="48.69445801" lon="1.96628296"><ele></ele><time>2014-4-24T5:55:36Z</time></trkpt>
<trkpt lat="48.69423294" lon="1.96579301"><ele></ele><time>2014-4-24T5:55:39Z</time></trkpt>
<trkpt lat="48.69402313" lon="1.96553004"><ele></ele><time>2014-4-24T5:55:42Z</time></trkpt>
<trkpt lat="48.69401169" lon="1.96530199"><ele></ele><time>2014-4-24T5:55:45Z</time></trkpt>
<trkpt lat="48.69396973" lon="1.96507597"><ele></ele><time>2014-4-24T5:55:48Z</time></trkpt>
<trkpt lat="48.69398880" lon="1.96495605"><ele></ele><time>2014-4-24T5:55:51Z</time></trkpt>
<trkpt lat="48.69393539" lon="1.96481395"><ele></ele><time>2014-4-24T5:55:54Z</time></trkpt>
<trkpt lat="48.69391251" lon="1.96475005"><ele></ele><time>2014-4-24T5:55:57Z</time></trkpt>
<trkpt lat="48.69395828" lon="1.96419597"><ele></ele><time>2014-4-24T5:56:0Z</time></trkpt>
<trkpt lat="48.69401550" lon="1.96370697"><ele></ele><time>2014-4-24T5:56:3Z</time></trkpt>
<trkpt lat="48.69406128" lon="1.96356702"><ele></ele><time>2014-4-24T5:56:6Z</time></trkpt>
<trkpt lat="48.69417572" lon="1.96339703"><ele></ele><time>2014-4-24T5:56:9Z</time></trkpt>
<trkpt lat="48.69411469" lon="1.96326101"><ele></ele><time>2014-4-24T5:56:12Z</time></trkpt>
<trkpt lat="48.69411469" lon="1.96311605"><ele></ele><time>2014-4-24T5:56:15Z</time></trkpt>
<trkpt lat="48.69413757" lon="1.96290505"><ele></ele><time>2014-4-24T5:56:18Z</time></trkpt>
<trkpt lat="48.69416046" lon="1.96285295"><ele></ele><time>2014-4-24T5:56:21Z</time></trkpt>
<trkpt lat="48.69397354" lon="1.96256995"><ele></ele><time>2014-4-24T5:56:24Z</time></trkpt>
<trkpt lat="48.69383240" lon="1.96230996"><ele></ele><time>2014-4-24T5:56:27Z</time></trkpt>
<trkpt lat="48.69377136" lon="1.96219504"><ele></ele><time>2014-4-24T5:56:30Z</time></trkpt>
<trkpt lat="48.69370651" lon="1.96210897"><ele></ele><time>2014-4-24T5:56:33Z</time></trkpt>
<trkpt lat="48.69368362" lon="1.96201503"><ele></ele><time>2014-4-24T5:56:36Z</time></trkpt>
<trkpt lat="48.69361115" lon="1.96190906"><ele></ele><time>2014-4-24T5:56:39Z</time></trkpt>
<trkpt lat="48.69354630" lon="1.96176898"><ele></ele><time>2014-4-24T5:56:42Z</time></trkpt>
<trkpt lat="48.69349670" lon="1.96178198"><ele></ele><time>2014-4-24T5:56:45Z</time></trkpt>
<trkpt lat="48.69344330" lon="1.96159005"><ele></ele><time>2014-4-24T5:56:48Z</time></trkpt>
<trkpt lat="48.69345093" lon="1.96154296"><ele></ele><time>2014-4-24T5:56:51Z</time></trkpt>
<trkpt lat="48.69343185" lon="1.96151900"><ele></ele><time>2014-4-24T5:56:54Z</time></trkpt>
<trkpt lat="48.69329071" lon="1.96124303"><ele></ele><time>2014-4-24T5:56:57Z</time></trkpt>
<trkpt lat="48.69312286" lon="1.96107197"><ele></ele><time>2014-4-24T5:57:0Z</time></trkpt>
<trkpt lat="48.69292831" lon="1.96067798"><ele></ele><time>2014-4-24T5:57:3Z</time></trkpt>
<trkpt lat="48.69284439" lon="1.96059096"><ele></ele><time>2014-4-24T5:57:6Z</time></trkpt>
<trkpt lat="48.69278336" lon="1.96045899"><ele></ele><time>2014-4-24T5:57:9Z</time></trkpt>
<trkpt lat="48.69269943" lon="1.96026194"><ele></ele><time>2014-4-24T5:57:12Z</time></trkpt>
<trkpt lat="48.69255447" lon="1.96002805"><ele></ele><time>2014-4-24T5:57:15Z</time></trkpt>
<trkpt lat="48.69239426" lon="1.95974100"><ele></ele><time>2014-4-24T5:57:18Z</time></trkpt>
<trkpt lat="48.69238663" lon="1.95969105"><ele></ele><time>2014-4-24T5:57:21Z</time></trkpt>
<trkpt lat="48.69235229" lon="1.95946598"><ele></ele><time>2014-4-24T5:57:24Z</time></trkpt>
<trkpt lat="48.69270706" lon="1.95926905"><ele></ele><time>2014-4-24T5:57:27Z</time></trkpt>
<trkpt lat="48.69307327" lon="1.95917404"><ele></ele><time>2014-4-24T5:57:30Z</time></trkpt>
<trkpt lat="48.69313812" lon="1.95916605"><ele></ele><time>2014-4-24T5:57:33Z</time></trkpt>
<trkpt lat="48.69332123" lon="1.95906305"><ele></ele><time>2014-4-24T5:57:36Z</time></trkpt>
<trkpt lat="48.69334793" lon="1.95906496"><ele></ele><time>2014-4-24T5:57:39Z</time></trkpt>
<trkpt lat="48.69366837" lon="1.95874000"><ele></ele><time>2014-4-24T5:57:42Z</time></trkpt>
<trkpt lat="48.69375229" lon="1.95821702"><ele></ele><time>2014-4-24T5:57:45Z</time></trkpt>
<trkpt lat="48.69388962" lon="1.95762897"><ele></ele><time>2014-4-24T5:57:48Z</time></trkpt>
<trkpt lat="48.69416809" lon="1.95739901"><ele></ele><time>2014-4-24T5:57:51Z</time></trkpt>
<trkpt lat="48.69423676" lon="1.95736897"><ele></ele><time>2014-4-24T5:57:54Z</time></trkpt>
<trkpt lat="48.69412994" lon="1.95681298"><ele></ele><time>2014-4-24T5:57:57Z</time></trkpt>
<trkpt lat="48.69390488" lon="1.95626295"><ele></ele><time>2014-4-24T5:58:0Z</time></trkpt>
<trkpt lat="48.69370270" lon="1.95578897"><ele></ele><time>2014-4-24T5:58:3Z</time></trkpt>
<trkpt lat="48.69357300" lon="1.95546997"><ele></ele><time>2014-4-24T5:58:6Z</time></trkpt>
<trkpt lat="48.69338989" lon="1.95503795"><ele></ele><time>2014-4-24T5:58:9Z</time></trkpt>
<trkpt lat="48.69313049" lon="1.95451999"><ele></ele><time>2014-4-24T5:58:12Z</time></trkpt>
<trkpt lat="48.69293213" lon="1.95411599"><ele></ele><time>2014-4-24T5:58:15Z</time></trkpt>
<trkpt lat="48.69289017" lon="1.95395803"><ele></ele><time>2014-4-24T5:58:18Z</time></trkpt>
<trkpt lat="48.69288254" lon="1.95384705"><ele></ele><time>2014-4-24T5:58:21Z</time></trkpt>
<trkpt lat="48.69276428" lon="1.95370305"><ele></ele><time>2014-4-24T5:58:24Z</time></trkpt>
<trkpt lat="48.69267273" lon="1.95353794"><ele></ele><time>2014-4-24T5:58:27Z</time></trkpt>
<trkpt lat="48.69252014" lon="1.95305705"><ele></ele><time>2014-4-24T5:58:30Z</time></trkpt>
<trkpt lat="48.69243622" lon="1.95287204"><ele></ele><time>2014-4-24T5:58:33Z</time></trkpt>
<trkpt lat="48.69237137" lon="1.95241404"><ele></ele><time>2014-4-24T5:58:36Z</time></trkpt>
<trkpt lat="48.69231033" lon="1.95219898"><ele></ele><time>2014-4-24T5:58:39Z</time></trkpt>
<trkpt lat="48.69215012" lon="1.95157695"><ele></ele><time>2014-4-24T5:58:42Z</time></trkpt>
<trkpt lat="48.69213867" lon="1.95150697"><ele></ele><time>2014-4-24T5:58:45Z</time></trkpt>
<trkpt lat="48.69202805" lon="1.95119405"><ele></ele><time>2014-4-24T5:58:48Z</time></trkpt>
<trkpt lat="48.69195938" lon="1.95060301"><ele></ele><time>2014-4-24T5:58:51Z</time></trkpt>
<trkpt lat="48.69182205" lon="1.95009804"><ele></ele><time>2014-4-24T5:58:54Z</time></trkpt>
<trkpt lat="48.69171524" lon="1.94979203"><ele></ele><time>2014-4-24T5:58:57Z</time></trkpt>
<trkpt lat="48.69155884" lon="1.94982600"><ele></ele><time>2014-4-24T5:59:0Z</time></trkpt>
<trkpt lat="48.69125748" lon="1.95031297"><ele></ele><time>2014-4-24T5:59:3Z</time></trkpt>
<trkpt lat="48.69105148" lon="1.95050502"><ele></ele><time>2014-4-24T5:59:6Z</time></trkpt>
<trkpt lat="48.69081879" lon="1.95034802"><ele></ele><time>2014-4-24T5:59:9Z</time></trkpt>
<trkpt lat="48.69044113" lon="1.95005500"><ele></ele><time>2014-4-24T5:59:12Z</time></trkpt>
<trkpt lat="48.69039154" lon="1.95002496"><ele></ele><time>2014-4-24T5:59:15Z</time></trkpt>
<trkpt lat="48.69000244" lon="1.94964600"><ele></ele><time>2014-4-24T5:59:18Z</time></trkpt>
<trkpt lat="48.68969345" lon="1.94932401"><ele></ele><time>2014-4-24T5:59:21Z</time></trkpt>
<trkpt lat="48.68942261" lon="1.94907498"><ele></ele><time>2014-4-24T5:59:24Z</time></trkpt>
<trkpt lat="48.68904877" lon="1.94872797"><ele></ele><time>2014-4-24T5:59:27Z</time></trkpt>
<trkpt lat="48.68898773" lon="1.94868004"><ele></ele><time>2014-4-24T5:59:30Z</time></trkpt>
<trkpt lat="48.68857956" lon="1.94832397"><ele></ele><time>2014-4-24T5:59:33Z</time></trkpt>
<trkpt lat="48.68832016" lon="1.94809902"><ele></ele><time>2014-4-24T5:59:36Z</time></trkpt>
<trkpt lat="48.68800354" lon="1.94784606"><ele></ele><time>2014-4-24T5:59:39Z</time></trkpt>
<trkpt lat="48.68779373" lon="1.94765902"><ele></ele><time>2014-4-24T5:59:42Z</time></trkpt>
<trkpt lat="48.68738174" lon="1.94728196"><ele></ele><time>2014-4-24T5:59:45Z</time></trkpt>
<trkpt lat="48.68732834" lon="1.94724000"><ele></ele><time>2014-4-24T5:59:48Z</time></trkpt>
<trkpt lat="48.68721771" lon="1.94713402"><ele></ele><time>2014-4-24T5:59:51Z</time></trkpt>
<trkpt lat="48.68731689" lon="1.94674504"><ele></ele><time>2014-4-24T5:59:54Z</time></trkpt>
<trkpt lat="48.68743515" lon="1.94642305"><ele></ele><time>2014-4-24T5:59:57Z</time></trkpt>
<trkpt lat="48.68762589" lon="1.94595599"><ele></ele><time>2014-4-24T6:0:0Z</time></trkpt>
<trkpt lat="48.68780899" lon="1.94527698"><ele></ele><time>2014-4-24T6:0:3Z</time></trkpt>
<trkpt lat="48.68790436" lon="1.94507504"><ele></ele><time>2014-4-24T6:0:6Z</time></trkpt>
<trkpt lat="48.68805695" lon="1.94477296"><ele></ele><time>2014-4-24T6:0:9Z</time></trkpt>
<trkpt lat="48.68820953" lon="1.94434202"><ele></ele><time>2014-4-24T6:0:12Z</time></trkpt>
<trkpt lat="48.68831635" lon="1.94404805"><ele></ele><time>2014-4-24T6:0:15Z</time></trkpt>
<trkpt lat="48.68850708" lon="1.94372797"><ele></ele><time>2014-4-24T6:0:18Z</time></trkpt>
<trkpt lat="48.68867874" lon="1.94316196"><ele></ele><time>2014-4-24T6:0:21Z</time></trkpt>
<trkpt lat="48.68866348" lon="1.94310796"><ele></ele><time>2014-4-24T6:0:24Z</time></trkpt>
<trkpt lat="48.68860626" lon="1.94291198"><ele></ele><time>2014-4-24T6:0:27Z</time></trkpt>
<trkpt lat="48.68852234" lon="1.94225597"><ele></ele><time>2014-4-24T6:0:30Z</time></trkpt>
<trkpt lat="48.68846512" lon="1.94167399"><ele></ele><time>2014-4-24T6:0:33Z</time></trkpt>
<trkpt lat="48.68843842" lon="1.94137001"><ele></ele><time>2014-4-24T6:0:36Z</time></trkpt>
<trkpt lat="48.68829346" lon="1.94091105"><ele></ele><time>2014-4-24T6:0:39Z</time></trkpt>
<trkpt lat="48.68805695" lon="1.94026697"><ele></ele><time>2014-4-24T6:0:42Z</time></trkpt>
<trkpt lat="48.68801498" lon="1.94009304"><ele></ele><time>2014-4-24T6:0:45Z</time></trkpt>
<trkpt lat="48.68776321" lon="1.93950999"><ele></ele><time>2014-4-24T6:0:48Z</time></trkpt>
<trkpt lat="48.68761826" lon="1.93938804"><ele></ele><time>2014-4-24T6:0:51Z</time></trkpt>
<trkpt lat="48.68740463" lon="1.93922806"><ele></ele><time>2014-4-24T6:0:54Z</time></trkpt>
<trkpt lat="48.68724060" lon="1.93913698"><ele></ele><time>2014-4-24T6:0:57Z</time></trkpt>
<trkpt lat="48.68709183" lon="1.93929195"><ele></ele><time>2014-4-24T6:1:0Z</time></trkpt>
<trkpt lat="48.68682480" lon="1.93997705"><ele></ele><time>2014-4-24T6:1:3Z</time></trkpt>
<trkpt lat="48.68661118" lon="1.94054401"><ele></ele><time>2014-4-24T6:1:6Z</time></trkpt>
<trkpt lat="48.68650055" lon="1.94074500"><ele></ele><time>2014-4-24T6:1:9Z</time></trkpt>
<trkpt lat="48.68651199" lon="1.94103205"><ele></ele><time>2014-4-24T6:1:12Z</time></trkpt>
<trkpt lat="48.68645859" lon="1.94106901"><ele></ele><time>2014-4-24T6:1:15Z</time></trkpt>
<trkpt lat="48.68635941" lon="1.94123697"><ele></ele><time>2014-4-24T6:1:18Z</time></trkpt>
<trkpt lat="48.68625641" lon="1.94142699"><ele></ele><time>2014-4-24T6:1:21Z</time></trkpt>
<trkpt lat="48.68613052" lon="1.94169796"><ele></ele><time>2014-4-24T6:1:24Z</time></trkpt>
<trkpt lat="48.68599319" lon="1.94195700"><ele></ele><time>2014-4-24T6:1:27Z</time></trkpt>
<trkpt lat="48.68584061" lon="1.94226098"><ele></ele><time>2014-4-24T6:1:30Z</time></trkpt>
<trkpt lat="48.68573761" lon="1.94272602"><ele></ele><time>2014-4-24T6:1:33Z</time></trkpt>
<trkpt lat="48.68572998" lon="1.94277596"><ele></ele><time>2014-4-24T6:1:36Z</time></trkpt>
<trkpt lat="48.68565750" lon="1.94290400"><ele></ele><time>2014-4-24T6:1:39Z</time></trkpt>
<trkpt lat="48.68540192" lon="1.94330001"><ele></ele><time>2014-4-24T6:1:42Z</time></trkpt>
<trkpt lat="48.68521500" lon="1.94376099"><ele></ele><time>2014-4-24T6:1:45Z</time></trkpt>
<trkpt lat="48.68513489" lon="1.94396400"><ele></ele><time>2014-4-24T6:1:48Z</time></trkpt>
<trkpt lat="48.68507385" lon="1.94412696"><ele></ele><time>2014-4-24T6:1:51Z</time></trkpt>
<trkpt lat="48.68505859" lon="1.94415998"><ele></ele><time>2014-4-24T6:1:54Z</time></trkpt>
<trkpt lat="48.68488693" lon="1.94449306"><ele></ele><time>2014-4-24T6:1:57Z</time></trkpt>
<trkpt lat="48.68470001" lon="1.94500005"><ele></ele><time>2014-4-24T6:2:0Z</time></trkpt>
<trkpt lat="48.68446732" lon="1.94548702"><ele></ele><time>2014-4-24T6:2:3Z</time></trkpt>
<trkpt lat="48.68442535" lon="1.94560599"><ele></ele><time>2014-4-24T6:2:6Z</time></trkpt>
<trkpt lat="48.68427658" lon="1.94587004"><ele></ele><time>2014-4-24T6:2:9Z</time></trkpt>
<trkpt lat="48.68415833" lon="1.94604802"><ele></ele><time>2014-4-24T6:2:12Z</time></trkpt>
<trkpt lat="48.68395996" lon="1.94644701"><ele></ele><time>2014-4-24T6:2:15Z</time></trkpt>
<trkpt lat="48.68378067" lon="1.94695997"><ele></ele><time>2014-4-24T6:2:18Z</time></trkpt>
<trkpt lat="48.68366241" lon="1.94727397"><ele></ele><time>2014-4-24T6:2:21Z</time></trkpt>
<trkpt lat="48.68341064" lon="1.94782197"><ele></ele><time>2014-4-24T6:2:24Z</time></trkpt>
<trkpt lat="48.68338013" lon="1.94788504"><ele></ele><time>2014-4-24T6:2:27Z</time></trkpt>
<trkpt lat="48.68330002" lon="1.94806099"><ele></ele><time>2014-4-24T6:2:30Z</time></trkpt>
<trkpt lat="48.68305969" lon="1.94854105"><ele></ele><time>2014-4-24T6:2:33Z</time></trkpt>
<trkpt lat="48.68290710" lon="1.94884801"><ele></ele><time>2014-4-24T6:2:36Z</time></trkpt>
<trkpt lat="48.68269348" lon="1.94902503"><ele></ele><time>2014-4-24T6:2:39Z</time></trkpt>
<trkpt lat="48.68253708" lon="1.94909203"><ele></ele><time>2014-4-24T6:2:42Z</time></trkpt>
<trkpt lat="48.68236923" lon="1.94921005"><ele></ele><time>2014-4-24T6:2:45Z</time></trkpt>
<trkpt lat="48.68222427" lon="1.94930804"><ele></ele><time>2014-4-24T6:2:48Z</time></trkpt>
<trkpt lat="48.68212128" lon="1.94937694"><ele></ele><time>2014-4-24T6:2:51Z</time></trkpt>
<trkpt lat="48.68186569" lon="1.94967198"><ele></ele><time>2014-4-24T6:2:54Z</time></trkpt>
<trkpt lat="48.68181229" lon="1.94981098"><ele></ele><time>2014-4-24T6:2:57Z</time></trkpt>
<trkpt lat="48.68161011" lon="1.95016503"><ele></ele><time>2014-4-24T6:3:0Z</time></trkpt>
<trkpt lat="48.68148041" lon="1.95043695"><ele></ele><time>2014-4-24T6:3:3Z</time></trkpt>
<trkpt lat="48.68130112" lon="1.95084000"><ele></ele><time>2014-4-24T6:3:6Z</time></trkpt>
<trkpt lat="48.68127823" lon="1.95147097"><ele></ele><time>2014-4-24T6:3:9Z</time></trkpt>
<trkpt lat="48.68122482" lon="1.95191598"><ele></ele><time>2014-4-24T6:3:12Z</time></trkpt>
<trkpt lat="48.68104172" lon="1.95235002"><ele></ele><time>2014-4-24T6:3:15Z</time></trkpt>
<trkpt lat="48.68079758" lon="1.95287299"><ele></ele><time>2014-4-24T6:3:18Z</time></trkpt>
<trkpt lat="48.68076706" lon="1.95294201"><ele></ele><time>2014-4-24T6:3:21Z</time></trkpt>
<trkpt lat="48.68057632" lon="1.95349097"><ele></ele><time>2014-4-24T6:3:24Z</time></trkpt>
<trkpt lat="48.68038940" lon="1.95400405"><ele></ele><time>2014-4-24T6:3:27Z</time></trkpt>
<trkpt lat="48.68037033" lon="1.95448804"><ele></ele><time>2014-4-24T6:3:30Z</time></trkpt>
<trkpt lat="48.68019485" lon="1.95498002"><ele></ele><time>2014-4-24T6:3:33Z</time></trkpt>
<trkpt lat="48.68013763" lon="1.95513797"><ele></ele><time>2014-4-24T6:3:36Z</time></trkpt>
<trkpt lat="48.68006897" lon="1.95534897"><ele></ele><time>2014-4-24T6:3:39Z</time></trkpt>
<trkpt lat="48.67986679" lon="1.95594501"><ele></ele><time>2014-4-24T6:3:42Z</time></trkpt>
<trkpt lat="48.67968369" lon="1.95635295"><ele></ele><time>2014-4-24T6:3:45Z</time></trkpt>
<trkpt lat="48.67953491" lon="1.95674396"><ele></ele><time>2014-4-24T6:3:48Z</time></trkpt>
<trkpt lat="48.67933273" lon="1.95728803"><ele></ele><time>2014-4-24T6:3:51Z</time></trkpt>
<trkpt lat="48.67922592" lon="1.95787895"><ele></ele><time>2014-4-24T6:3:54Z</time></trkpt>
<trkpt lat="48.67903900" lon="1.95841396"><ele></ele><time>2014-4-24T6:3:57Z</time></trkpt>
<trkpt lat="48.67890167" lon="1.95878196"><ele></ele><time>2014-4-24T6:4:0Z</time></trkpt>
<trkpt lat="48.67864227" lon="1.95932996"><ele></ele><time>2014-4-24T6:4:3Z</time></trkpt>
<trkpt lat="48.67859650" lon="1.95943499"><ele></ele><time>2014-4-24T6:4:6Z</time></trkpt>
<trkpt lat="48.67836761" lon="1.95976806"><ele></ele><time>2014-4-24T6:4:9Z</time></trkpt>
<trkpt lat="48.67816162" lon="1.96012294"><ele></ele><time>2014-4-24T6:4:12Z</time></trkpt>
<trkpt lat="48.67789078" lon="1.96069503"><ele></ele><time>2014-4-24T6:4:15Z</time></trkpt>
<trkpt lat="48.67774963" lon="1.96102095"><ele></ele><time>2014-4-24T6:4:18Z</time></trkpt>
<trkpt lat="48.67769241" lon="1.96160901"><ele></ele><time>2014-4-24T6:4:21Z</time></trkpt>
<trkpt lat="48.67786789" lon="1.96199095"><ele></ele><time>2014-4-24T6:4:24Z</time></trkpt>
<trkpt lat="48.67814255" lon="1.96252096"><ele></ele><time>2014-4-24T6:4:27Z</time></trkpt>
<trkpt lat="48.67821884" lon="1.96267903"><ele></ele><time>2014-4-24T6:4:30Z</time></trkpt>
<trkpt lat="48.67845535" lon="1.96288395"><ele></ele><time>2014-4-24T6:4:33Z</time></trkpt>
<trkpt lat="48.67866135" lon="1.96304405"><ele></ele><time>2014-4-24T6:4:36Z</time></trkpt>
<trkpt lat="48.67882919" lon="1.96312296"><ele></ele><time>2014-4-24T6:4:39Z</time></trkpt>
<trkpt lat="48.67925262" lon="1.96312404"><ele></ele><time>2014-4-24T6:4:42Z</time></trkpt>
<trkpt lat="48.67942429" lon="1.96310496"><ele></ele><time>2014-4-24T6:4:45Z</time></trkpt>
<trkpt lat="48.67974854" lon="1.96306098"><ele></ele><time>2014-4-24T6:4:48Z</time></trkpt>
<trkpt lat="48.68021393" lon="1.96292603"><ele></ele><time>2014-4-24T6:4:51Z</time></trkpt>
<trkpt lat="48.68054581" lon="1.96273994"><ele></ele><time>2014-4-24T6:4:54Z</time></trkpt>
<trkpt lat="48.68077850" lon="1.96270001"><ele></ele><time>2014-4-24T6:4:57Z</time></trkpt>
<trkpt lat="48.68090820" lon="1.96270502"><ele></ele><time>2014-4-24T6:5:0Z</time></trkpt>
<trkpt lat="48.68122864" lon="1.96268201"><ele></ele><time>2014-4-24T6:5:3Z</time></trkpt>
<trkpt lat="48.68165588" lon="1.96246803"><ele></ele><time>2014-4-24T6:5:6Z</time></trkpt>
<trkpt lat="48.68160629" lon="1.96237695"><ele></ele><time>2014-4-24T6:5:9Z</time></trkpt>
<trkpt lat="48.68156433" lon="1.96239805"><ele></ele><time>2014-4-24T6:5:12Z</time></trkpt>
<trkpt lat="48.68153381" lon="1.96239197"><ele></ele><time>2014-4-24T6:5:15Z</time></trkpt>
<trkpt lat="48.68159103" lon="1.96243703"><ele></ele><time>2014-4-24T6:5:18Z</time></trkpt>
<trkpt lat="48.68168640" lon="1.96241701"><ele></ele><time>2014-4-24T6:5:21Z</time></trkpt>
<trkpt lat="48.68171310" lon="1.96236002"><ele></ele><time>2014-4-24T6:5:24Z</time></trkpt>
<trkpt lat="48.68177032" lon="1.96234596"><ele></ele><time>2014-4-24T6:5:27Z</time></trkpt>
<trkpt lat="48.68208313" lon="1.96215606"><ele></ele><time>2014-4-24T6:5:30Z</time></trkpt>
<trkpt lat="48.68244171" lon="1.96191204"><ele></ele><time>2014-4-24T6:5:33Z</time></trkpt>
<trkpt lat="48.68262482" lon="1.96177804"><ele></ele><time>2014-4-24T6:5:36Z</time></trkpt>
<trkpt lat="48.68297195" lon="1.96151197"><ele></ele><time>2014-4-24T6:5:39Z</time></trkpt>
<trkpt lat="48.68323898" lon="1.96148300"><ele></ele><time>2014-4-24T6:5:42Z</time></trkpt>
<trkpt lat="48.68331146" lon="1.96146595"><ele></ele><time>2014-4-24T6:5:45Z</time></trkpt>
<trkpt lat="48.68334961" lon="1.96142006"><ele></ele><time>2014-4-24T6:5:48Z</time></trkpt>
<trkpt lat="48.68349838" lon="1.96135604"><ele></ele><time>2014-4-24T6:5:51Z</time></trkpt>
<trkpt lat="48.68382263" lon="1.96125197"><ele></ele><time>2014-4-24T6:5:54Z</time></trkpt>
<trkpt lat="48.68394089" lon="1.96125698"><ele></ele><time>2014-4-24T6:5:57Z</time></trkpt>
<trkpt lat="48.68424225" lon="1.96111000"><ele></ele><time>2014-4-24T6:6:0Z</time></trkpt>
<trkpt lat="48.68455505" lon="1.96092296"><ele></ele><time>2014-4-24T6:6:3Z</time></trkpt>
<trkpt lat="48.68464661" lon="1.96086597"><ele></ele><time>2014-4-24T6:6:6Z</time></trkpt>
<trkpt lat="48.68485641" lon="1.96077895"><ele></ele><time>2014-4-24T6:6:9Z</time></trkpt>
<trkpt lat="48.68490982" lon="1.96076000"><ele></ele><time>2014-4-24T6:6:12Z</time></trkpt>
<trkpt lat="48.68495178" lon="1.96071398"><ele></ele><time>2014-4-24T6:6:15Z</time></trkpt>
<trkpt lat="48.68501663" lon="1.96065104"><ele></ele><time>2014-4-24T6:6:18Z</time></trkpt>
<trkpt lat="48.68510818" lon="1.96056604"><ele></ele><time>2014-4-24T6:6:21Z</time></trkpt>
<trkpt lat="48.68518829" lon="1.96048903"><ele></ele><time>2014-4-24T6:6:24Z</time></trkpt>
<trkpt lat="48.68520355" lon="1.96047604"><ele></ele><time>2014-4-24T6:6:27Z</time></trkpt>
<trkpt lat="48.68526077" lon="1.96037197"><ele></ele><time>2014-4-24T6:6:30Z</time></trkpt>
<trkpt lat="48.68529510" lon="1.96009195"><ele></ele><time>2014-4-24T6:6:33Z</time></trkpt>
<trkpt lat="48.68547440" lon="1.95956600"><ele></ele><time>2014-4-24T6:6:36Z</time></trkpt>
<trkpt lat="48.68552399" lon="1.95923495"><ele></ele><time>2014-4-24T6:6:39Z</time></trkpt>
<trkpt lat="48.68556213" lon="1.95899904"><ele></ele><time>2014-4-24T6:6:42Z</time></trkpt>
<trkpt lat="48.68580246" lon="1.95902205"><ele></ele><time>2014-4-24T6:6:45Z</time></trkpt>
<trkpt lat="48.68585205" lon="1.95905304"><ele></ele><time>2014-4-24T6:6:48Z</time></trkpt>
<trkpt lat="48.68620682" lon="1.95911396"><ele></ele><time>2014-4-24T6:6:51Z</time></trkpt>
<trkpt lat="48.68655014" lon="1.95928705"><ele></ele><time>2014-4-24T6:6:54Z</time></trkpt>
<trkpt lat="48.68657684" lon="1.95981395"><ele></ele><time>2014-4-24T6:6:57Z</time></trkpt>
<trkpt lat="48.68655396" lon="1.95988905"><ele></ele><time>2014-4-24T6:7:0Z</time></trkpt>
<trkpt lat="48.68650436" lon="1.96043098"><ele></ele><time>2014-4-24T6:7:3Z</time></trkpt>
<trkpt lat="48.68656540" lon="1.96075404"><ele></ele><time>2014-4-24T6:7:6Z</time></trkpt>
<trkpt lat="48.68667984" lon="1.96084094"><ele></ele><time>2014-4-24T6:7:9Z</time></trkpt>
<trkpt lat="48.68673706" lon="1.96088696"><ele></ele><time>2014-4-24T6:7:12Z</time></trkpt>
<trkpt lat="48.68689728" lon="1.96108198"><ele></ele><time>2014-4-24T6:7:15Z</time></trkpt>
<trkpt lat="48.68697357" lon="1.96115804"><ele></ele><time>2014-4-24T6:7:18Z</time></trkpt>
<trkpt lat="48.68722916" lon="1.96090102"><ele></ele><time>2014-4-24T6:7:21Z</time></trkpt>
<trkpt lat="48.68750000" lon="1.96046996"><ele></ele><time>2014-4-24T6:7:24Z</time></trkpt>
<trkpt lat="48.68779373" lon="1.96006298"><ele></ele><time>2014-4-24T6:7:27Z</time></trkpt>
<trkpt lat="48.68785095" lon="1.96004605"><ele></ele><time>2014-4-24T6:7:30Z</time></trkpt>
<trkpt lat="48.68841553" lon="1.95989299"><ele></ele><time>2014-4-24T6:7:33Z</time></trkpt>
<trkpt lat="48.68859100" lon="1.95976102"><ele></ele><time>2014-4-24T6:7:36Z</time></trkpt>
<trkpt lat="48.68864822" lon="1.95969999"><ele></ele><time>2014-4-24T6:7:39Z</time></trkpt>
<trkpt lat="48.68868637" lon="1.95947802"><ele></ele><time>2014-4-24T6:7:42Z</time></trkpt>
<trkpt lat="48.68905258" lon="1.95948803"><ele></ele><time>2014-4-24T6:7:45Z</time></trkpt>
<trkpt lat="48.68942261" lon="1.95952296"><ele></ele><time>2014-4-24T6:7:48Z</time></trkpt>
<trkpt lat="48.68979263" lon="1.95951998"><ele></ele><time>2014-4-24T6:7:51Z</time></trkpt>
<trkpt lat="48.68998337" lon="1.95973599"><ele></ele><time>2014-4-24T6:7:54Z</time></trkpt>
<trkpt lat="48.69017410" lon="1.95985603"><ele></ele><time>2014-4-24T6:7:57Z</time></trkpt>
<trkpt lat="48.69036484" lon="1.95999098"><ele></ele><time>2014-4-24T6:8:0Z</time></trkpt>
<trkpt lat="48.69055557" lon="1.96005201"><ele></ele><time>2014-4-24T6:8:3Z</time></trkpt>
<trkpt lat="48.69050980" lon="1.96019995"><ele></ele><time>2014-4-24T6:8:6Z</time></trkpt>
<trkpt lat="48.69039917" lon="1.96083105"><ele></ele><time>2014-4-24T6:8:9Z</time></trkpt>
<trkpt lat="48.69029999" lon="1.96116900"><ele></ele><time>2014-4-24T6:8:12Z</time></trkpt>
<trkpt lat="48.69028854" lon="1.96168303"><ele></ele><time>2014-4-24T6:8:15Z</time></trkpt>
<trkpt lat="48.69029999" lon="1.96177995"><ele></ele><time>2014-4-24T6:8:18Z</time></trkpt>
<trkpt lat="48.69030762" lon="1.96200299"><ele></ele><time>2014-4-24T6:8:21Z</time></trkpt>
<trkpt lat="48.69030762" lon="1.96202302"><ele></ele><time>2014-4-24T6:8:24Z</time></trkpt>
<trkpt lat="48.69022369" lon="1.96216500"><ele></ele><time>2014-4-24T6:8:27Z</time></trkpt>
<trkpt lat="48.69013977" lon="1.96227503"><ele></ele><time>2014-4-24T6:8:30Z</time></trkpt>
<trkpt lat="48.69003677" lon="1.96253395"><ele></ele><time>2014-4-24T6:8:33Z</time></trkpt>
<trkpt lat="48.68997955" lon="1.96298206"><ele></ele><time>2014-4-24T6:8:36Z</time></trkpt>
<trkpt lat="48.68997955" lon="1.96325803"><ele></ele><time>2014-4-24T6:8:39Z</time></trkpt>
<trkpt lat="48.68988419" lon="1.96322501"><ele></ele><time>2014-4-24T6:8:42Z</time></trkpt>
<trkpt lat="48.68976593" lon="1.96315002"><ele></ele><time>2014-4-24T6:8:45Z</time></trkpt>
<trkpt lat="48.68971252" lon="1.96291494"><ele></ele><time>2014-4-24T6:8:48Z</time></trkpt>
<trkpt lat="48.68969727" lon="1.96263003"><ele></ele><time>2014-4-24T6:8:51Z</time></trkpt>
<trkpt lat="48.68920135" lon="1.96230304"><ele></ele><time>2014-4-24T6:8:54Z</time></trkpt>
<trkpt lat="48.68890381" lon="1.96254206"><ele></ele><time>2014-4-24T6:8:57Z</time></trkpt>
<trkpt lat="48.68877029" lon="1.96266699"><ele></ele><time>2014-4-24T6:9:0Z</time></trkpt>
<trkpt lat="48.68862152" lon="1.96258795"><ele></ele><time>2014-4-24T6:9:3Z</time></trkpt>
<trkpt lat="48.68855286" lon="1.96249998"><ele></ele><time>2014-4-24T6:9:6Z</time></trkpt>
<trkpt lat="48.68842697" lon="1.96240604"><ele></ele><time>2014-4-24T6:9:9Z</time></trkpt>
<trkpt lat="48.68839264" lon="1.96241403"><ele></ele><time>2014-4-24T6:9:12Z</time></trkpt>
<trkpt lat="48.68827057" lon="1.96254694"><ele></ele><time>2014-4-24T6:9:15Z</time></trkpt>
<trkpt lat="48.68825150" lon="1.96275198"><ele></ele><time>2014-4-24T6:9:18Z</time></trkpt>
<trkpt lat="48.68817902" lon="1.96278095"><ele></ele><time>2014-4-24T6:9:21Z</time></trkpt>
<trkpt lat="48.68816376" lon="1.96275496"><ele></ele><time>2014-4-24T6:9:24Z</time></trkpt>
<trkpt lat="48.68810272" lon="1.96290600"><ele></ele><time>2014-4-24T6:9:27Z</time></trkpt>
<trkpt lat="48.68797302" lon="1.96305299"><ele></ele><time>2014-4-24T6:9:30Z</time></trkpt>
<trkpt lat="48.68785477" lon="1.96324503"><ele></ele><time>2014-4-24T6:9:33Z</time></trkpt>
<trkpt lat="48.68775940" lon="1.96326804"><ele></ele><time>2014-4-24T6:9:36Z</time></trkpt>
<trkpt lat="48.68764496" lon="1.96308804"><ele></ele><time>2014-4-24T6:9:39Z</time></trkpt>
<trkpt lat="48.68752289" lon="1.96295905"><ele></ele><time>2014-4-24T6:9:42Z</time></trkpt>
<trkpt lat="48.68737030" lon="1.96293604"><ele></ele><time>2014-4-24T6:9:45Z</time></trkpt>
<trkpt lat="48.68733215" lon="1.96288204"><ele></ele><time>2014-4-24T6:9:48Z</time></trkpt>
<trkpt lat="48.68728638" lon="1.96284997"><ele></ele><time>2014-4-24T6:9:51Z</time></trkpt>
<trkpt lat="48.68723679" lon="1.96282601"><ele></ele><time>2014-4-24T6:9:54Z</time></trkpt>
<trkpt lat="48.68703842" lon="1.96267796"><ele></ele><time>2014-4-24T6:9:57Z</time></trkpt>
<trkpt lat="48.68674850" lon="1.96278298"><ele></ele><time>2014-4-24T6:10:0Z</time></trkpt>
<trkpt lat="48.68667221" lon="1.96290195"><ele></ele><time>2014-4-24T6:10:3Z</time></trkpt>
<trkpt lat="48.68659210" lon="1.96303105"><ele></ele><time>2014-4-24T6:10:6Z</time></trkpt>
<trkpt lat="48.68640137" lon="1.96312106"><ele></ele><time>2014-4-24T6:10:9Z</time></trkpt>
<trkpt lat="48.68619919" lon="1.96331501"><ele></ele><time>2014-4-24T6:10:12Z</time></trkpt>
<trkpt lat="48.68591690" lon="1.96338105"><ele></ele><time>2014-4-24T6:10:15Z</time></trkpt>
<trkpt lat="48.68573380" lon="1.96345103"><ele></ele><time>2014-4-24T6:10:18Z</time></trkpt>
<trkpt lat="48.68528366" lon="1.96352994"><ele></ele><time>2014-4-24T6:10:21Z</time></trkpt>
<trkpt lat="48.68514633" lon="1.96351397"><ele></ele><time>2014-4-24T6:10:24Z</time></trkpt>
<trkpt lat="48.68499374" lon="1.96367598"><ele></ele><time>2014-4-24T6:10:27Z</time></trkpt>
<trkpt lat="48.68494797" lon="1.96369898"><ele></ele><time>2014-4-24T6:10:30Z</time></trkpt>
<trkpt lat="48.68473816" lon="1.96383595"><ele></ele><time>2014-4-24T6:10:33Z</time></trkpt>
<trkpt lat="48.68457031" lon="1.96389496"><ele></ele><time>2014-4-24T6:10:36Z</time></trkpt>
<trkpt lat="48.68457031" lon="1.96387398"><ele></ele><time>2014-4-24T6:10:39Z</time></trkpt>
<trkpt lat="48.68458176" lon="1.96381998"><ele></ele><time>2014-4-24T6:10:42Z</time></trkpt>
<trkpt lat="48.68455887" lon="1.96362495"><ele></ele><time>2014-4-24T6:10:45Z</time></trkpt>
<trkpt lat="48.68446732" lon="1.96315801"><ele></ele><time>2014-4-24T6:10:48Z</time></trkpt>
<trkpt lat="48.68445587" lon="1.96312797"><ele></ele><time>2014-4-24T6:10:51Z</time></trkpt>
<trkpt lat="48.68426895" lon="1.96302104"><ele></ele><time>2014-4-24T6:10:54Z</time></trkpt>
<trkpt lat="48.68411255" lon="1.96335006"><ele></ele><time>2014-4-24T6:10:57Z</time></trkpt>
<trkpt lat="48.68411636" lon="1.96341300"><ele></ele><time>2014-4-24T6:11:0Z</time></trkpt>
<trkpt lat="48.68407059" lon="1.96379495"><ele></ele><time>2014-4-24T6:11:3Z</time></trkpt>
<trkpt lat="48.68400955" lon="1.96398997"><ele></ele><time>2014-4-24T6:11:6Z</time></trkpt>
<trkpt lat="48.68387604" lon="1.96431303"><ele></ele><time>2014-4-24T6:11:9Z</time></trkpt>
<trkpt lat="48.68383408" lon="1.96450102"><ele></ele><time>2014-4-24T6:11:12Z</time></trkpt>
<trkpt lat="48.68368912" lon="1.96484005"><ele></ele><time>2014-4-24T6:11:15Z</time></trkpt>
<trkpt lat="48.68359756" lon="1.96500897"><ele></ele><time>2014-4-24T6:11:18Z</time></trkpt>
<trkpt lat="48.68342972" lon="1.96533799"><ele></ele><time>2014-4-24T6:11:21Z</time></trkpt>
<trkpt lat="48.68330002" lon="1.96555996"><ele></ele><time>2014-4-24T6:11:24Z</time></trkpt>
<trkpt lat="48.68320847" lon="1.96544302"><ele></ele><time>2014-4-24T6:11:27Z</time></trkpt>
<trkpt lat="48.68301773" lon="1.96546197"><ele></ele><time>2014-4-24T6:11:30Z</time></trkpt>
<trkpt lat="48.68288803" lon="1.96547902"><ele></ele><time>2014-4-24T6:11:33Z</time></trkpt>
<trkpt lat="48.68270111" lon="1.96564806"><ele></ele><time>2014-4-24T6:11:36Z</time></trkpt>
<trkpt lat="48.68263245" lon="1.96577001"><ele></ele><time>2014-4-24T6:11:39Z</time></trkpt>
<trkpt lat="48.68239594" lon="1.96563601"><ele></ele><time>2014-4-24T6:11:42Z</time></trkpt>
<trkpt lat="48.68215561" lon="1.96554995"><ele></ele><time>2014-4-24T6:11:45Z</time></trkpt>
<trkpt lat="48.68177032" lon="1.96510506"><ele></ele><time>2014-4-24T6:11:48Z</time></trkpt>
<trkpt lat="48.68151855" lon="1.96507895"><ele></ele><time>2014-4-24T6:11:51Z</time></trkpt>
<trkpt lat="48.68108749" lon="1.96506000"><ele></ele><time>2014-4-24T6:11:54Z</time></trkpt>
<trkpt lat="48.68079758" lon="1.96500504"><ele></ele><time>2014-4-24T6:11:57Z</time></trkpt>
<trkpt lat="48.68041229" lon="1.96526301"><ele></ele><time>2014-4-24T6:12:0Z</time></trkpt>
<trkpt lat="48.68027115" lon="1.96578205"><ele></ele><time>2014-4-24T6:12:3Z</time></trkpt>
<trkpt lat="48.68004227" lon="1.96606505"><ele></ele><time>2014-4-24T6:12:6Z</time></trkpt>
<trkpt lat="48.67996979" lon="1.96612406"><ele></ele><time>2014-4-24T6:12:9Z</time></trkpt>
<trkpt lat="48.67955399" lon="1.96605301"><ele></ele><time>2014-4-24T6:12:12Z</time></trkpt>
<trkpt lat="48.67919540" lon="1.96601403"><ele></ele><time>2014-4-24T6:12:15Z</time></trkpt>
<trkpt lat="48.67890167" lon="1.96614802"><ele></ele><time>2014-4-24T6:12:18Z</time></trkpt>
<trkpt lat="48.67885590" lon="1.96640694"><ele></ele><time>2014-4-24T6:12:21Z</time></trkpt>
<trkpt lat="48.67889786" lon="1.96652901"><ele></ele><time>2014-4-24T6:12:24Z</time></trkpt>
<trkpt lat="48.67890930" lon="1.96690500"><ele></ele><time>2014-4-24T6:12:27Z</time></trkpt>
<trkpt lat="48.67892838" lon="1.96744299"><ele></ele><time>2014-4-24T6:12:30Z</time></trkpt>
<trkpt lat="48.67894363" lon="1.96765494"><ele></ele><time>2014-4-24T6:12:33Z</time></trkpt>
<trkpt lat="48.67901611" lon="1.96790397"><ele></ele><time>2014-4-24T6:12:36Z</time></trkpt>
<trkpt lat="48.67906952" lon="1.96803105"><ele></ele><time>2014-4-24T6:12:39Z</time></trkpt>
<trkpt lat="48.67938232" lon="1.96818697"><ele></ele><time>2014-4-24T6:12:42Z</time></trkpt>
<trkpt lat="48.67957306" lon="1.96865904"><ele></ele><time>2014-4-24T6:12:45Z</time></trkpt>
<trkpt lat="48.67962265" lon="1.96926606"><ele></ele><time>2014-4-24T6:12:48Z</time></trkpt>
<trkpt lat="48.67970276" lon="1.96982098"><ele></ele><time>2014-4-24T6:12:51Z</time></trkpt>
<trkpt lat="48.67988205" lon="1.97012806"><ele></ele><time>2014-4-24T6:12:54Z</time></trkpt>
<trkpt lat="48.67992401" lon="1.97026801"><ele></ele><time>2014-4-24T6:12:57Z</time></trkpt>
<trkpt lat="48.68014526" lon="1.97079599"><ele></ele><time>2014-4-24T6:13:0Z</time></trkpt>
<trkpt lat="48.68027878" lon="1.97120798"><ele></ele><time>2014-4-24T6:13:3Z</time></trkpt>
<trkpt lat="48.68028641" lon="1.97133505"><ele></ele><time>2014-4-24T6:13:6Z</time></trkpt>
<trkpt lat="48.68010712" lon="1.97185004"><ele></ele><time>2014-4-24T6:13:9Z</time></trkpt>
<trkpt lat="48.68001556" lon="1.97245395"><ele></ele><time>2014-4-24T6:13:12Z</time></trkpt>
<trkpt lat="48.67993927" lon="1.97295702"><ele></ele><time>2014-4-24T6:13:15Z</time></trkpt>
<trkpt lat="48.67993927" lon="1.97352195"><ele></ele><time>2014-4-24T6:13:18Z</time></trkpt>
<trkpt lat="48.68000412" lon="1.97405899"><ele></ele><time>2014-4-24T6:13:21Z</time></trkpt>
<trkpt lat="48.67992020" lon="1.97445095"><ele></ele><time>2014-4-24T6:13:24Z</time></trkpt>
<trkpt lat="48.67985535" lon="1.97500300"><ele></ele><time>2014-4-24T6:13:27Z</time></trkpt>
<trkpt lat="48.67996979" lon="1.97560298"><ele></ele><time>2014-4-24T6:13:30Z</time></trkpt>
<trkpt lat="48.67996597" lon="1.97572803"><ele></ele><time>2014-4-24T6:13:33Z</time></trkpt>
<trkpt lat="48.67987442" lon="1.97611296"><ele></ele><time>2014-4-24T6:13:36Z</time></trkpt>
<trkpt lat="48.67987061" lon="1.97630405"><ele></ele><time>2014-4-24T6:13:39Z</time></trkpt>
<trkpt lat="48.68025589" lon="1.97659802"><ele></ele><time>2014-4-24T6:13:42Z</time></trkpt>
<trkpt lat="48.68024063" lon="1.97702396"><ele></ele><time>2014-4-24T6:13:45Z</time></trkpt>
<trkpt lat="48.68013763" lon="1.97766805"><ele></ele><time>2014-4-24T6:13:48Z</time></trkpt>
<trkpt lat="48.68012619" lon="1.97778404"><ele></ele><time>2014-4-24T6:13:51Z</time></trkpt>
<trkpt lat="48.67996979" lon="1.97836995"><ele></ele><time>2014-4-24T6:13:54Z</time></trkpt>
<trkpt lat="48.67992401" lon="1.97861600"><ele></ele><time>2014-4-24T6:13:57Z</time></trkpt>
<trkpt lat="48.67984772" lon="1.97915196"><ele></ele><time>2014-4-24T6:14:0Z</time></trkpt>
<trkpt lat="48.67979813" lon="1.97950196"><ele></ele><time>2014-4-24T6:14:3Z</time></trkpt>
<trkpt lat="48.67950821" lon="1.98001206"><ele></ele><time>2014-4-24T6:14:6Z</time></trkpt>
<trkpt lat="48.67935181" lon="1.98045194"><ele></ele><time>2014-4-24T6:14:9Z</time></trkpt>
<trkpt lat="48.67929840" lon="1.98088801"><ele></ele><time>2014-4-24T6:14:12Z</time></trkpt>
<trkpt lat="48.67927933" lon="1.98106098"><ele></ele><time>2014-4-24T6:14:15Z</time></trkpt>
<trkpt lat="48.67927551" lon="1.98139298"><ele></ele><time>2014-4-24T6:14:18Z</time></trkpt>
<trkpt lat="48.67915344" lon="1.98174596"><ele></ele><time>2014-4-24T6:14:21Z</time></trkpt>
<trkpt lat="48.67909622" lon="1.98205805"><ele></ele><time>2014-4-24T6:14:24Z</time></trkpt>
<trkpt lat="48.67919922" lon="1.98231602"><ele></ele><time>2014-4-24T6:14:27Z</time></trkpt>
<trkpt lat="48.67924500" lon="1.98238504"><ele></ele><time>2014-4-24T6:14:30Z</time></trkpt>
<trkpt lat="48.67935562" lon="1.98263097"><ele></ele><time>2014-4-24T6:14:33Z</time></trkpt>
<trkpt lat="48.67981720" lon="1.98236704"><ele></ele><time>2014-4-24T6:14:36Z</time></trkpt>
<trkpt lat="48.67994308" lon="1.98222196"><ele></ele><time>2014-4-24T6:14:39Z</time></trkpt>
<trkpt lat="48.68034744" lon="1.98177099"><ele></ele><time>2014-4-24T6:14:42Z</time></trkpt>
<trkpt lat="48.68046951" lon="1.98167896"><ele></ele><time>2014-4-24T6:14:45Z</time></trkpt>
<trkpt lat="48.68084717" lon="1.98145294"><ele></ele><time>2014-4-24T6:14:48Z</time></trkpt>
<trkpt lat="48.68116760" lon="1.98138595"><ele></ele><time>2014-4-24T6:14:51Z</time></trkpt>
<trkpt lat="48.68138885" lon="1.98153996"><ele></ele><time>2014-4-24T6:14:54Z</time></trkpt>
<trkpt lat="48.68163681" lon="1.98200095"><ele></ele><time>2014-4-24T6:14:57Z</time></trkpt>
<trkpt lat="48.68179321" lon="1.98213899"><ele></ele><time>2014-4-24T6:15:0Z</time></trkpt>
<trkpt lat="48.68204117" lon="1.98209906"><ele></ele><time>2014-4-24T6:15:3Z</time></trkpt>
<trkpt lat="48.68218231" lon="1.98198605"><ele></ele><time>2014-4-24T6:15:6Z</time></trkpt>
<trkpt lat="48.68243027" lon="1.98178303"><ele></ele><time>2014-4-24T6:15:9Z</time></trkpt>
<trkpt lat="48.68246078" lon="1.98178101"><ele></ele><time>2014-4-24T6:15:12Z</time></trkpt>
<trkpt lat="48.68276596" lon="1.98191297"><ele></ele><time>2014-4-24T6:15:15Z</time></trkpt>
<trkpt lat="48.68286133" lon="1.98212898"><ele></ele><time>2014-4-24T6:15:18Z</time></trkpt>
<trkpt lat="48.68287659" lon="1.98225904"><ele></ele><time>2014-4-24T6:15:21Z</time></trkpt>
<trkpt lat="48.68311691" lon="1.98231006"><ele></ele><time>2014-4-24T6:15:24Z</time></trkpt>
<trkpt lat="48.68309784" lon="1.98239899"><ele></ele><time>2014-4-24T6:15:27Z</time></trkpt>
<trkpt lat="48.68307114" lon="1.98250997"><ele></ele><time>2014-4-24T6:15:30Z</time></trkpt>
<trkpt lat="48.68306351" lon="1.98261201"><ele></ele><time>2014-4-24T6:15:33Z</time></trkpt>
<trkpt lat="48.68299866" lon="1.98296499"><ele></ele><time>2014-4-24T6:15:36Z</time></trkpt>
<trkpt lat="48.68298340" lon="1.98326695"><ele></ele><time>2014-4-24T6:15:39Z</time></trkpt>
<trkpt lat="48.68301773" lon="1.98336899"><ele></ele><time>2014-4-24T6:15:42Z</time></trkpt>
<trkpt lat="48.68312073" lon="1.98339498"><ele></ele><time>2014-4-24T6:15:45Z</time></trkpt>
<trkpt lat="48.68323517" lon="1.98335505"><ele></ele><time>2014-4-24T6:15:48Z</time></trkpt>
<trkpt lat="48.68333054" lon="1.98331201"><ele></ele><time>2014-4-24T6:15:51Z</time></trkpt>
<trkpt lat="48.68346786" lon="1.98322904"><ele></ele><time>2014-4-24T6:15:54Z</time></trkpt>
<trkpt lat="48.68378448" lon="1.98303401"><ele></ele><time>2014-4-24T6:15:57Z</time></trkpt>
<trkpt lat="48.68405151" lon="1.98283803"><ele></ele><time>2014-4-24T6:16:0Z</time></trkpt>
<trkpt lat="48.68416595" lon="1.98287201"><ele></ele><time>2014-4-24T6:16:3Z</time></trkpt>
<trkpt lat="48.68446350" lon="1.98299205"><ele></ele><time>2014-4-24T6:16:6Z</time></trkpt>
<trkpt lat="48.68458939" lon="1.98311400"><ele></ele><time>2014-4-24T6:16:9Z</time></trkpt>
<trkpt lat="48.68470383" lon="1.98336697"><ele></ele><time>2014-4-24T6:16:12Z</time></trkpt>
<trkpt lat="48.68479156" lon="1.98393703"><ele></ele><time>2014-4-24T6:16:15Z</time></trkpt>
<trkpt lat="48.68507767" lon="1.98427796"><ele></ele><time>2014-4-24T6:16:18Z</time></trkpt>
<trkpt lat="48.68546295" lon="1.98443997"><ele></ele><time>2014-4-24T6:16:21Z</time></trkpt>
<trkpt lat="48.68581772" lon="1.98470998"><ele></ele><time>2014-4-24T6:16:24Z</time></trkpt>
<trkpt lat="48.68607330" lon="1.98513401"><ele></ele><time>2014-4-24T6:16:27Z</time></trkpt>
<trkpt lat="48.68626404" lon="1.98563898"><ele></ele><time>2014-4-24T6:16:30Z</time></trkpt>
<trkpt lat="48.68631744" lon="1.98582602"><ele></ele><time>2014-4-24T6:16:33Z</time></trkpt>
<trkpt lat="48.68633270" lon="1.98626804"><ele></ele><time>2014-4-24T6:16:36Z</time></trkpt>
<trkpt lat="48.68635559" lon="1.98663294"><ele></ele><time>2014-4-24T6:16:39Z</time></trkpt>
<trkpt lat="48.68643570" lon="1.98706901"><ele></ele><time>2014-4-24T6:16:42Z</time></trkpt>
<trkpt lat="48.68649673" lon="1.98724306"><ele></ele><time>2014-4-24T6:16:45Z</time></trkpt>
<trkpt lat="48.68660736" lon="1.98732805"><ele></ele><time>2014-4-24T6:16:48Z</time></trkpt>
<trkpt lat="48.68687820" lon="1.98711097"><ele></ele><time>2014-4-24T6:16:51Z</time></trkpt>
<trkpt lat="48.68717575" lon="1.98683906"><ele></ele><time>2014-4-24T6:16:54Z</time></trkpt>
<trkpt lat="48.68732452" lon="1.98665297"><ele></ele><time>2014-4-24T6:16:57Z</time></trkpt>
<trkpt lat="48.68764114" lon="1.98630297"><ele></ele><time>2014-4-24T6:17:0Z</time></trkpt>
<trkpt lat="48.68767166" lon="1.98627603"><ele></ele><time>2014-4-24T6:17:3Z</time></trkpt>
<trkpt lat="48.68785477" lon="1.98608601"><ele></ele><time>2014-4-24T6:17:6Z</time></trkpt>
<trkpt lat="48.68805695" lon="1.98590004"><ele></ele><time>2014-4-24T6:17:9Z</time></trkpt>
<trkpt lat="48.68814850" lon="1.98586404"><ele></ele><time>2014-4-24T6:17:12Z</time></trkpt>
<trkpt lat="48.68853760" lon="1.98597097"><ele></ele><time>2014-4-24T6:17:15Z</time></trkpt>
<trkpt lat="48.68864441" lon="1.98602700"><ele></ele><time>2014-4-24T6:17:18Z</time></trkpt>
<trkpt lat="48.68871689" lon="1.98609304"><ele></ele><time>2014-4-24T6:17:21Z</time></trkpt>
<trkpt lat="48.68900681" lon="1.98651099"><ele></ele><time>2014-4-24T6:17:24Z</time></trkpt>
<trkpt lat="48.68904114" lon="1.98660898"><ele></ele><time>2014-4-24T6:17:27Z</time></trkpt>
<trkpt lat="48.68909073" lon="1.98678505"><ele></ele><time>2014-4-24T6:17:30Z</time></trkpt>
<trkpt lat="48.68910599" lon="1.98682404"><ele></ele><time>2014-4-24T6:17:33Z</time></trkpt>
<trkpt lat="48.68916321" lon="1.98697901"><ele></ele><time>2014-4-24T6:17:36Z</time></trkpt>
<trkpt lat="48.68929291" lon="1.98752606"><ele></ele><time>2014-4-24T6:17:39Z</time></trkpt>
<trkpt lat="48.68931580" lon="1.98807395"><ele></ele><time>2014-4-24T6:17:42Z</time></trkpt>
<trkpt lat="48.68961334" lon="1.98832500"><ele></ele><time>2014-4-24T6:17:45Z</time></trkpt>
<trkpt lat="48.68978500" lon="1.98841703"><ele></ele><time>2014-4-24T6:17:48Z</time></trkpt>
<trkpt lat="48.68992233" lon="1.98847699"><ele></ele><time>2014-4-24T6:17:51Z</time></trkpt>
<trkpt lat="48.69003296" lon="1.98852205"><ele></ele><time>2014-4-24T6:17:54Z</time></trkpt>
<trkpt lat="48.69014359" lon="1.98854196"><ele></ele><time>2014-4-24T6:17:57Z</time></trkpt>
<trkpt lat="48.69018936" lon="1.98853898"><ele></ele><time>2014-4-24T6:18:0Z</time></trkpt>
<trkpt lat="48.69024658" lon="1.98848200"><ele></ele><time>2014-4-24T6:18:3Z</time></trkpt>
<trkpt lat="48.69036865" lon="1.98858094"><ele></ele><time>2014-4-24T6:18:6Z</time></trkpt>
<trkpt lat="48.69033432" lon="1.98864901"><ele></ele><time>2014-4-24T6:18:9Z</time></trkpt>
<trkpt lat="48.69023132" lon="1.98872101"><ele></ele><time>2014-4-24T6:18:12Z</time></trkpt>
<trkpt lat="48.69026566" lon="1.98866498"><ele></ele><time>2014-4-24T6:18:15Z</time></trkpt>
<trkpt lat="48.69032669" lon="1.98854005"><ele></ele><time>2014-4-24T6:18:18Z</time></trkpt>
<trkpt lat="48.69033051" lon="1.98853695"><ele></ele><time>2014-4-24T6:18:21Z</time></trkpt>
<trkpt lat="48.69034576" lon="1.98860002"><ele></ele><time>2014-4-24T6:18:24Z</time></trkpt>
<trkpt lat="48.69036484" lon="1.98860097"><ele></ele><time>2014-4-24T6:18:27Z</time></trkpt>
<trkpt lat="48.69036865" lon="1.98859894"><ele></ele><time>2014-4-24T6:18:30Z</time></trkpt>
<trkpt lat="48.69033051" lon="1.98862803"><ele></ele><time>2014-4-24T6:18:33Z</time></trkpt>
<trkpt lat="48.69027710" lon="1.98863006"><ele></ele><time>2014-4-24T6:18:36Z</time></trkpt>
<trkpt lat="48.69031525" lon="1.98860800"><ele></ele><time>2014-4-24T6:18:39Z</time></trkpt>
<trkpt lat="48.69031525" lon="1.98868299"><ele></ele><time>2014-4-24T6:18:42Z</time></trkpt>
<trkpt lat="48.69033432" lon="1.98878706"><ele></ele><time>2014-4-24T6:18:45Z</time></trkpt>
<trkpt lat="48.69033813" lon="1.98894298"><ele></ele><time>2014-4-24T6:18:48Z</time></trkpt>
<trkpt lat="48.69037628" lon="1.98909402"><ele></ele><time>2014-4-24T6:18:51Z</time></trkpt>
<trkpt lat="48.69036865" lon="1.98918200"><ele></ele><time>2014-4-24T6:18:54Z</time></trkpt>
<trkpt lat="48.69032669" lon="1.98927903"><ele></ele><time>2014-4-24T6:18:57Z</time></trkpt>
<trkpt lat="48.69031143" lon="1.98935795"><ele></ele><time>2014-4-24T6:19:0Z</time></trkpt>
<trkpt lat="48.69028854" lon="1.98953497"><ele></ele><time>2014-4-24T6:19:3Z</time></trkpt>
<trkpt lat="48.69026947" lon="1.98993003"><ele></ele><time>2014-4-24T6:19:6Z</time></trkpt>
<trkpt lat="48.69022751" lon="1.99012899"><ele></ele><time>2014-4-24T6:19:9Z</time></trkpt>
<trkpt lat="48.68995667" lon="1.99058700"><ele></ele><time>2014-4-24T6:19:12Z</time></trkpt>
<trkpt lat="48.68980026" lon="1.99089897"><ele></ele><time>2014-4-24T6:19:15Z</time></trkpt>
<trkpt lat="48.68974686" lon="1.99109197"><ele></ele><time>2014-4-24T6:19:18Z</time></trkpt>
<trkpt lat="48.68964005" lon="1.99146903"><ele></ele><time>2014-4-24T6:19:21Z</time></trkpt>
<trkpt lat="48.68932343" lon="1.99197102"><ele></ele><time>2014-4-24T6:19:24Z</time></trkpt>
<trkpt lat="48.68917465" lon="1.99225903"><ele></ele><time>2014-4-24T6:19:27Z</time></trkpt>
<trkpt lat="48.68898010" lon="1.99275601"><ele></ele><time>2014-4-24T6:19:30Z</time></trkpt>
<trkpt lat="48.68884277" lon="1.99330294"><ele></ele><time>2014-4-24T6:19:33Z</time></trkpt>
<trkpt lat="48.68873978" lon="1.99386799"><ele></ele><time>2014-4-24T6:19:36Z</time></trkpt>
<trkpt lat="48.68863678" lon="1.99443305"><ele></ele><time>2014-4-24T6:19:39Z</time></trkpt>
<trkpt lat="48.68853760" lon="1.99500799"><ele></ele><time>2014-4-24T6:19:42Z</time></trkpt>
<trkpt lat="48.68844223" lon="1.99557495"><ele></ele><time>2014-4-24T6:19:45Z</time></trkpt>
<trkpt lat="48.68836212" lon="1.99611700"><ele></ele><time>2014-4-24T6:19:48Z</time></trkpt>
<trkpt lat="48.68830872" lon="1.99670005"><ele></ele><time>2014-4-24T6:19:51Z</time></trkpt>
<trkpt lat="48.68825912" lon="1.99729502"><ele></ele><time>2014-4-24T6:19:54Z</time></trkpt>
<trkpt lat="48.68822479" lon="1.99784696"><ele></ele><time>2014-4-24T6:19:57Z</time></trkpt>
<trkpt lat="48.68820190" lon="1.99846697"><ele></ele><time>2014-4-24T6:20:0Z</time></trkpt>
<trkpt lat="48.68819809" lon="1.99905705"><ele></ele><time>2014-4-24T6:20:3Z</time></trkpt>
<trkpt lat="48.68820190" lon="1.99963403"><ele></ele><time>2014-4-24T6:20:6Z</time></trkpt>
<trkpt lat="48.68823624" lon="2.00020504"><ele></ele><time>2014-4-24T6:20:9Z</time></trkpt>
<trkpt lat="48.68825912" lon="2.00080991"><ele></ele><time>2014-4-24T6:20:12Z</time></trkpt>
<trkpt lat="48.68827438" lon="2.00114012"><ele></ele><time>2014-4-24T6:20:15Z</time></trkpt>
<trkpt lat="48.68829727" lon="2.00169802"><ele></ele><time>2014-4-24T6:20:18Z</time></trkpt>
<trkpt lat="48.68832397" lon="2.00231004"><ele></ele><time>2014-4-24T6:20:21Z</time></trkpt>
<trkpt lat="48.68833160" lon="2.00287008"><ele></ele><time>2014-4-24T6:20:24Z</time></trkpt>
<trkpt lat="48.68836975" lon="2.00304103"><ele></ele><time>2014-4-24T6:20:27Z</time></trkpt>
<trkpt lat="48.68852615" lon="2.00319099"><ele></ele><time>2014-4-24T6:20:30Z</time></trkpt>
<trkpt lat="48.68853378" lon="2.00335789"><ele></ele><time>2014-4-24T6:20:33Z</time></trkpt>
<trkpt lat="48.68856049" lon="2.00345707"><ele></ele><time>2014-4-24T6:20:36Z</time></trkpt>
<trkpt lat="48.68852234" lon="2.00384092"><ele></ele><time>2014-4-24T6:20:39Z</time></trkpt>
<trkpt lat="48.68849945" lon="2.00420904"><ele></ele><time>2014-4-24T6:20:42Z</time></trkpt>
<trkpt lat="48.68841171" lon="2.00465703"><ele></ele><time>2014-4-24T6:20:45Z</time></trkpt>
<trkpt lat="48.68822861" lon="2.00517702"><ele></ele><time>2014-4-24T6:20:48Z</time></trkpt>
<trkpt lat="48.68819809" lon="2.00539494"><ele></ele><time>2014-4-24T6:20:51Z</time></trkpt>
<trkpt lat="48.68803024" lon="2.00585508"><ele></ele><time>2014-4-24T6:20:54Z</time></trkpt>
<trkpt lat="48.68798447" lon="2.00609303"><ele></ele><time>2014-4-24T6:20:57Z</time></trkpt>
<trkpt lat="48.68782806" lon="2.00647092"><ele></ele><time>2014-4-24T6:21:0Z</time></trkpt>
<trkpt lat="48.68774414" lon="2.00682402"><ele></ele><time>2014-4-24T6:21:3Z</time></trkpt>
<trkpt lat="48.68755722" lon="2.00741291"><ele></ele><time>2014-4-24T6:21:6Z</time></trkpt>
<trkpt lat="48.68738174" lon="2.00786090"><ele></ele><time>2014-4-24T6:21:9Z</time></trkpt>
<trkpt lat="48.68743134" lon="2.00803494"><ele></ele><time>2014-4-24T6:21:12Z</time></trkpt>
<trkpt lat="48.68760300" lon="2.00826311"><ele></ele><time>2014-4-24T6:21:15Z</time></trkpt>
<trkpt lat="48.68766022" lon="2.00833893"><ele></ele><time>2014-4-24T6:21:18Z</time></trkpt>
<trkpt lat="48.68774796" lon="2.00850201"><ele></ele><time>2014-4-24T6:21:21Z</time></trkpt>
<trkpt lat="48.68800354" lon="2.00911593"><ele></ele><time>2014-4-24T6:21:24Z</time></trkpt>
<trkpt lat="48.68818283" lon="2.00974488"><ele></ele><time>2014-4-24T6:21:27Z</time></trkpt>
<trkpt lat="48.68844223" lon="2.01031899"><ele></ele><time>2014-4-24T6:21:30Z</time></trkpt>
<trkpt lat="48.68860245" lon="2.01070905"><ele></ele><time>2014-4-24T6:21:33Z</time></trkpt>
<trkpt lat="48.68870926" lon="2.01104093"><ele></ele><time>2014-4-24T6:21:36Z</time></trkpt>
<trkpt lat="48.68877411" lon="2.01125097"><ele></ele><time>2014-4-24T6:21:39Z</time></trkpt>
<trkpt lat="48.68884659" lon="2.01143193"><ele></ele><time>2014-4-24T6:21:42Z</time></trkpt>
<trkpt lat="48.68894577" lon="2.01167607"><ele></ele><time>2014-4-24T6:21:45Z</time></trkpt>
<trkpt lat="48.68904877" lon="2.01203108"><ele></ele><time>2014-4-24T6:21:48Z</time></trkpt>
<trkpt lat="48.68926620" lon="2.01260495"><ele></ele><time>2014-4-24T6:21:51Z</time></trkpt>
<trkpt lat="48.68945313" lon="2.01310110"><ele></ele><time>2014-4-24T6:21:54Z</time></trkpt>
<trkpt lat="48.68954468" lon="2.01330209"><ele></ele><time>2014-4-24T6:21:57Z</time></trkpt>
<trkpt lat="48.68976593" lon="2.01377010"><ele></ele><time>2014-4-24T6:22:0Z</time></trkpt>
<trkpt lat="48.68999100" lon="2.01427698"><ele></ele><time>2014-4-24T6:22:3Z</time></trkpt>
<trkpt lat="48.69005966" lon="2.01443410"><ele></ele><time>2014-4-24T6:22:6Z</time></trkpt>
<trkpt lat="48.69012070" lon="2.01463103"><ele></ele><time>2014-4-24T6:22:9Z</time></trkpt>
<trkpt lat="48.69014359" lon="2.01470399"><ele></ele><time>2014-4-24T6:22:12Z</time></trkpt>
<trkpt lat="48.69041824" lon="2.01495910"><ele></ele><time>2014-4-24T6:22:15Z</time></trkpt>
<trkpt lat="48.69057846" lon="2.01514196"><ele></ele><time>2014-4-24T6:22:18Z</time></trkpt>
<trkpt lat="48.69058228" lon="2.01556206"><ele></ele><time>2014-4-24T6:22:21Z</time></trkpt>
<trkpt lat="48.69030762" lon="2.01581907"><ele></ele><time>2014-4-24T6:22:24Z</time></trkpt>
<trkpt lat="48.68989563" lon="2.01615405"><ele></ele><time>2014-4-24T6:22:27Z</time></trkpt>
<trkpt lat="48.68964386" lon="2.01630592"><ele></ele><time>2014-4-24T6:22:30Z</time></trkpt>
<trkpt lat="48.68921661" lon="2.01661491"><ele></ele><time>2014-4-24T6:22:33Z</time></trkpt>
<trkpt lat="48.68883896" lon="2.01675510"><ele></ele><time>2014-4-24T6:22:36Z</time></trkpt>
<trkpt lat="48.68878555" lon="2.01677895"><ele></ele><time>2014-4-24T6:22:39Z</time></trkpt>
<trkpt lat="48.68867874" lon="2.01683497"><ele></ele><time>2014-4-24T6:22:42Z</time></trkpt>
<trkpt lat="48.68831635" lon="2.01721096"><ele></ele><time>2014-4-24T6:22:45Z</time></trkpt>
<trkpt lat="48.68804169" lon="2.01759100"><ele></ele><time>2014-4-24T6:22:48Z</time></trkpt>
<trkpt lat="48.68774033" lon="2.01795411"><ele></ele><time>2014-4-24T6:22:51Z</time></trkpt>
<trkpt lat="48.68753815" lon="2.01822710"><ele></ele><time>2014-4-24T6:22:54Z</time></trkpt>
<trkpt lat="48.68741226" lon="2.01830196"><ele></ele><time>2014-4-24T6:22:57Z</time></trkpt>
<trkpt lat="48.68722534" lon="2.01843596"><ele></ele><time>2014-4-24T6:23:0Z</time></trkpt>
<trkpt lat="48.68747330" lon="2.01877189"><ele></ele><time>2014-4-24T6:23:3Z</time></trkpt>
<trkpt lat="48.68773270" lon="2.01925802"><ele></ele><time>2014-4-24T6:23:6Z</time></trkpt>
<trkpt lat="48.68789673" lon="2.01973510"><ele></ele><time>2014-4-24T6:23:9Z</time></trkpt>
<trkpt lat="48.68808746" lon="2.02039289"><ele></ele><time>2014-4-24T6:23:12Z</time></trkpt>
<trkpt lat="48.68810654" lon="2.02049088"><ele></ele><time>2014-4-24T6:23:15Z</time></trkpt>
<trkpt lat="48.68823242" lon="2.02078700"><ele></ele><time>2014-4-24T6:23:18Z</time></trkpt>
<trkpt lat="48.68859863" lon="2.02063704"><ele></ele><time>2014-4-24T6:23:21Z</time></trkpt>
<trkpt lat="48.68902969" lon="2.02060699"><ele></ele><time>2014-4-24T6:23:24Z</time></trkpt>
<trkpt lat="48.68940735" lon="2.02076602"><ele></ele><time>2014-4-24T6:23:27Z</time></trkpt>
<trkpt lat="48.68973923" lon="2.02084303"><ele></ele><time>2014-4-24T6:23:30Z</time></trkpt>
<trkpt lat="48.69005203" lon="2.02096891"><ele></ele><time>2014-4-24T6:23:33Z</time></trkpt>
<trkpt lat="48.69027710" lon="2.02103400"><ele></ele><time>2014-4-24T6:23:36Z</time></trkpt>
<trkpt lat="48.69038391" lon="2.02114606"><ele></ele><time>2014-4-24T6:23:39Z</time></trkpt>
<trkpt lat="48.69048691" lon="2.02127099"><ele></ele><time>2014-4-24T6:23:42Z</time></trkpt>
<trkpt lat="48.69070053" lon="2.02148104"><ele></ele><time>2014-4-24T6:23:45Z</time></trkpt>
<trkpt lat="48.69083023" lon="2.02167797"><ele></ele><time>2014-4-24T6:23:48Z</time></trkpt>
<trkpt lat="48.69095993" lon="2.02186489"><ele></ele><time>2014-4-24T6:23:51Z</time></trkpt>
<trkpt lat="48.69131470" lon="2.02219009"><ele></ele><time>2014-4-24T6:23:54Z</time></trkpt>
<trkpt lat="48.69133759" lon="2.02221489"><ele></ele><time>2014-4-24T6:23:57Z</time></trkpt>
<trkpt lat="48.69164276" lon="2.02253699"><ele></ele><time>2014-4-24T6:24:0Z</time></trkpt>
<trkpt lat="48.69204330" lon="2.02274108"><ele></ele><time>2014-4-24T6:24:3Z</time></trkpt>
<trkpt lat="48.69220734" lon="2.02294993"><ele></ele><time>2014-4-24T6:24:6Z</time></trkpt>
<trkpt lat="48.69235611" lon="2.02312493"><ele></ele><time>2014-4-24T6:24:9Z</time></trkpt>
<trkpt lat="48.69238663" lon="2.02327895"><ele></ele><time>2014-4-24T6:24:12Z</time></trkpt>
<trkpt lat="48.69245148" lon="2.02351499"><ele></ele><time>2014-4-24T6:24:15Z</time></trkpt>
<trkpt lat="48.69253922" lon="2.02362108"><ele></ele><time>2014-4-24T6:24:18Z</time></trkpt>
<trkpt lat="48.69259262" lon="2.02371407"><ele></ele><time>2014-4-24T6:24:21Z</time></trkpt>
<trkpt lat="48.69278717" lon="2.02407789"><ele></ele><time>2014-4-24T6:24:24Z</time></trkpt>
<trkpt lat="48.69285202" lon="2.02413201"><ele></ele><time>2014-4-24T6:24:27Z</time></trkpt>
<trkpt lat="48.69303894" lon="2.02427697"><ele></ele><time>2014-4-24T6:24:30Z</time></trkpt>
<trkpt lat="48.69305038" lon="2.02444196"><ele></ele><time>2014-4-24T6:24:33Z</time></trkpt>
<trkpt lat="48.69310760" lon="2.02477598"><ele></ele><time>2014-4-24T6:24:36Z</time></trkpt>
<trkpt lat="48.69305038" lon="2.02488303"><ele></ele><time>2014-4-24T6:24:39Z</time></trkpt>
<trkpt lat="48.69301605" lon="2.02505112"><ele></ele><time>2014-4-24T6:24:42Z</time></trkpt>
<trkpt lat="48.69301605" lon="2.02511406"><ele></ele><time>2014-4-24T6:24:45Z</time></trkpt>
<trkpt lat="48.69299698" lon="2.02516794"><ele></ele><time>2014-4-24T6:24:48Z</time></trkpt>
<trkpt lat="48.69298935" lon="2.02517700"><ele></ele><time>2014-4-24T6:24:51Z</time></trkpt>
<trkpt lat="48.69297791" lon="2.02530098"><ele></ele><time>2014-4-24T6:24:54Z</time></trkpt>
<trkpt lat="48.69297791" lon="2.02549195"><ele></ele><time>2014-4-24T6:24:57Z</time></trkpt>
<trkpt lat="48.69306946" lon="2.02584291"><ele></ele><time>2014-4-24T6:25:0Z</time></trkpt>
<trkpt lat="48.69303131" lon="2.02586293"><ele></ele><time>2014-4-24T6:25:3Z</time></trkpt>
<trkpt lat="48.69278717" lon="2.02599311"><ele></ele><time>2014-4-24T6:25:6Z</time></trkpt>
<trkpt lat="48.69269943" lon="2.02606297"><ele></ele><time>2014-4-24T6:25:9Z</time></trkpt>
<trkpt lat="48.69258881" lon="2.02609301"><ele></ele><time>2014-4-24T6:25:12Z</time></trkpt>
<trkpt lat="48.69225693" lon="2.02635407"><ele></ele><time>2014-4-24T6:25:15Z</time></trkpt>
<trkpt lat="48.69204712" lon="2.02646899"><ele></ele><time>2014-4-24T6:25:18Z</time></trkpt>
<trkpt lat="48.69173050" lon="2.02649593"><ele></ele><time>2014-4-24T6:25:21Z</time></trkpt>
<trkpt lat="48.69163895" lon="2.02652597"><ele></ele><time>2014-4-24T6:25:24Z</time></trkpt>
<trkpt lat="48.69155502" lon="2.02655911"><ele></ele><time>2014-4-24T6:25:27Z</time></trkpt>
<trkpt lat="48.69151306" lon="2.02666211"><ele></ele><time>2014-4-24T6:25:30Z</time></trkpt>
<trkpt lat="48.69152451" lon="2.02669811"><ele></ele><time>2014-4-24T6:25:33Z</time></trkpt>
<trkpt lat="48.69175339" lon="2.02718711"><ele></ele><time>2014-4-24T6:25:36Z</time></trkpt>
<trkpt lat="48.69184113" lon="2.02739811"><ele></ele><time>2014-4-24T6:25:39Z</time></trkpt>
<trkpt lat="48.69186020" lon="2.02745295"><ele></ele><time>2014-4-24T6:25:42Z</time></trkpt>
<trkpt lat="48.69205093" lon="2.02786398"><ele></ele><time>2014-4-24T6:25:45Z</time></trkpt>
<trkpt lat="48.69213486" lon="2.02796793"><ele></ele><time>2014-4-24T6:25:48Z</time></trkpt>
<trkpt lat="48.69215775" lon="2.02800703"><ele></ele><time>2014-4-24T6:25:51Z</time></trkpt>
<trkpt lat="48.69216537" lon="2.02803612"><ele></ele><time>2014-4-24T6:25:54Z</time></trkpt>
<trkpt lat="48.69215012" lon="2.02807212"><ele></ele><time>2014-4-24T6:25:57Z</time></trkpt>
<trkpt lat="48.69214630" lon="2.02807903"><ele></ele><time>2014-4-24T6:26:0Z</time></trkpt>
<trkpt lat="48.69217682" lon="2.02803707"><ele></ele><time>2014-4-24T6:26:3Z</time></trkpt>
<trkpt lat="48.69211578" lon="2.02801490"><ele></ele><time>2014-4-24T6:26:6Z</time></trkpt>
<trkpt lat="48.69203949" lon="2.02794504"><ele></ele><time>2014-4-24T6:26:9Z</time></trkpt>
<trkpt lat="48.69209671" lon="2.02796006"><ele></ele><time>2014-4-24T6:26:12Z</time></trkpt>
<trkpt lat="48.69209671" lon="2.02807999"><ele></ele><time>2014-4-24T6:26:15Z</time></trkpt>
<trkpt lat="48.69208527" lon="2.02823806"><ele></ele><time>2014-4-24T6:26:18Z</time></trkpt>
<trkpt lat="48.69205093" lon="2.02843904"><ele></ele><time>2014-4-24T6:26:21Z</time></trkpt>
<trkpt lat="48.69208145" lon="2.02855992"><ele></ele><time>2014-4-24T6:26:24Z</time></trkpt>
<trkpt lat="48.69217300" lon="2.02903390"><ele></ele><time>2014-4-24T6:26:27Z</time></trkpt>
<trkpt lat="48.69223022" lon="2.02954102"><ele></ele><time>2014-4-24T6:26:30Z</time></trkpt>
<trkpt lat="48.69225693" lon="2.03009605"><ele></ele><time>2014-4-24T6:26:33Z</time></trkpt>
<trkpt lat="48.69231033" lon="2.03030992"><ele></ele><time>2014-4-24T6:26:36Z</time></trkpt>
<trkpt lat="48.69232941" lon="2.03046203"><ele></ele><time>2014-4-24T6:26:39Z</time></trkpt>
<trkpt lat="48.69207001" lon="2.03067398"><ele></ele><time>2014-4-24T6:26:42Z</time></trkpt>
<trkpt lat="48.69195557" lon="2.03079009"><ele></ele><time>2014-4-24T6:26:45Z</time></trkpt>
<trkpt lat="48.69180679" lon="2.03089309"><ele></ele><time>2014-4-24T6:26:48Z</time></trkpt>
<trkpt lat="48.69156265" lon="2.03092003"><ele></ele><time>2014-4-24T6:26:51Z</time></trkpt>
<trkpt lat="48.69150543" lon="2.03100204"><ele></ele><time>2014-4-24T6:26:54Z</time></trkpt>
<trkpt lat="48.69145966" lon="2.03151202"><ele></ele><time>2014-4-24T6:26:57Z</time></trkpt>
<trkpt lat="48.69148636" lon="2.03171802"><ele></ele><time>2014-4-24T6:27:0Z</time></trkpt>
<trkpt lat="48.69152451" lon="2.03228092"><ele></ele><time>2014-4-24T6:27:3Z</time></trkpt>
<trkpt lat="48.69144058" lon="2.03283691"><ele></ele><time>2014-4-24T6:27:6Z</time></trkpt>
<trkpt lat="48.69133377" lon="2.03336596"><ele></ele><time>2014-4-24T6:27:9Z</time></trkpt>
<trkpt lat="48.69124603" lon="2.03362203"><ele></ele><time>2014-4-24T6:27:12Z</time></trkpt>
<trkpt lat="48.69122696" lon="2.03367996"><ele></ele><time>2014-4-24T6:27:15Z</time></trkpt>
<trkpt lat="48.69112396" lon="2.03408790"><ele></ele><time>2014-4-24T6:27:18Z</time></trkpt>
<trkpt lat="48.69112015" lon="2.03416800"><ele></ele><time>2014-4-24T6:27:21Z</time></trkpt>
<trkpt lat="48.69115448" lon="2.03426290"><ele></ele><time>2014-4-24T6:27:24Z</time></trkpt>
<trkpt lat="48.69117737" lon="2.03432012"><ele></ele><time>2014-4-24T6:27:27Z</time></trkpt>
<trkpt lat="48.69144440" lon="2.03472400"><ele></ele><time>2014-4-24T6:27:30Z</time></trkpt>
<trkpt lat="48.69163513" lon="2.03497791"><ele></ele><time>2014-4-24T6:27:33Z</time></trkpt>
<trkpt lat="48.69159698" lon="2.03506899"><ele></ele><time>2014-4-24T6:27:36Z</time></trkpt>
<trkpt lat="48.69160080" lon="2.03507805"><ele></ele><time>2014-4-24T6:27:39Z</time></trkpt>
<trkpt lat="48.69169235" lon="2.03507900"><ele></ele><time>2014-4-24T6:27:42Z</time></trkpt>
<trkpt lat="48.69195938" lon="2.03521490"><ele></ele><time>2014-4-24T6:27:45Z</time></trkpt>
<trkpt lat="48.69234085" lon="2.03545308"><ele></ele><time>2014-4-24T6:27:48Z</time></trkpt>
<trkpt lat="48.69277954" lon="2.03576303"><ele></ele><time>2014-4-24T6:27:51Z</time></trkpt>
<trkpt lat="48.69315338" lon="2.03603292"><ele></ele><time>2014-4-24T6:27:54Z</time></trkpt>
<trkpt lat="48.69343567" lon="2.03617191"><ele></ele><time>2014-4-24T6:27:57Z</time></trkpt>
<trkpt lat="48.69365311" lon="2.03635097"><ele></ele><time>2014-4-24T6:28:0Z</time></trkpt>
<trkpt lat="48.69397354" lon="2.03655195"><ele></ele><time>2014-4-24T6:28:3Z</time></trkpt>
<trkpt lat="48.69406128" lon="2.03658891"><ele></ele><time>2014-4-24T6:28:6Z</time></trkpt>
<trkpt lat="48.69414520" lon="2.03665709"><ele></ele><time>2014-4-24T6:28:9Z</time></trkpt>
<trkpt lat="48.69420242" lon="2.03669691"><ele></ele><time>2014-4-24T6:28:12Z</time></trkpt>
<trkpt lat="48.69429779" lon="2.03681707"><ele></ele><time>2014-4-24T6:28:15Z</time></trkpt>
<trkpt lat="48.69438171" lon="2.03688312"><ele></ele><time>2014-4-24T6:28:18Z</time></trkpt>
<trkpt lat="48.69464874" lon="2.03677607"><ele></ele><time>2014-4-24T6:28:21Z</time></trkpt>
<trkpt lat="48.69481659" lon="2.03674293"><ele></ele><time>2014-4-24T6:28:24Z</time></trkpt>
<trkpt lat="48.69524002" lon="2.03666902"><ele></ele><time>2014-4-24T6:28:27Z</time></trkpt>
<trkpt lat="48.69559860" lon="2.03642106"><ele></ele><time>2014-4-24T6:28:30Z</time></trkpt>
<trkpt lat="48.69593430" lon="2.03618312"><ele></ele><time>2014-4-24T6:28:33Z</time></trkpt>
<trkpt lat="48.69627762" lon="2.03597903"><ele></ele><time>2014-4-24T6:28:36Z</time></trkpt>
<trkpt lat="48.69644928" lon="2.03574491"><ele></ele><time>2014-4-24T6:28:39Z</time></trkpt>
<trkpt lat="48.69682312" lon="2.03549504"><ele></ele><time>2014-4-24T6:28:42Z</time></trkpt>
<trkpt lat="48.69690704" lon="2.03549194"><ele></ele><time>2014-4-24T6:28:45Z</time></trkpt>
<trkpt lat="48.69732285" lon="2.03583407"><ele></ele><time>2014-4-24T6:28:48Z</time></trkpt>
<trkpt lat="48.69739532" lon="2.03587890"><ele></ele><time>2014-4-24T6:28:51Z</time></trkpt>
<trkpt lat="48.69737244" lon="2.03590298"><ele></ele><time>2014-4-24T6:28:54Z</time></trkpt>
<trkpt lat="48.69762039" lon="2.03593802"><ele></ele><time>2014-4-24T6:28:57Z</time></trkpt>
<trkpt lat="48.69787598" lon="2.03592896"><ele></ele><time>2014-4-24T6:29:0Z</time></trkpt>
<trkpt lat="48.69799805" lon="2.03623009"><ele></ele><time>2014-4-24T6:29:3Z</time></trkpt>
<trkpt lat="48.69821548" lon="2.03682208"><ele></ele><time>2014-4-24T6:29:6Z</time></trkpt>
<trkpt lat="48.69829178" lon="2.03711891"><ele></ele><time>2014-4-24T6:29:9Z</time></trkpt>
<trkpt lat="48.69834137" lon="2.03724909"><ele></ele><time>2014-4-24T6:29:12Z</time></trkpt>
<trkpt lat="48.69841766" lon="2.03750992"><ele></ele><time>2014-4-24T6:29:15Z</time></trkpt>
<trkpt lat="48.69856262" lon="2.03780699"><ele></ele><time>2014-4-24T6:29:18Z</time></trkpt>
<trkpt lat="48.69879532" lon="2.03835511"><ele></ele><time>2014-4-24T6:29:21Z</time></trkpt>
<trkpt lat="48.69899368" lon="2.03878403"><ele></ele><time>2014-4-24T6:29:24Z</time></trkpt>
<trkpt lat="48.69900894" lon="2.03897810"><ele></ele><time>2014-4-24T6:29:27Z</time></trkpt>
<trkpt lat="48.69905090" lon="2.03928995"><ele></ele><time>2014-4-24T6:29:30Z</time></trkpt>
<trkpt lat="48.69903183" lon="2.03936100"><ele></ele><time>2014-4-24T6:29:33Z</time></trkpt>
<trkpt lat="48.69905472" lon="2.03948593"><ele></ele><time>2014-4-24T6:29:36Z</time></trkpt>
<trkpt lat="48.69910431" lon="2.03963590"><ele></ele><time>2014-4-24T6:29:39Z</time></trkpt>
<trkpt lat="48.69913101" lon="2.03983903"><ele></ele><time>2014-4-24T6:29:42Z</time></trkpt>
<trkpt lat="48.69917297" lon="2.04001594"><ele></ele><time>2014-4-24T6:29:45Z</time></trkpt>
<trkpt lat="48.69926071" lon="2.04014397"><ele></ele><time>2014-4-24T6:29:48Z</time></trkpt>
<trkpt lat="48.69935226" lon="2.04024196"><ele></ele><time>2014-4-24T6:29:51Z</time></trkpt>
<trkpt lat="48.69942856" lon="2.04041791"><ele></ele><time>2014-4-24T6:29:54Z</time></trkpt>
<trkpt lat="48.69942856" lon="2.04036903"><ele></ele><time>2014-4-24T6:29:57Z</time></trkpt>
<trkpt lat="48.69942474" lon="2.04036999"><ele></ele><time>2014-4-24T6:30:0Z</time></trkpt>
<trkpt lat="48.69941711" lon="2.04039192"><ele></ele><time>2014-4-24T6:30:3Z</time></trkpt>
<trkpt lat="48.69940186" lon="2.04041195"><ele></ele><time>2014-4-24T6:30:6Z</time></trkpt>
<trkpt lat="48.69939423" lon="2.04041100"><ele></ele><time>2014-4-24T6:30:9Z</time></trkpt>
<trkpt lat="48.69939423" lon="2.04041290"><ele></ele><time>2014-4-24T6:30:12Z</time></trkpt>
<trkpt lat="48.69939041" lon="2.04041409"><ele></ele><time>2014-4-24T6:30:15Z</time></trkpt>
<trkpt lat="48.69934464" lon="2.04045796"><ele></ele><time>2014-4-24T6:30:18Z</time></trkpt>
<trkpt lat="48.69934464" lon="2.04048204"><ele></ele><time>2014-4-24T6:30:21Z</time></trkpt>
<trkpt lat="48.69934464" lon="2.04050112"><ele></ele><time>2014-4-24T6:30:24Z</time></trkpt>
<trkpt lat="48.69929886" lon="2.04066205"><ele></ele><time>2014-4-24T6:30:27Z</time></trkpt>
<trkpt lat="48.69926834" lon="2.04077411"><ele></ele><time>2014-4-24T6:30:30Z</time></trkpt>
<trkpt lat="48.69926071" lon="2.04095507"><ele></ele><time>2014-4-24T6:30:33Z</time></trkpt>
<trkpt lat="48.69927216" lon="2.04105401"><ele></ele><time>2014-4-24T6:30:36Z</time></trkpt>
<trkpt lat="48.69929123" lon="2.04123497"><ele></ele><time>2014-4-24T6:30:39Z</time></trkpt>
<trkpt lat="48.69929123" lon="2.04139900"><ele></ele><time>2014-4-24T6:30:42Z</time></trkpt>
<trkpt lat="48.69921494" lon="2.04174590"><ele></ele><time>2014-4-24T6:30:45Z</time></trkpt>
<trkpt lat="48.69905090" lon="2.04191089"><ele></ele><time>2014-4-24T6:30:48Z</time></trkpt>
<trkpt lat="48.69897079" lon="2.04193091"><ele></ele><time>2014-4-24T6:30:51Z</time></trkpt>
<trkpt lat="48.69886398" lon="2.04200411"><ele></ele><time>2014-4-24T6:30:54Z</time></trkpt>
<trkpt lat="48.69851685" lon="2.04216599"><ele></ele><time>2014-4-24T6:30:57Z</time></trkpt>
<trkpt lat="48.69839096" lon="2.04218292"><ele></ele><time>2014-4-24T6:31:0Z</time></trkpt>
<trkpt lat="48.69839478" lon="2.04219007"><ele></ele><time>2014-4-24T6:31:3Z</time></trkpt>
<trkpt lat="48.69839478" lon="2.04219604"><ele></ele><time>2014-4-24T6:31:6Z</time></trkpt>
<trkpt lat="48.69841385" lon="2.04221702"><ele></ele><time>2014-4-24T6:31:9Z</time></trkpt>
<trkpt lat="48.69838715" lon="2.04222107"><ele></ele><time>2014-4-24T6:31:12Z</time></trkpt>
<trkpt lat="48.69839096" lon="2.04222202"><ele></ele><time>2014-4-24T6:31:15Z</time></trkpt>
<trkpt lat="48.69841766" lon="2.04221010"><ele></ele><time>2014-4-24T6:31:18Z</time></trkpt>
<trkpt lat="48.69844818" lon="2.04224706"><ele></ele><time>2014-4-24T6:31:21Z</time></trkpt>
<trkpt lat="48.69844818" lon="2.04225707"><ele></ele><time>2014-4-24T6:31:24Z</time></trkpt>
<trkpt lat="48.69845200" lon="2.04230905"><ele></ele><time>2014-4-24T6:31:27Z</time></trkpt>
<trkpt lat="48.69844055" lon="2.04236507"><ele></ele><time>2014-4-24T6:31:30Z</time></trkpt>
<trkpt lat="48.69846725" lon="2.04242492"><ele></ele><time>2014-4-24T6:31:33Z</time></trkpt>
<trkpt lat="48.69832611" lon="2.04263806"><ele></ele><time>2014-4-24T6:31:36Z</time></trkpt>
<trkpt lat="48.69808197" lon="2.04305196"><ele></ele><time>2014-4-24T6:31:39Z</time></trkpt>
<trkpt lat="48.69789124" lon="2.04346991"><ele></ele><time>2014-4-24T6:31:42Z</time></trkpt>
<trkpt lat="48.69770813" lon="2.04395509"><ele></ele><time>2014-4-24T6:31:45Z</time></trkpt>
<trkpt lat="48.69754410" lon="2.04446912"><ele></ele><time>2014-4-24T6:31:48Z</time></trkpt>
<trkpt lat="48.69754791" lon="2.04463005"><ele></ele><time>2014-4-24T6:31:51Z</time></trkpt>
<trkpt lat="48.69779587" lon="2.04484391"><ele></ele><time>2014-4-24T6:31:54Z</time></trkpt>
<trkpt lat="48.69811249" lon="2.04497504"><ele></ele><time>2014-4-24T6:31:57Z</time></trkpt>
<trkpt lat="48.69818115" lon="2.04500890"><ele></ele><time>2014-4-24T6:32:0Z</time></trkpt>
<trkpt lat="48.69827271" lon="2.04504991"><ele></ele><time>2014-4-24T6:32:3Z</time></trkpt>
<trkpt lat="48.69829178" lon="2.04508090"><ele></ele><time>2014-4-24T6:32:6Z</time></trkpt>
<trkpt lat="48.69834900" lon="2.04508305"><ele></ele><time>2014-4-24T6:32:9Z</time></trkpt>
<trkpt lat="48.69840240" lon="2.04500294"><ele></ele><time>2014-4-24T6:32:12Z</time></trkpt>
<trkpt lat="48.69841385" lon="2.04496193"><ele></ele><time>2014-4-24T6:32:15Z</time></trkpt>
<trkpt lat="48.69863510" lon="2.04455709"><ele></ele><time>2014-4-24T6:32:18Z</time></trkpt>
<trkpt lat="48.69871140" lon="2.04432106"><ele></ele><time>2014-4-24T6:32:21Z</time></trkpt>
<trkpt lat="48.69873810" lon="2.04425597"><ele></ele><time>2014-4-24T6:32:24Z</time></trkpt>
<trkpt lat="48.69875717" lon="2.04405689"><ele></ele><time>2014-4-24T6:32:27Z</time></trkpt>
<trkpt lat="48.69883728" lon="2.04387212"><ele></ele><time>2014-4-24T6:32:30Z</time></trkpt>
<trkpt lat="48.69890213" lon="2.04379511"><ele></ele><time>2014-4-24T6:32:33Z</time></trkpt>
<trkpt lat="48.69923019" lon="2.04369807"><ele></ele><time>2014-4-24T6:32:36Z</time></trkpt>
<trkpt lat="48.69937515" lon="2.04378891"><ele></ele><time>2014-4-24T6:32:39Z</time></trkpt>
<trkpt lat="48.69942093" lon="2.04379892"><ele></ele><time>2014-4-24T6:32:42Z</time></trkpt>
<trkpt lat="48.69957352" lon="2.04376101"><ele></ele><time>2014-4-24T6:32:45Z</time></trkpt>
<trkpt lat="48.69994736" lon="2.04329705"><ele></ele><time>2014-4-24T6:32:48Z</time></trkpt>
<trkpt lat="48.70003128" lon="2.04308796"><ele></ele><time>2014-4-24T6:32:51Z</time></trkpt>
<trkpt lat="48.70011139" lon="2.04277110"><ele></ele><time>2014-4-24T6:32:54Z</time></trkpt>
<trkpt lat="48.70009232" lon="2.04214311"><ele></ele><time>2014-4-24T6:32:57Z</time></trkpt>
<trkpt lat="48.70005798" lon="2.04176402"><ele></ele><time>2014-4-24T6:33:0Z</time></trkpt>
<trkpt lat="48.70001984" lon="2.04150391"><ele></ele><time>2014-4-24T6:33:3Z</time></trkpt>
<trkpt lat="48.69993973" lon="2.04110098"><ele></ele><time>2014-4-24T6:33:6Z</time></trkpt>
<trkpt lat="48.69987488" lon="2.04068494"><ele></ele><time>2014-4-24T6:33:9Z</time></trkpt>
<trkpt lat="48.70012665" lon="2.04064298"><ele></ele><time>2014-4-24T6:33:12Z</time></trkpt>
<trkpt lat="48.70054245" lon="2.04081392"><ele></ele><time>2014-4-24T6:33:15Z</time></trkpt>
<trkpt lat="48.70114136" lon="2.04076505"><ele></ele><time>2014-4-24T6:33:18Z</time></trkpt>
<trkpt lat="48.70150375" lon="2.04070306"><ele></ele><time>2014-4-24T6:33:21Z</time></trkpt>
<trkpt lat="48.70158768" lon="2.04069209"><ele></ele><time>2014-4-24T6:33:24Z</time></trkpt>
<trkpt lat="48.70175934" lon="2.04064488"><ele></ele><time>2014-4-24T6:33:27Z</time></trkpt>
<trkpt lat="48.70212936" lon="2.04052901"><ele></ele><time>2014-4-24T6:33:30Z</time></trkpt>
<trkpt lat="48.70250320" lon="2.04040909"><ele></ele><time>2014-4-24T6:33:33Z</time></trkpt>
<trkpt lat="48.70264053" lon="2.04036093"><ele></ele><time>2014-4-24T6:33:36Z</time></trkpt>
<trkpt lat="48.70277405" lon="2.04055405"><ele></ele><time>2014-4-24T6:33:39Z</time></trkpt>
<trkpt lat="48.70283127" lon="2.04090691"><ele></ele><time>2014-4-24T6:33:42Z</time></trkpt>
<trkpt lat="48.70292664" lon="2.04141498"><ele></ele><time>2014-4-24T6:33:45Z</time></trkpt>
<trkpt lat="48.70301056" lon="2.04202509"><ele></ele><time>2014-4-24T6:33:48Z</time></trkpt>
<trkpt lat="48.70308304" lon="2.04263592"><ele></ele><time>2014-4-24T6:33:51Z</time></trkpt>
<trkpt lat="48.70317841" lon="2.04321504"><ele></ele><time>2014-4-24T6:33:54Z</time></trkpt>
<trkpt lat="48.70324707" lon="2.04343200"><ele></ele><time>2014-4-24T6:33:57Z</time></trkpt>
<trkpt lat="48.70333481" lon="2.04373002"><ele></ele><time>2014-4-24T6:34:0Z</time></trkpt>
<trkpt lat="48.70331573" lon="2.04415202"><ele></ele><time>2014-4-24T6:34:3Z</time></trkpt>
<trkpt lat="48.70312881" lon="2.04460406"><ele></ele><time>2014-4-24T6:34:6Z</time></trkpt>
<trkpt lat="48.70291901" lon="2.04490590"><ele></ele><time>2014-4-24T6:34:9Z</time></trkpt>
<trkpt lat="48.70285797" lon="2.04513788"><ele></ele><time>2014-4-24T6:34:12Z</time></trkpt>
<trkpt lat="48.70268631" lon="2.04546499"><ele></ele><time>2014-4-24T6:34:15Z</time></trkpt>
<trkpt lat="48.70261765" lon="2.04566193"><ele></ele><time>2014-4-24T6:34:18Z</time></trkpt>
<trkpt lat="48.70252609" lon="2.04584193"><ele></ele><time>2014-4-24T6:34:21Z</time></trkpt>
<trkpt lat="48.70240784" lon="2.04643512"><ele></ele><time>2014-4-24T6:34:24Z</time></trkpt>
<trkpt lat="48.70240402" lon="2.04678106"><ele></ele><time>2014-4-24T6:34:27Z</time></trkpt>
<trkpt lat="48.70239258" lon="2.04707694"><ele></ele><time>2014-4-24T6:34:30Z</time></trkpt>
<trkpt lat="48.70231628" lon="2.04764700"><ele></ele><time>2014-4-24T6:34:33Z</time></trkpt>
<trkpt lat="48.70229721" lon="2.04823303"><ele></ele><time>2014-4-24T6:34:36Z</time></trkpt>
<trkpt lat="48.70232010" lon="2.04881501"><ele></ele><time>2014-4-24T6:34:39Z</time></trkpt>
<trkpt lat="48.70233536" lon="2.04936695"><ele></ele><time>2014-4-24T6:34:42Z</time></trkpt>
<trkpt lat="48.70233917" lon="2.04970002"><ele></ele><time>2014-4-24T6:34:45Z</time></trkpt>
<trkpt lat="48.70233154" lon="2.05015302"><ele></ele><time>2014-4-24T6:34:48Z</time></trkpt>
<trkpt lat="48.70232010" lon="2.05059195"><ele></ele><time>2014-4-24T6:34:51Z</time></trkpt>
<trkpt lat="48.70229721" lon="2.05120897"><ele></ele><time>2014-4-24T6:34:54Z</time></trkpt>
<trkpt lat="48.70225525" lon="2.05162191"><ele></ele><time>2014-4-24T6:34:57Z</time></trkpt>
<trkpt lat="48.70222092" lon="2.05212092"><ele></ele><time>2014-4-24T6:35:0Z</time></trkpt>
<trkpt lat="48.70216370" lon="2.05263305"><ele></ele><time>2014-4-24T6:35:3Z</time></trkpt>
<trkpt lat="48.70209122" lon="2.05319500"><ele></ele><time>2014-4-24T6:35:6Z</time></trkpt>
<trkpt lat="48.70206070" lon="2.05365705"><ele></ele><time>2014-4-24T6:35:9Z</time></trkpt>
<trkpt lat="48.70210648" lon="2.05420589"><ele></ele><time>2014-4-24T6:35:12Z</time></trkpt>
<trkpt lat="48.70216751" lon="2.05484295"><ele></ele><time>2014-4-24T6:35:15Z</time></trkpt>
<trkpt lat="48.70219040" lon="2.05505204"><ele></ele><time>2014-4-24T6:35:18Z</time></trkpt>
<trkpt lat="48.70226669" lon="2.05542397"><ele></ele><time>2014-4-24T6:35:21Z</time></trkpt>
<trkpt lat="48.70232010" lon="2.05583501"><ele></ele><time>2014-4-24T6:35:24Z</time></trkpt>
<trkpt lat="48.70233917" lon="2.05601096"><ele></ele><time>2014-4-24T6:35:27Z</time></trkpt>
<trkpt lat="48.70243073" lon="2.05642295"><ele></ele><time>2014-4-24T6:35:30Z</time></trkpt>
<trkpt lat="48.70256805" lon="2.05701900"><ele></ele><time>2014-4-24T6:35:33Z</time></trkpt>
<trkpt lat="48.70263672" lon="2.05733609"><ele></ele><time>2014-4-24T6:35:36Z</time></trkpt>
<trkpt lat="48.70267868" lon="2.05792809"><ele></ele><time>2014-4-24T6:35:39Z</time></trkpt>
<trkpt lat="48.70265961" lon="2.05851698"><ele></ele><time>2014-4-24T6:35:42Z</time></trkpt>
<trkpt lat="48.70264435" lon="2.05910611"><ele></ele><time>2014-4-24T6:35:45Z</time></trkpt>
<trkpt lat="48.70262527" lon="2.05966902"><ele></ele><time>2014-4-24T6:35:48Z</time></trkpt>
<trkpt lat="48.70260620" lon="2.06021905"><ele></ele><time>2014-4-24T6:35:51Z</time></trkpt>
<trkpt lat="48.70258713" lon="2.06077003"><ele></ele><time>2014-4-24T6:35:54Z</time></trkpt>
<trkpt lat="48.70256424" lon="2.06136203"><ele></ele><time>2014-4-24T6:35:57Z</time></trkpt>
<trkpt lat="48.70252228" lon="2.06190300"><ele></ele><time>2014-4-24T6:36:0Z</time></trkpt>
<trkpt lat="48.70242691" lon="2.06242704"><ele></ele><time>2014-4-24T6:36:3Z</time></trkpt>
<trkpt lat="48.70236969" lon="2.06269002"><ele></ele><time>2014-4-24T6:36:6Z</time></trkpt>
<trkpt lat="48.70230103" lon="2.06330109"><ele></ele><time>2014-4-24T6:36:9Z</time></trkpt>
<trkpt lat="48.70227814" lon="2.06393409"><ele></ele><time>2014-4-24T6:36:12Z</time></trkpt>
<trkpt lat="48.70227051" lon="2.06430602"><ele></ele><time>2014-4-24T6:36:15Z</time></trkpt>
<trkpt lat="48.70225906" lon="2.06484509"><ele></ele><time>2014-4-24T6:36:18Z</time></trkpt>
<trkpt lat="48.70225906" lon="2.06548405"><ele></ele><time>2014-4-24T6:36:21Z</time></trkpt>
<trkpt lat="48.70235825" lon="2.06604290"><ele></ele><time>2014-4-24T6:36:24Z</time></trkpt>
<trkpt lat="48.70246124" lon="2.06661105"><ele></ele><time>2014-4-24T6:36:27Z</time></trkpt>
<trkpt lat="48.70254517" lon="2.06710100"><ele></ele><time>2014-4-24T6:36:30Z</time></trkpt>
<trkpt lat="48.70262909" lon="2.06772995"><ele></ele><time>2014-4-24T6:36:33Z</time></trkpt>
<trkpt lat="48.70275116" lon="2.06834793"><ele></ele><time>2014-4-24T6:36:36Z</time></trkpt>
<trkpt lat="48.70295715" lon="2.06881595"><ele></ele><time>2014-4-24T6:36:39Z</time></trkpt>
<trkpt lat="48.70317459" lon="2.06931210"><ele></ele><time>2014-4-24T6:36:42Z</time></trkpt>
<trkpt lat="48.70325089" lon="2.06953597"><ele></ele><time>2014-4-24T6:36:45Z</time></trkpt>
<trkpt lat="48.70324707" lon="2.06954098"><ele></ele><time>2014-4-24T6:36:48Z</time></trkpt>
<trkpt lat="48.70324326" lon="2.06952906"><ele></ele><time>2014-4-24T6:36:51Z</time></trkpt>
<trkpt lat="48.70324326" lon="2.06955099"><ele></ele><time>2014-4-24T6:36:54Z</time></trkpt>
<trkpt lat="48.70323181" lon="2.06957197"><ele></ele><time>2014-4-24T6:36:57Z</time></trkpt>
<trkpt lat="48.70324326" lon="2.06952906"><ele></ele><time>2014-4-24T6:37:0Z</time></trkpt>
<trkpt lat="48.70323944" lon="2.06955099"><ele></ele><time>2014-4-24T6:37:3Z</time></trkpt>
<trkpt lat="48.70316315" lon="2.06972194"><ele></ele><time>2014-4-24T6:37:6Z</time></trkpt>
<trkpt lat="48.70312500" lon="2.06976700"><ele></ele><time>2014-4-24T6:37:9Z</time></trkpt>
<trkpt lat="48.70310593" lon="2.06992197"><ele></ele><time>2014-4-24T6:37:12Z</time></trkpt>
<trkpt lat="48.70312881" lon="2.07006502"><ele></ele><time>2014-4-24T6:37:15Z</time></trkpt>
<trkpt lat="48.70315170" lon="2.07022190"><ele></ele><time>2014-4-24T6:37:18Z</time></trkpt>
<trkpt lat="48.70318604" lon="2.07069612"><ele></ele><time>2014-4-24T6:37:21Z</time></trkpt>
<trkpt lat="48.70323944" lon="2.07124996"><ele></ele><time>2014-4-24T6:37:24Z</time></trkpt>
<trkpt lat="48.70331955" lon="2.07186890"><ele></ele><time>2014-4-24T6:37:27Z</time></trkpt>
<trkpt lat="48.70339966" lon="2.07242608"><ele></ele><time>2014-4-24T6:37:30Z</time></trkpt>
<trkpt lat="48.70343018" lon="2.07300806"><ele></ele><time>2014-4-24T6:37:33Z</time></trkpt>
<trkpt lat="48.70356750" lon="2.07314897"><ele></ele><time>2014-4-24T6:37:36Z</time></trkpt>
<trkpt lat="48.70360947" lon="2.07303905"><ele></ele><time>2014-4-24T6:37:39Z</time></trkpt>
<trkpt lat="48.70360947" lon="2.07296896"><ele></ele><time>2014-4-24T6:37:42Z</time></trkpt>
<trkpt lat="48.70361328" lon="2.07289410"><ele></ele><time>2014-4-24T6:37:45Z</time></trkpt>
<trkpt lat="48.70373917" lon="2.07287192"><ele></ele><time>2014-4-24T6:37:48Z</time></trkpt>
<trkpt lat="48.70379639" lon="2.07288194"><ele></ele><time>2014-4-24T6:37:51Z</time></trkpt>
<trkpt lat="48.70381546" lon="2.07278800"><ele></ele><time>2014-4-24T6:37:54Z</time></trkpt>
<trkpt lat="48.70381546" lon="2.07277703"><ele></ele><time>2014-4-24T6:37:57Z</time></trkpt>
<trkpt lat="48.70383453" lon="2.07280803"><ele></ele><time>2014-4-24T6:38:0Z</time></trkpt>
<trkpt lat="48.70388794" lon="2.07280397"><ele></ele><time>2014-4-24T6:38:3Z</time></trkpt>
<trkpt lat="48.70390320" lon="2.07278109"><ele></ele><time>2014-4-24T6:38:6Z</time></trkpt>
<trkpt lat="48.70389938" lon="2.07268691"><ele></ele><time>2014-4-24T6:38:9Z</time></trkpt>
<trkpt lat="48.70388031" lon="2.07262397"><ele></ele><time>2014-4-24T6:38:12Z</time></trkpt>
<trkpt lat="48.70372772" lon="2.07269311"><ele></ele><time>2014-4-24T6:38:15Z</time></trkpt>
<trkpt lat="48.70372009" lon="2.07270694"><ele></ele><time>2014-4-24T6:38:18Z</time></trkpt>
<trkpt lat="48.70372772" lon="2.07270002"><ele></ele><time>2014-4-24T6:38:21Z</time></trkpt>
<trkpt lat="48.70375061" lon="2.07269192"><ele></ele><time>2014-4-24T6:38:24Z</time></trkpt>
<trkpt lat="48.70375443" lon="2.07268906"><ele></ele><time>2014-4-24T6:38:27Z</time></trkpt>
</trkseg></trk></gpx>